Darstellungsparameter: Aktuell verwendete Einstellungen:
Skalierung der Graphiken ... ?
xyx+y,   Skalierungsfaktor:      Skalierung: Modus: x, Faktor: 1
Darstellungszeitraum ... ?
Vom - - bis: - -   Zeitraum: 23.11.2010 - 22.12.2010
Min/Max/Avg-Anzeige ... ?
Zeige MMA aktuell
Zeige MMA Monat
Zeige MMA alles
Zeige --A aktuell
Zeige --A Monat
Zeige --A alles
Keine MMA-Anzeige
MMA:
Average (ber die Originaldaten)
MMA-Basis: 23.11.2010 - 22.12.2010
Quicknavigation für Darstellung... ?
Tage:      1T, 2T, 3T, 5T -1T -2T -3T -5T +1T +2T +3T +5T
Wochen: 1W, 2W, 3W -1W -2W -3W +1W +2W +3W
Monate: 1M, 3M, 6M -1M -3M -6M +1M +3M +6M
Jahre:    1J, 3J, 5J, 10J -1J -3J -5J -10J +1J +3J +5J +10J
Nutze für die Darstellung ... ?
Originaldaten oder Mittelwerte auf ...
Stundenbasis Tagesbasis Wochenbasis
Monatsbasis Jahresbasis      Datenbasis: Original-Daten
Darstellen als:
Statistik (Auto) Statistik J:M      Darstellung:
Zur Graphik,    zurück zur Übersicht aller Sensoren.
 
Tabellarische Datenbersicht: ?
 
Sensor: Nr:Datum:Temp:Abs-Feuchte:Windchill:Wind:
Aussen-T/F 1 23-11-2010 00:11:04 4.4 C 4.96 g/m*3 4.4 C 0 km/h
2 23-11-2010 00:23:04 4.4 C 4.96 g/m*3 4.4 C 0 km/h
3 23-11-2010 00:35:04 4.5 C 4.93 g/m*3 4.5 C 0 km/h
4 23-11-2010 00:47:04 4.5 C 4.93 g/m*3 4.5 C 0 km/h
5 23-11-2010 00:59:04 4.4 C 4.9 g/m*3 4.4 C 0 km/h
6 23-11-2010 01:11:04 4.5 C 4.93 g/m*3 4.5 C 0 km/h
7 23-11-2010 01:23:04 4.5 C 4.86 g/m*3 4.5 C 0 km/h
8 23-11-2010 01:35:04 4.5 C 4.86 g/m*3 4.5 C 0 km/h
9 23-11-2010 01:47:04 4.4 C 4.83 g/m*3 4.4 C 0 km/h
10 23-11-2010 01:59:04 4.4 C 4.77 g/m*3 4.4 C 0 km/h
11 23-11-2010 02:11:04 4.3 C 4.74 g/m*3 4.3 C 0 km/h
12 23-11-2010 02:23:04 4.3 C 4.8 g/m*3 4.3 C 0 km/h
13 23-11-2010 02:35:04 4.3 C 4.61 g/m*3 4.3 C 0 km/h
14 23-11-2010 02:47:04 4.2 C 4.51 g/m*3 4.2 C 0 km/h
15 23-11-2010 02:59:04 4.2 C 4.45 g/m*3 4.2 C 0 km/h
16 23-11-2010 03:11:04 4.2 C 4.45 g/m*3 4.2 C 0 km/h
17 23-11-2010 03:23:04 4.1 C 4.42 g/m*3 4.1 C 0 km/h
18 23-11-2010 03:35:04 4.2 C 4.38 g/m*3 4.2 C 0 km/h
19 23-11-2010 03:47:04 4 C 4.39 g/m*3 4 C 0 km/h
20 23-11-2010 03:59:04 3.9 C 4.48 g/m*3 3.9 C 0 km/h
21 23-11-2010 04:11:04 3.8 C 4.39 g/m*3 3.8 C 0 km/h
22 23-11-2010 04:23:05 3.8 C 4.45 g/m*3 3.8 C 0 km/h
23 23-11-2010 04:35:05 3.7 C 4.55 g/m*3 3.7 C 0 km/h
24 23-11-2010 04:47:05 3.6 C 4.58 g/m*3 3.6 C 0 km/h
25 23-11-2010 04:59:05 3.5 C 4.61 g/m*3 3.5 C 0 km/h
Sensor: Nr:Datum:Temp:Abs-Feuchte:Windchill:Wind:
Aussen-T/F 26 23-11-2010 05:11:05 3.5 C 4.55 g/m*3 3.5 C 0 km/h
27 23-11-2010 05:23:05 3.5 C 4.61 g/m*3 3.5 C 0 km/h
28 23-11-2010 05:35:05 3.4 C 4.58 g/m*3 3.4 C 0 km/h
29 23-11-2010 05:47:05 2.9 C 4.67 g/m*3 2.9 C 0 km/h
30 23-11-2010 05:59:05 2.7 C 4.84 g/m*3 2.7 C 0 km/h
31 23-11-2010 06:11:05 2.6 C 4.92 g/m*3 2.6 C 0 km/h
32 23-11-2010 06:23:05 2.7 C 4.95 g/m*3 2.7 C 0 km/h
33 23-11-2010 06:35:05 2.6 C 5.03 g/m*3 2.6 C 0 km/h
34 23-11-2010 06:47:05 2.7 C 5.07 g/m*3 2.7 C 0 km/h
35 23-11-2010 06:59:05 2.7 C 5.07 g/m*3 2.7 C 0 km/h
36 23-11-2010 07:11:05 2.6 C 5.09 g/m*3 2.6 C 0 km/h
37 23-11-2010 07:23:02 2.8 C 5.16 g/m*3 2.8 C 0 km/h
38 23-11-2010 07:35:03 3.1 C 5.09 g/m*3 3.1 C 0 km/h
39 23-11-2010 07:47:02 3.2 C 5.06 g/m*3 3.2 C 0 km/h
40 23-11-2010 07:59:02 3.1 C 4.97 g/m*3 3.1 C 0 km/h
41 23-11-2010 08:11:02 3.1 C 4.91 g/m*3 3.1 C 0 km/h
42 23-11-2010 08:23:01 3 C 4.88 g/m*3 3 C 0 km/h
43 23-11-2010 08:35:02 3.1 C 4.97 g/m*3 3.1 C 0 km/h
44 23-11-2010 08:47:02 3.3 C 4.85 g/m*3 3.3 C 0 km/h
45 23-11-2010 08:59:02 3.4 C 4.83 g/m*3 3.4 C 0 km/h
46 23-11-2010 09:11:03 3.6 C 4.77 g/m*3 3.6 C 0 km/h
47 23-11-2010 09:23:02 3.7 C 4.74 g/m*3 3.7 C 0 km/h
48 23-11-2010 09:35:02 3.6 C 4.77 g/m*3 3.6 C 0 km/h
49 23-11-2010 09:47:01 3.7 C 4.8 g/m*3 3.7 C 0 km/h
50 23-11-2010 09:59:01 3.8 C 4.71 g/m*3 3.8 C 0 km/h
Sensor: Nr:Datum:Temp:Abs-Feuchte:Windchill:Wind:
Aussen-T/F 51 23-11-2010 10:11:02 4 C 4.64 g/m*3 4 C 0 km/h
52 23-11-2010 10:23:01 4.1 C 4.61 g/m*3 4.1 C 0 km/h
53 23-11-2010 10:35:01 4.3 C 4.54 g/m*3 4.3 C 0 km/h
54 23-11-2010 10:47:01 4.4 C 4.57 g/m*3 4.4 C 0 km/h
55 23-11-2010 10:59:01 4.5 C 4.54 g/m*3 4.5 C 0 km/h
56 23-11-2010 11:11:02 4.4 C 4.57 g/m*3 4.4 C 0 km/h
57 23-11-2010 11:23:02 4.7 C 4.73 g/m*3 4.7 C 0 km/h
58 23-11-2010 11:35:01 4.8 C 4.76 g/m*3 4.8 C 0 km/h
59 23-11-2010 11:47:01 4.9 C 4.66 g/m*3 4.9 C 0 km/h
60 23-11-2010 11:59:01 4.8 C 4.56 g/m*3 4.8 C 0 km/h
61 23-11-2010 12:11:01 5.2 C 4.61 g/m*3 5.2 C 0 km/h
62 23-11-2010 12:23:01 5.2 C 4.48 g/m*3 5.2 C 0 km/h
63 23-11-2010 12:35:01 5.1 C 4.38 g/m*3 5.1 C 0 km/h
64 23-11-2010 12:47:01 5.4 C 4.47 g/m*3 5.4 C 0 km/h
65 23-11-2010 12:59:01 5.5 C 4.42 g/m*3 5.5 C 0 km/h
66 23-11-2010 13:11:02 5.8 C 4.44 g/m*3 5.8 C 0 km/h
67 23-11-2010 13:23:01 6 C 4.43 g/m*3 6 C 0 km/h
68 23-11-2010 13:35:02 6.2 C 4.34 g/m*3 6.2 C 0 km/h
69 23-11-2010 13:47:01 6.1 C 4.31 g/m*3 6.1 C 0 km/h
70 23-11-2010 13:59:01 6.1 C 4.31 g/m*3 6.1 C 0 km/h
71 23-11-2010 14:11:02 5.9 C 4.25 g/m*3 5.9 C 0 km/h
72 23-11-2010 14:23:01 5.8 C 4.23 g/m*3 5.8 C 0 km/h
73 23-11-2010 14:35:02 5.7 C 4.27 g/m*3 5.7 C 0 km/h
74 23-11-2010 14:47:01 5.7 C 4.27 g/m*3 5.7 C 0 km/h
75 23-11-2010 14:59:01 5.6 C 4.24 g/m*3 5.6 C 0 km/h
Sensor: Nr:Datum:Temp:Abs-Feuchte:Windchill:Wind:
Aussen-T/F 76 23-11-2010 15:11:02 5.7 C 4.2 g/m*3 5.7 C 0 km/h
77 23-11-2010 15:23:02 5.6 C 4.17 g/m*3 5.6 C 0 km/h
78 23-11-2010 15:35:01 5.6 C 4.24 g/m*3 5.6 C 0 km/h
79 23-11-2010 15:47:02 5.5 C 4.28 g/m*3 5.5 C 0 km/h
80 23-11-2010 15:59:02 5.3 C 4.37 g/m*3 5.3 C 0 km/h
81 23-11-2010 16:11:01 5.3 C 4.44 g/m*3 5.3 C 0 km/h
82 23-11-2010 16:23:02 5.4 C 4.47 g/m*3 5.4 C 0 km/h
83 23-11-2010 16:35:01 5.4 C 4.47 g/m*3 5.4 C 0 km/h
84 23-11-2010 16:47:03 5.5 C 4.49 g/m*3 5.5 C 0 km/h
85 23-11-2010 16:59:03 5.3 C 4.51 g/m*3 5.3 C 0 km/h
86 23-11-2010 17:11:02 5.3 C 4.51 g/m*3 5.3 C 0 km/h
87 23-11-2010 17:23:02 5.3 C 4.51 g/m*3 5.3 C 0 km/h
88 23-11-2010 17:35:02 5.3 C 4.44 g/m*3 5.3 C 0 km/h
89 23-11-2010 17:47:02 5.4 C 4.4 g/m*3 5.4 C 0 km/h
90 23-11-2010 17:59:03 5.3 C 4.44 g/m*3 5.3 C 0 km/h
91 23-11-2010 18:11:01 5.2 C 4.48 g/m*3 5.2 C 0 km/h
92 23-11-2010 18:23:02 5.4 C 4.47 g/m*3 5.4 C 0 km/h
93 23-11-2010 18:35:02 5.2 C 4.41 g/m*3 5.2 C 0 km/h
94 23-11-2010 18:47:02 5.4 C 4.33 g/m*3 5.4 C 0 km/h
95 23-11-2010 18:59:02 5.2 C 4.41 g/m*3 5.2 C 0 km/h
96 23-11-2010 19:11:03 5.2 C 4.48 g/m*3 5.2 C 0 km/h
97 23-11-2010 19:23:02 5.3 C 4.51 g/m*3 5.3 C 0 km/h
98 23-11-2010 19:35:02 5.2 C 4.48 g/m*3 5.2 C 0 km/h
99 23-11-2010 19:47:01 5.1 C 4.51 g/m*3 5.1 C 0 km/h
100 23-11-2010 19:59:01 5.2 C 4.54 g/m*3 5.2 C 0 km/h
Sensor: Nr:Datum:Temp:Abs-Feuchte:Windchill:Wind:
Aussen-T/F 101 23-11-2010 20:11:02 5 C 4.48 g/m*3 5 C 0 km/h
102 23-11-2010 20:23:01 5.2 C 4.48 g/m*3 5.2 C 0 km/h
103 23-11-2010 20:35:02 5.2 C 4.41 g/m*3 5.2 C 0 km/h
104 23-11-2010 20:47:01 5.2 C 4.34 g/m*3 5.2 C 0 km/h
105 23-11-2010 20:59:01 5.1 C 4.58 g/m*3 5.1 C 0 km/h
106 23-11-2010 21:11:02 4.8 C 4.49 g/m*3 4.8 C 0 km/h
107 23-11-2010 21:23:01 5.1 C 4.31 g/m*3 5.1 C 0 km/h
108 23-11-2010 21:35:02 5 C 4.28 g/m*3 5 C 0 km/h
109 23-11-2010 21:47:01 5 C 4.28 g/m*3 5 C 0 km/h
110 23-11-2010 21:59:01 5 C 4.28 g/m*3 5 C 0 km/h
111 23-11-2010 22:12:03 5 C 4.28 g/m*3 5 C 0 km/h
112 23-11-2010 22:24:03 5 C 4.28 g/m*3 5 C 0 km/h
113 23-11-2010 22:36:03 4.9 C 4.39 g/m*3 4.9 C 0 km/h
114 23-11-2010 22:48:03 4.9 C 4.39 g/m*3 4.9 C 0 km/h
115 23-11-2010 23:00:03 4.8 C 4.36 g/m*3 4.8 C 0 km/h
116 23-11-2010 23:12:03 4.8 C 4.36 g/m*3 4.8 C 0 km/h
117 23-11-2010 23:24:03 4.6 C 4.37 g/m*3 4.6 C 0 km/h
118 23-11-2010 23:36:03 4.6 C 4.43 g/m*3 4.6 C 0 km/h
119 23-11-2010 23:48:03 4.4 C 4.44 g/m*3 4.4 C 0 km/h
120 24-11-2010 00:00:03 4.2 C 4.45 g/m*3 4.2 C 0 km/h
121 24-11-2010 00:12:03 4.4 C 4.51 g/m*3 4.4 C 0 km/h
122 24-11-2010 00:24:03 4.4 C 4.44 g/m*3 4.4 C 0 km/h
123 24-11-2010 00:36:03 4.3 C 4.41 g/m*3 4.3 C 0 km/h
124 24-11-2010 00:48:04 4.3 C 4.41 g/m*3 4.3 C 0 km/h
125 24-11-2010 01:00:04 4.3 C 4.41 g/m*3 4.3 C 0 km/h
Sensor: Nr:Datum:Temp:Abs-Feuchte:Windchill:Wind:
Aussen-T/F 126 24-11-2010 01:12:04 4.3 C 4.41 g/m*3 4.3 C 0 km/h
127 24-11-2010 01:24:04 3.6 C 4.39 g/m*3 3.6 C 0 km/h
128 24-11-2010 01:36:04 3.6 C 4.52 g/m*3 3.6 C 0 km/h
129 24-11-2010 01:48:04 4 C 4.58 g/m*3 4 C 0 km/h
130 24-11-2010 02:00:04 3.5 C 4.49 g/m*3 3.5 C 0 km/h
131 24-11-2010 02:12:04 3.4 C 4.52 g/m*3 3.4 C 0 km/h
132 24-11-2010 02:24:04 3.5 C 4.55 g/m*3 3.5 C 0 km/h
133 24-11-2010 02:36:04 3.3 C 4.43 g/m*3 3.3 C 0 km/h
134 24-11-2010 02:48:04 3.4 C 4.52 g/m*3 3.4 C 0 km/h
135 24-11-2010 03:00:04 3.5 C 4.49 g/m*3 3.5 C 0 km/h
136 24-11-2010 03:12:04 3.5 C 4.61 g/m*3 3.5 C 0 km/h
137 24-11-2010 03:24:04 3.5 C 4.61 g/m*3 3.5 C 0 km/h
138 24-11-2010 03:36:04 3.5 C 4.67 g/m*3 3.5 C 0 km/h
139 24-11-2010 03:48:04 3.6 C 4.7 g/m*3 3.6 C 0 km/h
140 24-11-2010 04:00:04 3.6 C 4.7 g/m*3 3.6 C 0 km/h
141 24-11-2010 04:12:04 3.5 C 4.67 g/m*3 3.5 C 0 km/h
142 24-11-2010 04:24:04 3.5 C 4.73 g/m*3 3.5 C 0 km/h
143 24-11-2010 04:36:04 3.4 C 4.7 g/m*3 3.4 C 0 km/h
144 24-11-2010 04:48:05 3.3 C 4.79 g/m*3 3.3 C 0 km/h
145 24-11-2010 05:00:05 3.1 C 4.85 g/m*3 3.1 C 0 km/h
146 24-11-2010 05:12:05 2.9 C 4.96 g/m*3 2.9 C 0 km/h
147 24-11-2010 05:24:05 2.9 C 5.02 g/m*3 2.9 C 0 km/h
148 24-11-2010 05:36:05 2.8 C 5.04 g/m*3 2.8 C 0 km/h
149 24-11-2010 05:48:05 2.9 C 5.14 g/m*3 2.9 C 0 km/h
150 24-11-2010 06:00:05 3 C 5.11 g/m*3 3 C 0 km/h
Sensor: Nr:Datum:Temp:Abs-Feuchte:Windchill:Wind:
Aussen-T/F 151 24-11-2010 06:12:05 3.2 C 5.12 g/m*3 3.2 C 0 km/h
152 24-11-2010 06:24:05 3.2 C 5.06 g/m*3 3.2 C 0 km/h
153 24-11-2010 06:36:05 3.3 C 5.04 g/m*3 3.3 C 0 km/h
154 24-11-2010 06:48:05 3.3 C 5.04 g/m*3 3.3 C 0 km/h
155 24-11-2010 07:00:05 3.4 C 5.01 g/m*3 3.4 C 0 km/h
156 24-11-2010 07:12:02 3.4 C 5.01 g/m*3 3.4 C 0 km/h
157 24-11-2010 07:24:03 3.3 C 5.04 g/m*3 3.3 C 0 km/h
158 24-11-2010 07:36:03 3.2 C 5 g/m*3 3.2 C 0 km/h
159 24-11-2010 07:48:01 3.4 C 5.01 g/m*3 3.4 C 0 km/h
160 24-11-2010 08:00:01 3.5 C 5.04 g/m*3 3.5 C 0 km/h
161 24-11-2010 08:12:01 3.4 C 4.95 g/m*3 3.4 C 0 km/h
162 24-11-2010 08:24:01 3.3 C 5.04 g/m*3 3.3 C 0 km/h
163 24-11-2010 08:36:02 3.3 C 5.1 g/m*3 3.3 C 0 km/h
164 24-11-2010 08:48:02 3.6 C 5.26 g/m*3 3.6 C 0 km/h
165 24-11-2010 09:00:02 3.6 C 5.14 g/m*3 3.6 C 0 km/h
166 24-11-2010 09:12:02 4.1 C 5.06 g/m*3 4.1 C 0 km/h
167 24-11-2010 09:24:01 4.3 C 4.93 g/m*3 4.3 C 0 km/h
168 24-11-2010 09:36:02 4.5 C 4.93 g/m*3 4.5 C 0 km/h
169 24-11-2010 09:48:02 4.6 C 4.9 g/m*3 4.6 C 0 km/h
170 24-11-2010 10:00:02 4.8 C 4.83 g/m*3 4.8 C 0 km/h
171 24-11-2010 10:12:02 5.1 C 4.72 g/m*3 5.1 C 0 km/h
172 24-11-2010 10:24:02 5.2 C 4.68 g/m*3 5.2 C 0 km/h
173 24-11-2010 10:36:01 5.4 C 4.67 g/m*3 5.4 C 0 km/h
174 24-11-2010 10:48:02 5.6 C 4.6 g/m*3 5.6 C 0 km/h
175 24-11-2010 11:00:02 5.7 C 4.63 g/m*3 5.7 C 0 km/h
Sensor: Nr:Datum:Temp:Abs-Feuchte:Windchill:Wind:
Aussen-T/F 176 24-11-2010 11:12:01 4.9 C 4.73 g/m*3 4.9 C 0 km/h
177 24-11-2010 11:24:01 4.9 C 4.86 g/m*3 4.9 C 0 km/h
178 24-11-2010 11:36:02 5 C 4.89 g/m*3 5 C 0 km/h
179 24-11-2010 11:48:02 5.6 C 4.81 g/m*3 5.6 C 0 km/h
180 24-11-2010 12:00:02 5.6 C 4.6 g/m*3 5.6 C 0 km/h
181 24-11-2010 12:12:01 5.8 C 4.58 g/m*3 5.8 C 0 km/h
182 24-11-2010 12:24:02 6.1 C 4.53 g/m*3 6.1 C 0 km/h
183 24-11-2010 12:36:02 5.9 C 4.61 g/m*3 5.9 C 0 km/h
184 24-11-2010 12:48:01 5.6 C 4.52 g/m*3 5.6 C 0 km/h
185 24-11-2010 13:00:01 5.6 C 4.6 g/m*3 5.6 C 0 km/h
186 24-11-2010 13:12:02 5.6 C 4.67 g/m*3 5.6 C 0 km/h
187 24-11-2010 13:24:01 5.4 C 4.54 g/m*3 5.4 C 0 km/h
188 24-11-2010 13:36:01 5.1 C 4.58 g/m*3 5.1 C 0 km/h
189 24-11-2010 13:48:01 5.1 C 4.65 g/m*3 5.1 C 0 km/h
190 24-11-2010 14:00:01 4.9 C 4.73 g/m*3 4.9 C 0 km/h
191 24-11-2010 14:12:02 4.7 C 5 g/m*3 4.7 C 0 km/h
192 24-11-2010 14:24:01 4.5 C 5.19 g/m*3 4.5 C 0 km/h
193 24-11-2010 14:36:01 4.3 C 5.25 g/m*3 4.3 C 0 km/h
194 24-11-2010 14:48:01 4 C 5.21 g/m*3 4 C 0 km/h
195 24-11-2010 15:00:01 3.5 C 5.04 g/m*3 3.5 C 0 km/h
196 24-11-2010 15:12:02 3.4 C 5.13 g/m*3 3.4 C 0 km/h
197 24-11-2010 15:24:02 3.5 C 5.29 g/m*3 3.5 C 0 km/h
198 24-11-2010 15:36:01 3.5 C 5.35 g/m*3 3.5 C 0 km/h
199 24-11-2010 15:48:02 3.5 C 5.41 g/m*3 3.5 C 0 km/h
200 24-11-2010 16:00:02 3.5 C 5.41 g/m*3 3.5 C 0 km/h
Sensor: Nr:Datum:Temp:Abs-Feuchte:Windchill:Wind:
Aussen-T/F 201 24-11-2010 16:12:01 3.5 C 5.35 g/m*3 3.5 C 0 km/h
202 24-11-2010 16:24:02 3.3 C 5.16 g/m*3 3.3 C 0 km/h
203 24-11-2010 16:36:01 3.1 C 5.09 g/m*3 3.1 C 0 km/h
204 24-11-2010 16:48:02 3.1 C 5.09 g/m*3 3.1 C 0 km/h
205 24-11-2010 17:00:02 3 C 5.05 g/m*3 3 C 0 km/h
206 24-11-2010 17:12:02 3 C 5.05 g/m*3 3 C 0 km/h
207 24-11-2010 17:24:02 2.4 C 4.91 g/m*3 2.4 C 0 km/h
208 24-11-2010 17:36:02 1.6 C 4.7 g/m*3 1.6 C 0 km/h
209 24-11-2010 17:48:02 1.4 C 4.69 g/m*3 1.4 C 0 km/h
210 24-11-2010 18:00:02 1.4 C 4.75 g/m*3 1.4 C 0 km/h
211 24-11-2010 18:12:01 1.5 C 4.83 g/m*3 1.5 C 0 km/h
212 24-11-2010 18:24:01 1.6 C 4.92 g/m*3 1.6 C 0 km/h
213 24-11-2010 18:36:02 1.7 C 4.95 g/m*3 1.7 C 0 km/h
214 24-11-2010 18:48:02 2 C 5.06 g/m*3 2 C 0 km/h
215 24-11-2010 19:00:02 2 C 5.06 g/m*3 2 C 0 km/h
216 24-11-2010 19:12:02 2.2 C 5.13 g/m*3 2.2 C 0 km/h
217 24-11-2010 19:24:02 2.1 C 5.09 g/m*3 2.1 C 0 km/h
218 24-11-2010 19:36:02 1.9 C 5.08 g/m*3 1.9 C 0 km/h
219 24-11-2010 19:48:02 1.9 C 5.08 g/m*3 1.9 C 0 km/h
220 24-11-2010 20:00:02 1.5 C 4.94 g/m*3 1.5 C 0 km/h
221 24-11-2010 20:12:02 1.3 C 4.87 g/m*3 1.3 C 0 km/h
222 24-11-2010 20:24:02 1.4 C 4.91 g/m*3 1.4 C 0 km/h
223 24-11-2010 20:36:02 1.3 C 4.87 g/m*3 1.3 C 0 km/h
224 24-11-2010 20:48:02 1.6 C 4.97 g/m*3 1.6 C 0 km/h
225 24-11-2010 21:00:02 1.9 C 5.08 g/m*3 1.9 C 0 km/h
Sensor: Nr:Datum:Temp:Abs-Feuchte:Windchill:Wind:
Aussen-T/F 226 24-11-2010 21:12:02 1.3 C 4.87 g/m*3 1.3 C 0 km/h
227 24-11-2010 21:24:02 1 C 4.78 g/m*3 1 C 0 km/h
228 24-11-2010 21:36:03 1.2 C 4.84 g/m*3 1.2 C 0 km/h
229 24-11-2010 21:49:04 1.7 C 5.01 g/m*3 1.7 C 0 km/h
230 24-11-2010 22:01:04 2 C 5.11 g/m*3 2 C 0 km/h
231 24-11-2010 22:13:04 2.2 C 5.18 g/m*3 2.2 C 0 km/h
232 24-11-2010 22:25:04 2.3 C 5.22 g/m*3 2.3 C 0 km/h
233 24-11-2010 22:37:05 2.1 C 5.09 g/m*3 2.1 C 0 km/h
234 24-11-2010 22:49:05 2.1 C 5.04 g/m*3 2.1 C 0 km/h
235 24-11-2010 23:01:05 2.1 C 5.04 g/m*3 2.1 C 0 km/h
236 24-11-2010 23:13:05 2.1 C 4.98 g/m*3 2.1 C 0 km/h
237 24-11-2010 23:25:05 2.6 C 5.15 g/m*3 2.6 C 0 km/h
238 24-11-2010 23:37:05 2.6 C 5.09 g/m*3 2.6 C 0 km/h
239 24-11-2010 23:49:05 2.6 C 5.03 g/m*3 2.6 C 0 km/h
240 25-11-2010 00:01:05 2.4 C 4.91 g/m*3 2.4 C 0 km/h
241 25-11-2010 00:13:05 2.6 C 4.98 g/m*3 2.6 C 0 km/h
242 25-11-2010 00:25:05 2.4 C 4.91 g/m*3 2.4 C 0 km/h
243 25-11-2010 00:37:05 2.5 C 4.94 g/m*3 2.5 C 0 km/h
244 25-11-2010 00:49:05 2.6 C 4.92 g/m*3 2.6 C 0 km/h
245 25-11-2010 01:01:05 2.6 C 4.92 g/m*3 2.6 C 0 km/h
246 25-11-2010 01:13:05 3.1 C 4.97 g/m*3 3.1 C 0 km/h
247 25-11-2010 01:25:05 3 C 4.76 g/m*3 3 C 0 km/h
248 25-11-2010 01:37:05 2.9 C 4.78 g/m*3 2.9 C 0 km/h
249 25-11-2010 01:49:05 3.1 C 4.67 g/m*3 3.1 C 0 km/h
250 25-11-2010 02:01:05 3 C 4.52 g/m*3 3 C 0 km/h
Sensor: Nr:Datum:Temp:Abs-Feuchte:Windchill:Wind:
Aussen-T/F 251 25-11-2010 02:13:05 2.9 C 4.55 g/m*3 2.9 C 0 km/h
252 25-11-2010 02:25:05 2.7 C 4.54 g/m*3 2.7 C 0 km/h
253 25-11-2010 02:37:05 2.6 C 4.57 g/m*3 2.6 C 0 km/h
254 25-11-2010 02:49:06 2.6 C 4.57 g/m*3 2.6 C 0 km/h
255 25-11-2010 03:01:06 2.5 C 4.6 g/m*3 2.5 C 0 km/h
256 25-11-2010 03:13:06 3 C 4.52 g/m*3 3 C 0 km/h
257 25-11-2010 03:25:06 3.1 C 4.37 g/m*3 3.1 C 0 km/h
258 25-11-2010 03:37:06 2.9 C 4.31 g/m*3 2.9 C 0 km/h
259 25-11-2010 03:49:06 2.6 C 4.34 g/m*3 2.6 C 0 km/h
260 25-11-2010 04:01:06 2.5 C 4.31 g/m*3 2.5 C 0 km/h
261 25-11-2010 04:13:06 2 C 4.17 g/m*3 2 C 0 km/h
262 25-11-2010 04:25:06 1.9 C 4.19 g/m*3 1.9 C 0 km/h
263 25-11-2010 04:37:06 1.7 C 4.14 g/m*3 1.7 C 0 km/h
264 25-11-2010 04:49:06 2 C 4.17 g/m*3 2 C 0 km/h
265 25-11-2010 05:01:06 1.5 C 4.03 g/m*3 1.5 C 0 km/h
266 25-11-2010 05:13:06 1.4 C 4.11 g/m*3 1.4 C 0 km/h
267 25-11-2010 05:25:06 1.7 C 4.19 g/m*3 1.7 C 0 km/h
268 25-11-2010 05:37:06 0.9 C 4.02 g/m*3 0.9 C 0 km/h
269 25-11-2010 05:49:06 1 C 4.05 g/m*3 1 C 0 km/h
270 25-11-2010 06:01:06 0.9 C 4.02 g/m*3 0.9 C 0 km/h
271 25-11-2010 06:13:06 1.4 C 4.21 g/m*3 1.4 C 0 km/h
272 25-11-2010 06:25:06 0.7 C 4.12 g/m*3 0.7 C 0 km/h
273 25-11-2010 06:37:06 0.1 C 4.05 g/m*3 0.1 C 0 km/h
274 25-11-2010 06:49:06 0.2 C 4.18 g/m*3 0.2 C 0 km/h
275 25-11-2010 07:01:07 0.3 C 4.25 g/m*3 0.3 C 0 km/h
Sensor: Nr:Datum:Temp:Abs-Feuchte:Windchill:Wind:
Aussen-T/F 276 25-11-2010 07:13:07 0.3 C 4.3 g/m*3 0.3 C 0 km/h
277 25-11-2010 07:25:04 0.2 C 4.27 g/m*3 0.2 C 0 km/h
278 25-11-2010 07:37:04 -0.2 C 4.21 g/m*3 -0.2 C 0 km/h
279 25-11-2010 07:49:02 -0.3 C 4.18 g/m*3 -0.3 C 0 km/h
280 25-11-2010 08:01:01 -0.4 C 4.15 g/m*3 -0.4 C 0 km/h
281 25-11-2010 08:13:01 -0.2 C 4.25 g/m*3 -0.2 C 0 km/h
282 25-11-2010 08:25:02 -0.4 C 4.19 g/m*3 -0.4 C 0 km/h
283 25-11-2010 08:37:02 -0.4 C 4.19 g/m*3 -0.4 C 0 km/h
284 25-11-2010 08:49:02 0 C 4.36 g/m*3 0 C 0 km/h
285 25-11-2010 09:01:02 0.4 C 4.48 g/m*3 0.4 C 0 km/h
286 25-11-2010 09:13:02 0.5 C 4.46 g/m*3 0.5 C 0 km/h
287 25-11-2010 09:25:01 0.7 C 4.47 g/m*3 0.7 C 0 km/h
288 25-11-2010 09:37:01 0.7 C 4.42 g/m*3 0.7 C 0 km/h
289 25-11-2010 09:49:03 0.6 C 4.39 g/m*3 0.6 C 0 km/h
290 25-11-2010 10:01:02 0.4 C 4.28 g/m*3 0.4 C 0 km/h
291 25-11-2010 10:13:02 0.6 C 4.39 g/m*3 0.6 C 0 km/h
292 25-11-2010 10:25:02 0.9 C 4.48 g/m*3 0.9 C 0 km/h
293 25-11-2010 10:37:02 1 C 4.46 g/m*3 1 C 0 km/h
294 25-11-2010 10:49:02 1.1 C 4.49 g/m*3 1.1 C 0 km/h
295 25-11-2010 11:01:01 1.2 C 4.47 g/m*3 1.2 C 0 km/h
296 25-11-2010 11:13:01 1.4 C 4.53 g/m*3 1.4 C 0 km/h
297 25-11-2010 11:25:02 1.9 C 4.58 g/m*3 1.9 C 0 km/h
298 25-11-2010 11:37:02 2.2 C 4.56 g/m*3 2.2 C 0 km/h
299 25-11-2010 11:49:02 2.1 C 4.48 g/m*3 2.1 C 0 km/h
300 25-11-2010 12:01:02 1.7 C 4.41 g/m*3 1.7 C 0 km/h
Sensor: Nr:Datum:Temp:Abs-Feuchte:Windchill:Wind:
Aussen-T/F 301 25-11-2010 12:13:02 1.5 C 4.4 g/m*3 1.5 C 0 km/h
302 25-11-2010 12:25:02 1.4 C 4.43 g/m*3 1.4 C 0 km/h
303 25-11-2010 12:37:02 2.4 C 4.74 g/m*3 2.4 C 0 km/h
304 25-11-2010 12:49:01 3 C 4.58 g/m*3 3 C 0 km/h
305 25-11-2010 13:01:02 3.3 C 4.43 g/m*3 3.3 C 0 km/h
306 25-11-2010 13:13:03 3.4 C 4.28 g/m*3 3.4 C 0 km/h
307 25-11-2010 13:25:01 3.6 C 4.15 g/m*3 3.6 C 0 km/h
308 25-11-2010 13:37:01 3.5 C 4.12 g/m*3 3.5 C 0 km/h
309 25-11-2010 13:49:01 3.6 C 4.15 g/m*3 3.6 C 0 km/h
310 25-11-2010 14:01:01 3.6 C 4.09 g/m*3 3.6 C 0 km/h
311 25-11-2010 14:13:01 3.7 C 4.11 g/m*3 3.7 C 0 km/h
312 25-11-2010 14:25:02 3.7 C 4.05 g/m*3 3.7 C 0 km/h
313 25-11-2010 14:37:01 3.6 C 4.09 g/m*3 3.6 C 0 km/h
314 25-11-2010 14:49:02 3.7 C 3.8 g/m*3 3.7 C 0 km/h
315 25-11-2010 15:01:01 3.8 C 3.89 g/m*3 3.8 C 0 km/h
316 25-11-2010 15:13:01 3.8 C 3.89 g/m*3 3.8 C 0 km/h
317 25-11-2010 15:25:01 3.5 C 3.75 g/m*3 3.5 C 0 km/h
318 25-11-2010 15:37:01 2.9 C 4.07 g/m*3 2.9 C 0 km/h
319 25-11-2010 15:49:02 2.4 C 4.17 g/m*3 2.4 C 0 km/h
320 25-11-2010 16:01:02 2.2 C 4.17 g/m*3 2.2 C 0 km/h
321 25-11-2010 16:13:02 2 C 4.17 g/m*3 2 C 0 km/h
322 25-11-2010 16:25:02 1.8 C 4.22 g/m*3 1.8 C 0 km/h
323 25-11-2010 16:37:02 2.1 C 4.25 g/m*3 2.1 C 0 km/h
324 25-11-2010 16:49:02 2.1 C 4.25 g/m*3 2.1 C 0 km/h
325 25-11-2010 17:01:02 2.1 C 4.25 g/m*3 2.1 C 0 km/h
Sensor: Nr:Datum:Temp:Abs-Feuchte:Windchill:Wind:
Aussen-T/F 326 25-11-2010 17:13:02 2.1 C 4.36 g/m*3 2.1 C 0 km/h
327 25-11-2010 17:25:01 2 C 4.39 g/m*3 2 C 0 km/h
328 25-11-2010 17:37:02 2 C 4.33 g/m*3 2 C 0 km/h
329 25-11-2010 17:49:02 2 C 4.39 g/m*3 2 C 0 km/h
330 25-11-2010 18:01:02 2 C 4.39 g/m*3 2 C 0 km/h
331 25-11-2010 18:13:02 1.8 C 4.39 g/m*3 1.8 C 0 km/h
332 25-11-2010 18:25:02 1.9 C 4.53 g/m*3 1.9 C 0 km/h
333 25-11-2010 18:37:02 1.8 C 4.49 g/m*3 1.8 C 0 km/h
334 25-11-2010 18:49:02 1.2 C 4.31 g/m*3 1.2 C 0 km/h
335 25-11-2010 19:01:02 0.9 C 4.28 g/m*3 0.9 C 0 km/h
336 25-11-2010 19:13:02 0.8 C 4.3 g/m*3 0.8 C 0 km/h
337 25-11-2010 19:25:01 0.9 C 4.38 g/m*3 0.9 C 0 km/h
338 25-11-2010 19:37:02 1.1 C 4.49 g/m*3 1.1 C 0 km/h
339 25-11-2010 19:49:01 1.2 C 4.47 g/m*3 1.2 C 0 km/h
340 25-11-2010 20:01:02 0.8 C 4.4 g/m*3 0.8 C 0 km/h
341 25-11-2010 20:13:03 0.8 C 4.4 g/m*3 0.8 C 0 km/h
342 25-11-2010 20:25:01 0.7 C 4.42 g/m*3 0.7 C 0 km/h
343 25-11-2010 20:37:02 0.5 C 4.36 g/m*3 0.5 C 0 km/h
344 25-11-2010 20:50:04 0.7 C 4.42 g/m*3 0.7 C 0 km/h
345 25-11-2010 21:02:04 0.9 C 4.48 g/m*3 0.9 C 0 km/h
346 25-11-2010 21:14:04 1.2 C 4.53 g/m*3 1.2 C 0 km/h
347 25-11-2010 21:26:04 1.4 C 4.53 g/m*3 1.4 C 0 km/h
348 25-11-2010 21:38:04 1.4 C 4.48 g/m*3 1.4 C 0 km/h
349 25-11-2010 21:50:04 1.3 C 4.45 g/m*3 1.3 C 0 km/h
350 25-11-2010 22:02:04 1.4 C 4.48 g/m*3 1.4 C 0 km/h
Sensor: Nr:Datum:Temp:Abs-Feuchte:Windchill:Wind:
Aussen-T/F 351 25-11-2010 22:14:04 1.3 C 4.45 g/m*3 1.3 C 0 km/h
352 25-11-2010 22:26:04 1.3 C 4.5 g/m*3 1.3 C 0 km/h
353 25-11-2010 22:38:05 1.3 C 4.5 g/m*3 1.3 C 0 km/h
354 25-11-2010 22:50:05 1.4 C 4.53 g/m*3 1.4 C 0 km/h
355 25-11-2010 23:02:05 1.2 C 4.47 g/m*3 1.2 C 0 km/h
356 25-11-2010 23:14:05 1.3 C 4.5 g/m*3 1.3 C 0 km/h
357 25-11-2010 23:26:05 1.4 C 4.53 g/m*3 1.4 C 0 km/h
358 25-11-2010 23:38:05 1.5 C 4.57 g/m*3 1.5 C 0 km/h
359 25-11-2010 23:50:05 1.4 C 4.53 g/m*3 1.4 C 0 km/h
360 26-11-2010 00:02:05 1.4 C 4.53 g/m*3 1.4 C 0 km/h
361 26-11-2010 00:14:05 1.6 C 4.6 g/m*3 1.6 C 0 km/h
362 26-11-2010 00:26:05 1.6 C 4.6 g/m*3 1.6 C 0 km/h
363 26-11-2010 00:38:05 1.4 C 4.48 g/m*3 1.4 C 0 km/h
364 26-11-2010 00:50:05 1 C 4.36 g/m*3 1 C 0 km/h
365 26-11-2010 01:02:05 0.9 C 4.43 g/m*3 0.9 C 0 km/h
366 26-11-2010 01:14:05 1.1 C 4.49 g/m*3 1.1 C 0 km/h
367 26-11-2010 01:26:05 1.1 C 4.55 g/m*3 1.1 C 0 km/h
368 26-11-2010 01:38:05 1.2 C 4.53 g/m*3 1.2 C 0 km/h
369 26-11-2010 01:50:05 1 C 4.46 g/m*3 1 C 0 km/h
370 26-11-2010 02:02:05 1 C 4.46 g/m*3 1 C 0 km/h
371 26-11-2010 02:14:05 1.1 C 4.49 g/m*3 1.1 C 0 km/h
372 26-11-2010 02:26:05 1 C 4.46 g/m*3 1 C 0 km/h
373 26-11-2010 02:38:05 1.1 C 4.49 g/m*3 1.1 C 0 km/h
374 26-11-2010 02:50:06 1.1 C 4.44 g/m*3 1.1 C 0 km/h
375 26-11-2010 03:02:06 1.1 C 4.49 g/m*3 1.1 C 0 km/h
Sensor: Nr:Datum:Temp:Abs-Feuchte:Windchill:Wind:
Aussen-T/F 376 26-11-2010 03:14:06 1.2 C 4.47 g/m*3 1.2 C 0 km/h
377 26-11-2010 03:26:06 0.6 C 4.29 g/m*3 0.6 C 0 km/h
378 26-11-2010 03:38:06 0.4 C 4.28 g/m*3 0.4 C 0 km/h
379 26-11-2010 03:50:06 0.4 C 4.33 g/m*3 0.4 C 0 km/h
380 26-11-2010 04:02:06 0.4 C 4.38 g/m*3 0.4 C 0 km/h
381 26-11-2010 04:14:06 0.3 C 4.35 g/m*3 0.3 C 0 km/h
382 26-11-2010 04:26:06 0.3 C 4.4 g/m*3 0.3 C 0 km/h
383 26-11-2010 04:38:06 0.3 C 4.4 g/m*3 0.3 C 0 km/h
384 26-11-2010 04:50:06 0.3 C 4.45 g/m*3 0.3 C 0 km/h
385 26-11-2010 05:02:06 0.3 C 4.45 g/m*3 0.3 C 0 km/h
386 26-11-2010 05:14:06 0.1 C 4.39 g/m*3 0.1 C 0 km/h
387 26-11-2010 05:26:06 0.2 C 4.47 g/m*3 0.2 C 0 km/h
388 26-11-2010 05:38:06 0.3 C 4.5 g/m*3 0.3 C 0 km/h
389 26-11-2010 05:50:06 0.4 C 4.53 g/m*3 0.4 C 0 km/h
390 26-11-2010 06:02:06 0.4 C 4.53 g/m*3 0.4 C 0 km/h
391 26-11-2010 06:14:06 0.4 C 4.53 g/m*3 0.4 C 0 km/h
392 26-11-2010 06:26:06 0.2 C 4.47 g/m*3 0.2 C 0 km/h
393 26-11-2010 06:38:06 0.1 C 4.44 g/m*3 0.1 C 0 km/h
394 26-11-2010 06:50:07 0 C 4.46 g/m*3 0 C 0 km/h
395 26-11-2010 07:02:03 0 C 4.46 g/m*3 0 C 0 km/h
396 26-11-2010 07:14:03 0 C 4.46 g/m*3 0 C 0 km/h
397 26-11-2010 07:26:03 0 C 4.46 g/m*3 0 C 0 km/h
398 26-11-2010 07:38:03 0 C 4.46 g/m*3 0 C 0 km/h
399 26-11-2010 07:50:01 0 C 4.46 g/m*3 0 C 0 km/h
400 26-11-2010 08:02:02 0 C 4.46 g/m*3 0 C 0 km/h
Sensor: Nr:Datum:Temp:Abs-Feuchte:Windchill:Wind:
Aussen-T/F 401 26-11-2010 08:14:02 0 C 4.46 g/m*3 0 C 0 km/h
402 26-11-2010 08:26:01 0 C 4.46 g/m*3 0 C 0 km/h
403 26-11-2010 08:38:01 0.1 C 4.54 g/m*3 0.1 C 0 km/h
404 26-11-2010 08:50:01 0.1 C 4.54 g/m*3 0.1 C 0 km/h
405 26-11-2010 09:02:01 0.1 C 4.54 g/m*3 0.1 C 0 km/h
406 26-11-2010 09:14:01 0.1 C 4.54 g/m*3 0.1 C 0 km/h
407 26-11-2010 09:26:01 0.1 C 4.54 g/m*3 0.1 C 0 km/h
408 26-11-2010 09:38:02 0.2 C 4.57 g/m*3 0.2 C 0 km/h
409 26-11-2010 09:50:02 0.2 C 4.57 g/m*3 0.2 C 0 km/h
410 26-11-2010 10:02:01 0.4 C 4.63 g/m*3 0.4 C 0 km/h
411 26-11-2010 10:14:01 0.4 C 4.63 g/m*3 0.4 C 0 km/h
412 26-11-2010 10:26:02 0.5 C 4.61 g/m*3 0.5 C 0 km/h
413 26-11-2010 10:38:02 0.7 C 4.68 g/m*3 0.7 C 0 km/h
414 26-11-2010 10:50:01 0.9 C 4.74 g/m*3 0.9 C 0 km/h
415 26-11-2010 11:02:02 1 C 4.67 g/m*3 1 C 0 km/h
416 26-11-2010 11:14:02 1 C 4.62 g/m*3 1 C 0 km/h
417 26-11-2010 11:26:01 1.2 C 4.63 g/m*3 1.2 C 0 km/h
418 26-11-2010 11:38:01 1.2 C 4.58 g/m*3 1.2 C 0 km/h
419 26-11-2010 11:50:01 1.2 C 4.53 g/m*3 1.2 C 0 km/h
420 26-11-2010 12:02:02 1.1 C 4.49 g/m*3 1.1 C 0 km/h
421 26-11-2010 12:14:02 1.1 C 4.49 g/m*3 1.1 C 0 km/h
422 26-11-2010 12:26:01 0.8 C 4.4 g/m*3 0.8 C 0 km/h
423 26-11-2010 12:38:02 0.7 C 4.37 g/m*3 0.7 C 0 km/h
424 26-11-2010 12:50:01 0.5 C 4.31 g/m*3 0.5 C 0 km/h
425 26-11-2010 13:02:02 0.4 C 4.28 g/m*3 0.4 C 0 km/h
Sensor: Nr:Datum:Temp:Abs-Feuchte:Windchill:Wind:
Aussen-T/F 426 26-11-2010 13:14:02 0.6 C 4.34 g/m*3 0.6 C 0 km/h
427 26-11-2010 13:26:02 1 C 4.46 g/m*3 1 C 0 km/h
428 26-11-2010 13:38:01 1.3 C 4.5 g/m*3 1.3 C 0 km/h
429 26-11-2010 13:50:01 1.2 C 4.26 g/m*3 1.2 C 0 km/h
430 26-11-2010 14:02:01 1.4 C 4.21 g/m*3 1.4 C 0 km/h
431 26-11-2010 14:14:01 1.5 C 4.19 g/m*3 1.5 C 0 km/h
432 26-11-2010 14:26:02 1.5 C 4.14 g/m*3 1.5 C 0 km/h
433 26-11-2010 14:38:01 1.8 C 4.17 g/m*3 1.8 C 0 km/h
434 26-11-2010 14:50:03 1.8 C 4.17 g/m*3 1.8 C 0 km/h
435 26-11-2010 15:02:02 1.4 C 3.79 g/m*3 1.4 C 0 km/h
436 26-11-2010 15:14:02 1 C 3.74 g/m*3 1 C 0 km/h
437 26-11-2010 15:26:02 0.9 C 3.81 g/m*3 0.9 C 0 km/h
438 26-11-2010 15:38:02 0.7 C 3.86 g/m*3 0.7 C 0 km/h
439 26-11-2010 15:50:02 0 C 3.78 g/m*3 0 C 0 km/h
440 26-11-2010 16:02:01 -0.8 C 3.71 g/m*3 -0.8 C 0 km/h
441 26-11-2010 16:14:01 -1.1 C 3.73 g/m*3 -1.1 C 0 km/h
442 26-11-2010 16:26:02 -1.6 C 3.68 g/m*3 -1.6 C 0 km/h
443 26-11-2010 16:38:02 -1.8 C 3.68 g/m*3 -1.8 C 0 km/h
444 26-11-2010 16:50:02 -2.1 C 3.64 g/m*3 -2.1 C 0 km/h
445 26-11-2010 17:02:03 -2.2 C 3.66 g/m*3 -2.2 C 0 km/h
446 26-11-2010 17:14:03 -2.4 C 3.61 g/m*3 -2.4 C 0 km/h
447 26-11-2010 17:26:02 -2.5 C 3.62 g/m*3 -2.5 C 0 km/h
448 26-11-2010 17:38:02 -2.5 C 3.62 g/m*3 -2.5 C 0 km/h
449 26-11-2010 17:50:01 -2.2 C 3.74 g/m*3 -2.2 C 0 km/h
450 26-11-2010 18:02:02 -1.5 C 3.93 g/m*3 -1.5 C 0 km/h
Sensor: Nr:Datum:Temp:Abs-Feuchte:Windchill:Wind:
Aussen-T/F 451 26-11-2010 18:14:02 -1.3 C 4.03 g/m*3 -1.3 C 0 km/h
452 26-11-2010 18:26:01 -1.3 C 4.03 g/m*3 -1.3 C 0 km/h
453 26-11-2010 18:38:01 -1.4 C 4 g/m*3 -1.4 C 0 km/h
454 26-11-2010 18:50:01 -1.4 C 4 g/m*3 -1.4 C 0 km/h
455 26-11-2010 19:02:02 -1.4 C 4 g/m*3 -1.4 C 0 km/h
456 26-11-2010 19:14:02 -1.4 C 4 g/m*3 -1.4 C 0 km/h
457 26-11-2010 19:26:01 -1.4 C 4 g/m*3 -1.4 C 0 km/h
458 26-11-2010 19:38:01 -1.6 C 3.94 g/m*3 -1.6 C 0 km/h
459 26-11-2010 19:50:02 -1.9 C 3.86 g/m*3 -1.9 C 0 km/h
460 26-11-2010 20:02:02 -1.8 C 3.89 g/m*3 -1.8 C 0 km/h
461 26-11-2010 20:14:02 -1.9 C 3.86 g/m*3 -1.9 C 0 km/h
462 26-11-2010 20:26:02 -1.7 C 3.92 g/m*3 -1.7 C 0 km/h
463 26-11-2010 20:38:02 -1.9 C 3.86 g/m*3 -1.9 C 0 km/h
464 26-11-2010 20:50:02 -2.5 C 3.7 g/m*3 -2.5 C 0 km/h
465 26-11-2010 21:02:01 -2.2 C 3.78 g/m*3 -2.2 C 0 km/h
466 26-11-2010 21:14:01 -2 C 3.84 g/m*3 -2 C 0 km/h
467 26-11-2010 21:26:02 -2.3 C 3.76 g/m*3 -2.3 C 0 km/h
468 26-11-2010 21:38:02 -2.6 C 3.68 g/m*3 -2.6 C 0 km/h
469 26-11-2010 21:50:02 -2.6 C 3.68 g/m*3 -2.6 C 0 km/h
470 26-11-2010 22:02:02 -3 C 3.57 g/m*3 -3 C 0 km/h
471 26-11-2010 22:14:02 -3.3 C 3.46 g/m*3 -3.3 C 0 km/h
472 26-11-2010 22:26:02 -3.1 C 3.55 g/m*3 -3.1 C 0 km/h
473 26-11-2010 22:38:02 -3.2 C 3.52 g/m*3 -3.2 C 0 km/h
474 26-11-2010 22:50:02 -3.6 C 3.39 g/m*3 -3.6 C 0 km/h
475 26-11-2010 23:03:02 -3.8 C 3.34 g/m*3 -3.8 C 0 km/h
Sensor: Nr:Datum:Temp:Abs-Feuchte:Windchill:Wind:
Aussen-T/F 476 26-11-2010 23:15:02 -3.8 C 3.34 g/m*3 -3.8 C 0 km/h
477 26-11-2010 23:27:02 -3.9 C 3.32 g/m*3 -3.9 C 0 km/h
478 26-11-2010 23:39:02 -3.7 C 3.36 g/m*3 -3.7 C 0 km/h
479 26-11-2010 23:51:02 -3.6 C 3.39 g/m*3 -3.6 C 0 km/h
480 27-11-2010 00:03:02 -4 C 3.29 g/m*3 -4 C 0 km/h
481 27-11-2010 00:15:02 -4.1 C 3.27 g/m*3 -4.1 C 0 km/h
482 27-11-2010 00:27:02 -4.2 C 3.25 g/m*3 -4.2 C 0 km/h
483 27-11-2010 00:39:02 -4.1 C 3.27 g/m*3 -4.1 C 0 km/h
484 27-11-2010 00:51:02 -4 C 3.29 g/m*3 -4 C 0 km/h
485 27-11-2010 01:03:02 -3.1 C 3.51 g/m*3 -3.1 C 0 km/h
486 27-11-2010 01:15:02 -2.7 C 3.61 g/m*3 -2.7 C 0 km/h
487 27-11-2010 01:27:02 -3.7 C 3.36 g/m*3 -3.7 C 0 km/h
488 27-11-2010 01:39:02 -4.3 C 3.19 g/m*3 -4.3 C 0 km/h
489 27-11-2010 01:51:03 -3.9 C 3.28 g/m*3 -3.9 C 0 km/h
490 27-11-2010 02:03:03 -3.9 C 3.28 g/m*3 -3.9 C 0 km/h
491 27-11-2010 02:15:03 -4.1 C 3.2 g/m*3 -4.1 C 0 km/h
492 27-11-2010 02:27:03 -4.5 C 3.11 g/m*3 -4.5 C 0 km/h
493 27-11-2010 02:39:03 -4 C 3.22 g/m*3 -4 C 0 km/h
494 27-11-2010 02:51:03 -3.2 C 3.45 g/m*3 -3.2 C 0 km/h
495 27-11-2010 03:03:03 -2.8 C 3.55 g/m*3 -2.8 C 0 km/h
496 27-11-2010 03:15:03 -2.7 C 3.61 g/m*3 -2.7 C 0 km/h
497 27-11-2010 03:27:03 -2.9 C 3.52 g/m*3 -2.9 C 0 km/h
498 27-11-2010 03:39:03 -3.5 C 3.37 g/m*3 -3.5 C 0 km/h
499 27-11-2010 03:51:03 -3.9 C 3.24 g/m*3 -3.9 C 0 km/h
500 27-11-2010 04:03:03 -4.1 C 3.2 g/m*3 -4.1 C 0 km/h
Sensor: Nr:Datum:Temp:Abs-Feuchte:Windchill:Wind:
Aussen-T/F 501 27-11-2010 04:15:03 -4 C 3.22 g/m*3 -4 C 0 km/h
502 27-11-2010 04:27:03 -4.1 C 3.2 g/m*3 -4.1 C 0 km/h
503 27-11-2010 04:39:03 -4 C 3.22 g/m*3 -4 C 0 km/h
504 27-11-2010 04:51:03 -4.4 C 3.13 g/m*3 -4.4 C 0 km/h
505 27-11-2010 05:03:03 -4.5 C 3.11 g/m*3 -4.5 C 0 km/h
506 27-11-2010 05:15:03 -4.7 C 3.03 g/m*3 -4.7 C 0 km/h
507 27-11-2010 05:27:03 -4.4 C 3.13 g/m*3 -4.4 C 0 km/h
508 27-11-2010 05:39:03 -4 C 3.22 g/m*3 -4 C 0 km/h
509 27-11-2010 05:51:03 -3.8 C 3.27 g/m*3 -3.8 C 0 km/h
510 27-11-2010 06:03:04 -3.7 C 3.29 g/m*3 -3.7 C 0 km/h
511 27-11-2010 06:15:04 -3.4 C 3.4 g/m*3 -3.4 C 0 km/h
512 27-11-2010 06:27:04 -3.4 C 3.4 g/m*3 -3.4 C 0 km/h
513 27-11-2010 06:39:04 -3.5 C 3.34 g/m*3 -3.5 C 0 km/h
514 27-11-2010 06:51:04 -3.6 C 3.31 g/m*3 -3.6 C 0 km/h
515 27-11-2010 07:03:04 -3.8 C 3.27 g/m*3 -3.8 C 0 km/h
516 27-11-2010 07:15:04 -3.4 C 3.36 g/m*3 -3.4 C 0 km/h
517 27-11-2010 07:27:04 -3.5 C 3.34 g/m*3 -3.5 C 0 km/h
518 27-11-2010 07:39:04 -3.6 C 3.31 g/m*3 -3.6 C 0 km/h
519 27-11-2010 07:51:04 -3.4 C 3.36 g/m*3 -3.4 C 0 km/h
520 27-11-2010 08:03:04 -3.5 C 3.34 g/m*3 -3.5 C 0 km/h
521 27-11-2010 08:15:04 -3.4 C 3.36 g/m*3 -3.4 C 0 km/h
522 27-11-2010 08:27:04 -2.9 C 3.52 g/m*3 -2.9 C 0 km/h
523 27-11-2010 08:39:04 -2.6 C 3.6 g/m*3 -2.6 C 0 km/h
524 27-11-2010 08:51:04 -2.6 C 3.6 g/m*3 -2.6 C 0 km/h
525 27-11-2010 09:03:04 -2.3 C 3.67 g/m*3 -2.3 C 0 km/h
Sensor: Nr:Datum:Temp:Abs-Feuchte:Windchill:Wind:
Aussen-T/F 526 27-11-2010 09:15:04 -2 C 3.75 g/m*3 -2 C 0 km/h
527 27-11-2010 09:27:04 -1.9 C 3.78 g/m*3 -1.9 C 0 km/h
528 27-11-2010 09:39:04 -1.7 C 3.83 g/m*3 -1.7 C 0 km/h
529 27-11-2010 09:51:04 -1.1 C 4 g/m*3 -1.1 C 0 km/h
530 27-11-2010 10:03:02 -0.8 C 4.13 g/m*3 -0.8 C 0 km/h
531 27-11-2010 10:15:02 -0.8 C 4.08 g/m*3 -0.8 C 0 km/h
532 27-11-2010 10:27:02 -1 C 4.02 g/m*3 -1 C 0 km/h
533 27-11-2010 10:39:01 -1 C 3.98 g/m*3 -1 C 0 km/h
534 27-11-2010 10:51:02 -0.6 C 4.09 g/m*3 -0.6 C 0 km/h
535 27-11-2010 11:03:01 -0.4 C 4.15 g/m*3 -0.4 C 0 km/h
536 27-11-2010 11:15:02 -0.4 C 4.15 g/m*3 -0.4 C 0 km/h
537 27-11-2010 11:27:02 -0.3 C 4.18 g/m*3 -0.3 C 0 km/h
538 27-11-2010 11:39:01 0 C 4.26 g/m*3 0 C 0 km/h
539 27-11-2010 11:51:02 0.1 C 4.2 g/m*3 0.1 C 0 km/h
540 27-11-2010 12:03:02 0.2 C 4.13 g/m*3 0.2 C 0 km/h
541 27-11-2010 12:15:02 0.3 C 4.06 g/m*3 0.3 C 0 km/h
542 27-11-2010 12:27:02 0.4 C 4.03 g/m*3 0.4 C 0 km/h
543 27-11-2010 12:39:03 0.6 C 3.99 g/m*3 0.6 C 0 km/h
544 27-11-2010 12:51:02 0.4 C 3.79 g/m*3 0.4 C 0 km/h
545 27-11-2010 13:03:02 0.7 C 3.86 g/m*3 0.7 C 0 km/h
546 27-11-2010 13:15:02 0.7 C 3.86 g/m*3 0.7 C 0 km/h
547 27-11-2010 13:27:02 0.7 C 3.92 g/m*3 0.7 C 0 km/h
548 27-11-2010 13:39:02 1 C 4 g/m*3 1 C 0 km/h
549 27-11-2010 13:51:02 1.2 C 3.89 g/m*3 1.2 C 0 km/h
550 27-11-2010 14:03:02 1.4 C 3.95 g/m*3 1.4 C 0 km/h
Sensor: Nr:Datum:Temp:Abs-Feuchte:Windchill:Wind:
Aussen-T/F 551 27-11-2010 14:15:02 1.5 C 3.87 g/m*3 1.5 C 0 km/h
552 27-11-2010 14:27:02 1.5 C 3.71 g/m*3 1.5 C 0 km/h
553 27-11-2010 14:39:02 1.7 C 3.7 g/m*3 1.7 C 0 km/h
554 27-11-2010 14:51:01 1.3 C 3.71 g/m*3 1.3 C 0 km/h
555 27-11-2010 15:03:02 1 C 3.74 g/m*3 1 C 0 km/h
556 27-11-2010 15:15:01 1 C 3.84 g/m*3 1 C 0 km/h
557 27-11-2010 15:27:01 0.8 C 3.79 g/m*3 0.8 C 0 km/h
558 27-11-2010 15:39:01 0.7 C 3.81 g/m*3 0.7 C 0 km/h
559 27-11-2010 15:51:01 0.3 C 3.81 g/m*3 0.3 C 0 km/h
560 27-11-2010 16:03:01 -0.3 C 3.56 g/m*3 -0.3 C 0 km/h
561 27-11-2010 16:15:02 -0.5 C 3.6 g/m*3 -0.5 C 0 km/h
562 27-11-2010 16:27:02 -0.7 C 3.6 g/m*3 -0.7 C 0 km/h
563 27-11-2010 16:39:01 -1 C 3.57 g/m*3 -1 C 0 km/h
564 27-11-2010 16:51:02 -1.1 C 3.59 g/m*3 -1.1 C 0 km/h
565 27-11-2010 17:03:01 -1 C 3.66 g/m*3 -1 C 0 km/h
566 27-11-2010 17:15:02 -0.7 C 3.69 g/m*3 -0.7 C 0 km/h
567 27-11-2010 17:27:02 -0.7 C 3.65 g/m*3 -0.7 C 0 km/h
568 27-11-2010 17:39:01 -0.8 C 3.67 g/m*3 -0.8 C 0 km/h
569 27-11-2010 17:51:02 -1.1 C 3.59 g/m*3 -1.1 C 0 km/h
570 27-11-2010 18:03:02 -1.6 C 3.51 g/m*3 -1.6 C 0 km/h
571 27-11-2010 18:15:02 -1.8 C 3.51 g/m*3 -1.8 C 0 km/h
572 27-11-2010 18:27:02 -1.8 C 3.55 g/m*3 -1.8 C 0 km/h
573 27-11-2010 18:39:02 -1.7 C 3.62 g/m*3 -1.7 C 0 km/h
574 27-11-2010 18:51:02 -1 C 3.8 g/m*3 -1 C 0 km/h
575 27-11-2010 19:03:01 -0.9 C 3.78 g/m*3 -0.9 C 0 km/h
Sensor: Nr:Datum:Temp:Abs-Feuchte:Windchill:Wind:
Aussen-T/F 576 27-11-2010 19:15:02 -1 C 3.71 g/m*3 -1 C 0 km/h
577 27-11-2010 19:27:02 -1.1 C 3.73 g/m*3 -1.1 C 0 km/h
578 27-11-2010 19:39:02 -0.9 C 3.78 g/m*3 -0.9 C 0 km/h
579 27-11-2010 19:51:02 -0.7 C 3.78 g/m*3 -0.7 C 0 km/h
580 27-11-2010 20:03:03 -0.7 C 3.78 g/m*3 -0.7 C 0 km/h
581 27-11-2010 20:15:02 -0.7 C 3.74 g/m*3 -0.7 C 0 km/h
582 27-11-2010 20:27:02 -1.2 C 3.52 g/m*3 -1.2 C 0 km/h
583 27-11-2010 20:39:02 -2.2 C 3.33 g/m*3 -2.2 C 0 km/h
584 27-11-2010 20:51:01 -2.7 C 3.25 g/m*3 -2.7 C 0 km/h
585 27-11-2010 21:03:02 -3 C 3.22 g/m*3 -3 C 0 km/h
586 27-11-2010 21:15:01 -3 C 3.3 g/m*3 -3 C 0 km/h
587 27-11-2010 21:27:01 -3 C 3.3 g/m*3 -3 C 0 km/h
588 27-11-2010 21:39:01 -3.2 C 3.25 g/m*3 -3.2 C 0 km/h
589 27-11-2010 21:51:01 -3.3 C 3.27 g/m*3 -3.3 C 0 km/h
590 27-11-2010 22:03:02 -3.8 C 3.15 g/m*3 -3.8 C 0 km/h
591 27-11-2010 22:15:01 -3.8 C 3.19 g/m*3 -3.8 C 0 km/h
592 27-11-2010 22:27:01 -3.2 C 3.37 g/m*3 -3.2 C 0 km/h
593 27-11-2010 22:40:03 -3.3 C 3.31 g/m*3 -3.3 C 0 km/h
594 27-11-2010 22:52:03 -2.7 C 3.49 g/m*3 -2.7 C 0 km/h
595 27-11-2010 23:04:03 -2.8 C 3.43 g/m*3 -2.8 C 0 km/h
596 27-11-2010 23:16:03 -2.8 C 3.43 g/m*3 -2.8 C 0 km/h
597 27-11-2010 23:28:03 -3 C 3.38 g/m*3 -3 C 0 km/h
598 27-11-2010 23:40:03 -3.6 C 3.2 g/m*3 -3.6 C 0 km/h
599 27-11-2010 23:52:03 -3.9 C 3.13 g/m*3 -3.9 C 0 km/h
600 28-11-2010 00:04:03 -3.9 C 3.17 g/m*3 -3.9 C 0 km/h
Sensor: Nr:Datum:Temp:Abs-Feuchte:Windchill:Wind:
Aussen-T/F 601 28-11-2010 00:16:03 -3.8 C 3.19 g/m*3 -3.8 C 0 km/h
602 28-11-2010 00:28:03 -3.7 C 3.21 g/m*3 -3.7 C 0 km/h
603 28-11-2010 00:40:03 -3.8 C 3.19 g/m*3 -3.8 C 0 km/h
604 28-11-2010 00:52:03 -3.6 C 3.24 g/m*3 -3.6 C 0 km/h
605 28-11-2010 01:04:03 -3.4 C 3.32 g/m*3 -3.4 C 0 km/h
606 28-11-2010 01:16:03 -3 C 3.42 g/m*3 -3 C 0 km/h
607 28-11-2010 01:28:03 -2.7 C 3.53 g/m*3 -2.7 C 0 km/h
608 28-11-2010 01:40:03 -2.4 C 3.61 g/m*3 -2.4 C 0 km/h
609 28-11-2010 01:52:03 -2.3 C 3.63 g/m*3 -2.3 C 0 km/h
610 28-11-2010 02:04:03 -2.1 C 3.64 g/m*3 -2.1 C 0 km/h
611 28-11-2010 02:16:03 -2.2 C 3.62 g/m*3 -2.2 C 0 km/h
612 28-11-2010 02:28:04 -2.1 C 3.64 g/m*3 -2.1 C 0 km/h
613 28-11-2010 02:40:04 -2.1 C 3.6 g/m*3 -2.1 C 0 km/h
614 28-11-2010 02:52:04 -2.4 C 3.52 g/m*3 -2.4 C 0 km/h
615 28-11-2010 03:04:04 -2.6 C 3.43 g/m*3 -2.6 C 0 km/h
616 28-11-2010 03:16:04 -3.3 C 3.23 g/m*3 -3.3 C 0 km/h
617 28-11-2010 03:28:04 -3.8 C 3.12 g/m*3 -3.8 C 0 km/h
618 28-11-2010 03:40:04 -3.6 C 3.16 g/m*3 -3.6 C 0 km/h
619 28-11-2010 03:52:04 -3.7 C 3.18 g/m*3 -3.7 C 0 km/h
620 28-11-2010 04:04:04 -3.2 C 3.33 g/m*3 -3.2 C 0 km/h
621 28-11-2010 04:16:04 -2.8 C 3.43 g/m*3 -2.8 C 0 km/h
622 28-11-2010 04:28:04 -2.5 C 3.5 g/m*3 -2.5 C 0 km/h
623 28-11-2010 04:40:04 -2.4 C 3.52 g/m*3 -2.4 C 0 km/h
624 28-11-2010 04:52:04 -2.3 C 3.55 g/m*3 -2.3 C 0 km/h
625 28-11-2010 05:04:04 -2.3 C 3.55 g/m*3 -2.3 C 0 km/h
Sensor: Nr:Datum:Temp:Abs-Feuchte:Windchill:Wind:
Aussen-T/F 626 28-11-2010 05:16:04 -2.6 C 3.48 g/m*3 -2.6 C 0 km/h
627 28-11-2010 05:28:04 -3 C 3.34 g/m*3 -3 C 0 km/h
628 28-11-2010 05:40:04 -3 C 3.34 g/m*3 -3 C 0 km/h
629 28-11-2010 05:52:04 -2.7 C 3.41 g/m*3 -2.7 C 0 km/h
630 28-11-2010 06:04:04 -2.5 C 3.5 g/m*3 -2.5 C 0 km/h
631 28-11-2010 06:16:04 -2.3 C 3.55 g/m*3 -2.3 C 0 km/h
632 28-11-2010 06:28:04 -2.1 C 3.6 g/m*3 -2.1 C 0 km/h
633 28-11-2010 06:40:04 -2 C 3.58 g/m*3 -2 C 0 km/h
634 28-11-2010 06:52:05 -2 C 3.58 g/m*3 -2 C 0 km/h
635 28-11-2010 07:04:05 -2 C 3.58 g/m*3 -2 C 0 km/h
636 28-11-2010 07:16:05 -1.9 C 3.57 g/m*3 -1.9 C 0 km/h
637 28-11-2010 07:28:05 -1.9 C 3.57 g/m*3 -1.9 C 0 km/h
638 28-11-2010 07:40:05 -1.8 C 3.59 g/m*3 -1.8 C 0 km/h
639 28-11-2010 07:52:05 -1.8 C 3.59 g/m*3 -1.8 C 0 km/h
640 28-11-2010 08:04:05 -1.8 C 3.55 g/m*3 -1.8 C 0 km/h
641 28-11-2010 08:16:05 -1.7 C 3.62 g/m*3 -1.7 C 0 km/h
642 28-11-2010 08:28:05 -1.6 C 3.64 g/m*3 -1.6 C 0 km/h
643 28-11-2010 08:40:05 -1.6 C 3.6 g/m*3 -1.6 C 0 km/h
644 28-11-2010 08:52:05 -1.6 C 3.6 g/m*3 -1.6 C 0 km/h
645 28-11-2010 09:04:05 -1.4 C 3.6 g/m*3 -1.4 C 0 km/h
646 28-11-2010 09:16:05 -1.3 C 3.63 g/m*3 -1.3 C 0 km/h
647 28-11-2010 09:28:05 -1.2 C 3.61 g/m*3 -1.2 C 0 km/h
648 28-11-2010 09:40:03 -1.1 C 3.59 g/m*3 -1.1 C 0 km/h
649 28-11-2010 09:52:01 -0.9 C 3.64 g/m*3 -0.9 C 0 km/h
650 28-11-2010 10:04:02 -0.4 C 3.72 g/m*3 -0.4 C 0 km/h
Sensor: Nr:Datum:Temp:Abs-Feuchte:Windchill:Wind:
Aussen-T/F 651 28-11-2010 10:16:02 -0.5 C 3.6 g/m*3 -0.5 C 0 km/h
652 28-11-2010 10:28:02 -0.4 C 3.63 g/m*3 -0.4 C 0 km/h
653 28-11-2010 10:40:02 -0.4 C 3.58 g/m*3 -0.4 C 0 km/h
654 28-11-2010 10:52:02 -0.2 C 3.63 g/m*3 -0.2 C 0 km/h
655 28-11-2010 11:04:01 -0.1 C 3.61 g/m*3 -0.1 C 0 km/h
656 28-11-2010 11:16:02 -0.2 C 3.54 g/m*3 -0.2 C 0 km/h
657 28-11-2010 11:28:02 -0.3 C 3.51 g/m*3 -0.3 C 0 km/h
658 28-11-2010 11:40:01 -0.1 C 3.56 g/m*3 -0.1 C 0 km/h
659 28-11-2010 11:52:02 -0.2 C 3.54 g/m*3 -0.2 C 0 km/h
660 28-11-2010 12:04:01 0 C 3.59 g/m*3 0 C 0 km/h
661 28-11-2010 12:16:01 0.1 C 3.61 g/m*3 0.1 C 0 km/h
662 28-11-2010 12:28:01 0 C 3.59 g/m*3 0 C 0 km/h
663 28-11-2010 12:40:02 0 C 3.59 g/m*3 0 C 0 km/h
664 28-11-2010 12:52:02 0 C 3.59 g/m*3 0 C 0 km/h
665 28-11-2010 13:04:02 0 C 3.59 g/m*3 0 C 0 km/h
666 28-11-2010 13:16:02 0.1 C 3.61 g/m*3 0.1 C 0 km/h
667 28-11-2010 13:28:02 0.1 C 3.66 g/m*3 0.1 C 0 km/h
668 28-11-2010 13:40:02 0.2 C 3.64 g/m*3 0.2 C 0 km/h
669 28-11-2010 13:52:02 0.3 C 3.66 g/m*3 0.3 C 0 km/h
670 28-11-2010 14:04:02 0.2 C 3.64 g/m*3 0.2 C 0 km/h
671 28-11-2010 14:16:02 0.3 C 3.66 g/m*3 0.3 C 0 km/h
672 28-11-2010 14:28:02 0.5 C 3.71 g/m*3 0.5 C 0 km/h
673 28-11-2010 14:40:02 0.7 C 3.71 g/m*3 0.7 C 0 km/h
674 28-11-2010 14:52:01 0.8 C 3.74 g/m*3 0.8 C 0 km/h
675 28-11-2010 15:04:02 0.7 C 3.71 g/m*3 0.7 C 0 km/h
Sensor: Nr:Datum:Temp:Abs-Feuchte:Windchill:Wind:
Aussen-T/F 676 28-11-2010 15:16:01 0.7 C 3.71 g/m*3 0.7 C 0 km/h
677 28-11-2010 15:28:01 0.6 C 3.74 g/m*3 0.6 C 0 km/h
678 28-11-2010 15:40:01 0.5 C 3.71 g/m*3 0.5 C 0 km/h
679 28-11-2010 15:52:01 0.2 C 3.68 g/m*3 0.2 C 0 km/h
680 28-11-2010 16:04:01 0 C 3.68 g/m*3 0 C 0 km/h
681 28-11-2010 16:16:02 -0.3 C 3.65 g/m*3 -0.3 C 0 km/h
682 28-11-2010 16:28:02 -0.6 C 3.63 g/m*3 -0.6 C 0 km/h
683 28-11-2010 16:40:01 -0.5 C 3.7 g/m*3 -0.5 C 0 km/h
684 28-11-2010 16:52:03 -0.3 C 3.75 g/m*3 -0.3 C 0 km/h
685 28-11-2010 17:04:02 -0.3 C 3.75 g/m*3 -0.3 C 0 km/h
686 28-11-2010 17:16:02 -0.3 C 3.75 g/m*3 -0.3 C 0 km/h
687 28-11-2010 17:28:02 -0.6 C 3.67 g/m*3 -0.6 C 0 km/h
688 28-11-2010 17:40:02 -0.9 C 3.6 g/m*3 -0.9 C 0 km/h
689 28-11-2010 17:52:02 -1.1 C 3.59 g/m*3 -1.1 C 0 km/h
690 28-11-2010 18:04:02 -1.8 C 3.42 g/m*3 -1.8 C 0 km/h
691 28-11-2010 18:16:02 -1.4 C 3.65 g/m*3 -1.4 C 0 km/h
692 28-11-2010 18:28:02 -1 C 3.8 g/m*3 -1 C 0 km/h
693 28-11-2010 18:40:02 -0.7 C 3.88 g/m*3 -0.7 C 0 km/h
694 28-11-2010 18:52:02 -0.6 C 3.81 g/m*3 -0.6 C 0 km/h
695 28-11-2010 19:04:02 -0.6 C 3.76 g/m*3 -0.6 C 0 km/h
696 28-11-2010 19:16:01 -0.6 C 3.76 g/m*3 -0.6 C 0 km/h
697 28-11-2010 19:28:01 -0.8 C 3.67 g/m*3 -0.8 C 0 km/h
698 28-11-2010 19:40:02 -0.8 C 3.67 g/m*3 -0.8 C 0 km/h
699 28-11-2010 19:52:02 -0.7 C 3.65 g/m*3 -0.7 C 0 km/h
700 28-11-2010 20:04:02 -1.1 C 3.55 g/m*3 -1.1 C 0 km/h
Sensor: Nr:Datum:Temp:Abs-Feuchte:Windchill:Wind:
Aussen-T/F 701 28-11-2010 20:16:02 -0.9 C 3.6 g/m*3 -0.9 C 0 km/h
702 28-11-2010 20:28:02 -0.7 C 3.6 g/m*3 -0.7 C 0 km/h
703 28-11-2010 20:40:02 -0.6 C 3.53 g/m*3 -0.6 C 0 km/h
704 28-11-2010 20:52:02 -0.7 C 3.46 g/m*3 -0.7 C 0 km/h
705 28-11-2010 21:04:02 -0.7 C 3.46 g/m*3 -0.7 C 0 km/h
706 28-11-2010 21:16:02 -0.9 C 3.46 g/m*3 -0.9 C 0 km/h
707 28-11-2010 21:28:02 -0.9 C 3.46 g/m*3 -0.9 C 0 km/h
708 28-11-2010 21:40:02 -0.9 C 3.46 g/m*3 -0.9 C 0 km/h
709 28-11-2010 21:52:02 -0.9 C 3.46 g/m*3 -0.9 C 0 km/h
710 28-11-2010 22:04:02 -1 C 3.44 g/m*3 -1 C 0 km/h
711 28-11-2010 22:16:02 -1 C 3.44 g/m*3 -1 C 0 km/h
712 28-11-2010 22:28:02 -1.4 C 3.39 g/m*3 -1.4 C 0 km/h
713 28-11-2010 22:40:03 -2.2 C 3.24 g/m*3 -2.2 C 0 km/h
714 28-11-2010 22:52:02 -2.4 C 3.28 g/m*3 -2.4 C 0 km/h
715 28-11-2010 23:04:01 -2.7 C 3.25 g/m*3 -2.7 C 0 km/h
716 28-11-2010 23:16:02 -2.6 C 3.35 g/m*3 -2.6 C 0 km/h
717 28-11-2010 23:28:02 -2 C 3.54 g/m*3 -2 C 0 km/h
718 28-11-2010 23:40:02 -1.5 C 3.54 g/m*3 -1.5 C 0 km/h
719 28-11-2010 23:52:02 -1.4 C 3.43 g/m*3 -1.4 C 0 km/h
720 29-11-2010 00:04:02 -1.4 C 3.34 g/m*3 -1.4 C 0 km/h
721 29-11-2010 00:16:02 -1.4 C 3.34 g/m*3 -1.4 C 0 km/h
722 29-11-2010 00:28:02 -1.4 C 3.43 g/m*3 -1.4 C 0 km/h
723 29-11-2010 00:40:02 -1.5 C 3.41 g/m*3 -1.5 C 0 km/h
724 29-11-2010 00:52:01 -1.7 C 3.31 g/m*3 -1.7 C 0 km/h
725 29-11-2010 01:04:02 -1.8 C 3.29 g/m*3 -1.8 C 0 km/h
Sensor: Nr:Datum:Temp:Abs-Feuchte:Windchill:Wind:
Aussen-T/F 726 29-11-2010 01:16:01 -1.9 C 3.27 g/m*3 -1.9 C 0 km/h
727 29-11-2010 01:28:01 -1.8 C 3.33 g/m*3 -1.8 C 0 km/h
728 29-11-2010 01:40:02 -1.7 C 3.36 g/m*3 -1.7 C 0 km/h
729 29-11-2010 01:52:01 -1.8 C 3.29 g/m*3 -1.8 C 0 km/h
730 29-11-2010 02:04:02 -1.8 C 3.29 g/m*3 -1.8 C 0 km/h
731 29-11-2010 02:16:02 -1.9 C 3.27 g/m*3 -1.9 C 0 km/h
732 29-11-2010 02:28:02 -1.9 C 3.27 g/m*3 -1.9 C 0 km/h
733 29-11-2010 02:40:02 -1.9 C 3.27 g/m*3 -1.9 C 0 km/h
734 29-11-2010 02:52:01 -1.9 C 3.23 g/m*3 -1.9 C 0 km/h
735 29-11-2010 03:04:01 -2 C 3.2 g/m*3 -2 C 0 km/h
736 29-11-2010 03:16:01 -1.9 C 3.23 g/m*3 -1.9 C 0 km/h
737 29-11-2010 03:28:01 -2 C 3.2 g/m*3 -2 C 0 km/h
738 29-11-2010 03:40:01 -2 C 3.2 g/m*3 -2 C 0 km/h
739 29-11-2010 03:52:01 -2.1 C 3.22 g/m*3 -2.1 C 0 km/h
740 29-11-2010 04:04:01 -2.1 C 3.18 g/m*3 -2.1 C 0 km/h
741 29-11-2010 04:16:02 -2 C 3.25 g/m*3 -2 C 0 km/h
742 29-11-2010 04:28:02 -2 C 3.2 g/m*3 -2 C 0 km/h
743 29-11-2010 04:40:01 -2 C 3.2 g/m*3 -2 C 0 km/h
744 29-11-2010 04:52:01 -1.9 C 3.27 g/m*3 -1.9 C 0 km/h
745 29-11-2010 05:04:01 -1.9 C 3.27 g/m*3 -1.9 C 0 km/h
746 29-11-2010 05:16:02 -1.8 C 3.29 g/m*3 -1.8 C 0 km/h
747 29-11-2010 05:28:02 -1.8 C 3.29 g/m*3 -1.8 C 0 km/h
748 29-11-2010 05:40:01 -1.8 C 3.25 g/m*3 -1.8 C 0 km/h
749 29-11-2010 05:52:02 -1.8 C 3.25 g/m*3 -1.8 C 0 km/h
750 29-11-2010 06:04:01 -1.7 C 3.27 g/m*3 -1.7 C 0 km/h
Sensor: Nr:Datum:Temp:Abs-Feuchte:Windchill:Wind:
Aussen-T/F 751 29-11-2010 06:16:01 -1.7 C 3.31 g/m*3 -1.7 C 0 km/h
752 29-11-2010 06:28:01 -1.7 C 3.31 g/m*3 -1.7 C 0 km/h
753 29-11-2010 06:40:01 -1.7 C 3.31 g/m*3 -1.7 C 0 km/h
754 29-11-2010 06:52:01 -1.6 C 3.34 g/m*3 -1.6 C 0 km/h
755 29-11-2010 07:04:01 -1.6 C 3.34 g/m*3 -1.6 C 0 km/h
756 29-11-2010 07:16:01 -1.7 C 3.27 g/m*3 -1.7 C 0 km/h
757 29-11-2010 07:28:01 -1.7 C 3.27 g/m*3 -1.7 C 0 km/h
758 29-11-2010 07:40:02 -1.7 C 3.27 g/m*3 -1.7 C 0 km/h
759 29-11-2010 07:52:01 -1.6 C 3.29 g/m*3 -1.6 C 0 km/h
760 29-11-2010 08:04:02 -1.7 C 3.27 g/m*3 -1.7 C 0 km/h
761 29-11-2010 08:16:01 -1.6 C 3.34 g/m*3 -1.6 C 0 km/h
762 29-11-2010 08:28:01 -1.7 C 3.31 g/m*3 -1.7 C 0 km/h
763 29-11-2010 08:40:01 -1.6 C 3.34 g/m*3 -1.6 C 0 km/h
764 29-11-2010 08:52:01 -1.4 C 3.39 g/m*3 -1.4 C 0 km/h
765 29-11-2010 09:04:01 -1.4 C 3.34 g/m*3 -1.4 C 0 km/h
766 29-11-2010 09:16:01 -1.4 C 3.3 g/m*3 -1.4 C 0 km/h
767 29-11-2010 09:28:01 -1.4 C 3.3 g/m*3 -1.4 C 0 km/h
768 29-11-2010 09:40:01 -1.4 C 3.25 g/m*3 -1.4 C 0 km/h
769 29-11-2010 09:52:01 -1.3 C 3.32 g/m*3 -1.3 C 0 km/h
770 29-11-2010 10:04:01 -1.2 C 3.39 g/m*3 -1.2 C 0 km/h
771 29-11-2010 10:16:02 -1.3 C 3.36 g/m*3 -1.3 C 0 km/h
772 29-11-2010 10:28:02 -1.3 C 3.36 g/m*3 -1.3 C 0 km/h
773 29-11-2010 10:40:01 -1.4 C 3.34 g/m*3 -1.4 C 0 km/h
774 29-11-2010 10:52:02 -1.3 C 3.41 g/m*3 -1.3 C 0 km/h
775 29-11-2010 11:04:01 -1.2 C 3.43 g/m*3 -1.2 C 0 km/h
Sensor: Nr:Datum:Temp:Abs-Feuchte:Windchill:Wind:
Aussen-T/F 776 29-11-2010 11:16:02 -1.2 C 3.43 g/m*3 -1.2 C 0 km/h
777 29-11-2010 11:28:02 -1.2 C 3.43 g/m*3 -1.2 C 0 km/h
778 29-11-2010 11:40:01 -1.2 C 3.48 g/m*3 -1.2 C 0 km/h
779 29-11-2010 11:52:02 -1.3 C 3.45 g/m*3 -1.3 C 0 km/h
780 29-11-2010 12:04:01 -1.3 C 3.45 g/m*3 -1.3 C 0 km/h
781 29-11-2010 12:16:02 -1.3 C 3.5 g/m*3 -1.3 C 0 km/h
782 29-11-2010 12:28:02 -1.2 C 3.52 g/m*3 -1.2 C 0 km/h
783 29-11-2010 12:40:01 -1.1 C 3.55 g/m*3 -1.1 C 0 km/h
784 29-11-2010 12:52:02 -0.8 C 3.58 g/m*3 -0.8 C 0 km/h
785 29-11-2010 13:04:01 -0.7 C 3.55 g/m*3 -0.7 C 0 km/h
786 29-11-2010 13:16:01 -0.6 C 3.58 g/m*3 -0.6 C 0 km/h
787 29-11-2010 13:28:01 -0.8 C 3.58 g/m*3 -0.8 C 0 km/h
788 29-11-2010 13:40:02 -1.1 C 3.55 g/m*3 -1.1 C 0 km/h
789 29-11-2010 13:52:01 -1 C 3.62 g/m*3 -1 C 0 km/h
790 29-11-2010 14:04:02 -1 C 3.62 g/m*3 -1 C 0 km/h
791 29-11-2010 14:16:01 -1 C 3.66 g/m*3 -1 C 0 km/h
792 29-11-2010 14:28:01 -1 C 3.66 g/m*3 -1 C 0 km/h
793 29-11-2010 14:40:02 -1 C 3.71 g/m*3 -1 C 0 km/h
794 29-11-2010 14:52:01 -1.1 C 3.73 g/m*3 -1.1 C 0 km/h
795 29-11-2010 15:04:02 -1.1 C 3.73 g/m*3 -1.1 C 0 km/h
796 29-11-2010 15:16:01 -1.2 C 3.74 g/m*3 -1.2 C 0 km/h
797 29-11-2010 15:28:01 -1.4 C 3.69 g/m*3 -1.4 C 0 km/h
798 29-11-2010 15:40:01 -1.4 C 3.69 g/m*3 -1.4 C 0 km/h
799 29-11-2010 15:52:01 -1.4 C 3.74 g/m*3 -1.4 C 0 km/h
800 29-11-2010 16:04:01 -1.4 C 3.74 g/m*3 -1.4 C 0 km/h
Sensor: Nr:Datum:Temp:Abs-Feuchte:Windchill:Wind:
Aussen-T/F 801 29-11-2010 16:16:02 -1.4 C 3.74 g/m*3 -1.4 C 0 km/h
802 29-11-2010 16:28:02 -1.5 C 3.71 g/m*3 -1.5 C 0 km/h
803 29-11-2010 16:40:01 -1.5 C 3.71 g/m*3 -1.5 C 0 km/h
804 29-11-2010 16:52:01 -1.5 C 3.75 g/m*3 -1.5 C 0 km/h
805 29-11-2010 17:04:01 -1.7 C 3.7 g/m*3 -1.7 C 0 km/h
806 29-11-2010 17:16:02 -1.7 C 3.7 g/m*3 -1.7 C 0 km/h
807 29-11-2010 17:28:02 -1.7 C 3.7 g/m*3 -1.7 C 0 km/h
808 29-11-2010 17:40:01 -1.7 C 3.7 g/m*3 -1.7 C 0 km/h
809 29-11-2010 17:52:02 -1.6 C 3.73 g/m*3 -1.6 C 0 km/h
810 29-11-2010 18:04:01 -1.6 C 3.77 g/m*3 -1.6 C 0 km/h
811 29-11-2010 18:16:01 -1.7 C 3.75 g/m*3 -1.7 C 0 km/h
812 29-11-2010 18:28:01 -1.7 C 3.75 g/m*3 -1.7 C 0 km/h
813 29-11-2010 18:40:01 -1.7 C 3.75 g/m*3 -1.7 C 0 km/h
814 29-11-2010 18:52:01 -1.7 C 3.75 g/m*3 -1.7 C 0 km/h
815 29-11-2010 19:04:01 -1.7 C 3.75 g/m*3 -1.7 C 0 km/h
816 29-11-2010 19:16:01 -1.7 C 3.75 g/m*3 -1.7 C 0 km/h
817 29-11-2010 19:28:01 -1.7 C 3.75 g/m*3 -1.7 C 0 km/h
818 29-11-2010 19:40:02 -1.7 C 3.75 g/m*3 -1.7 C 0 km/h
819 29-11-2010 19:52:01 -1.7 C 3.75 g/m*3 -1.7 C 0 km/h
820 29-11-2010 20:04:02 -1.7 C 3.75 g/m*3 -1.7 C 0 km/h
821 29-11-2010 20:16:01 -1.7 C 3.79 g/m*3 -1.7 C 0 km/h
822 29-11-2010 20:28:01 -1.6 C 3.81 g/m*3 -1.6 C 0 km/h
823 29-11-2010 20:40:01 -1.6 C 3.81 g/m*3 -1.6 C 0 km/h
824 29-11-2010 20:52:01 -1.6 C 3.81 g/m*3 -1.6 C 0 km/h
825 29-11-2010 21:04:01 -1.6 C 3.81 g/m*3 -1.6 C 0 km/h
Sensor: Nr:Datum:Temp:Abs-Feuchte:Windchill:Wind:
Aussen-T/F 826 29-11-2010 21:16:01 -1.6 C 3.81 g/m*3 -1.6 C 0 km/h
827 29-11-2010 21:28:01 -1.7 C 3.79 g/m*3 -1.7 C 0 km/h
828 29-11-2010 21:40:01 -1.7 C 3.79 g/m*3 -1.7 C 0 km/h
829 29-11-2010 21:52:01 -1.7 C 3.79 g/m*3 -1.7 C 0 km/h
830 29-11-2010 22:04:01 -1.7 C 3.79 g/m*3 -1.7 C 0 km/h
831 29-11-2010 22:16:01 -1.7 C 3.79 g/m*3 -1.7 C 0 km/h
832 29-11-2010 22:28:01 -1.9 C 3.74 g/m*3 -1.9 C 0 km/h
833 29-11-2010 22:40:02 -1.8 C 3.76 g/m*3 -1.8 C 0 km/h
834 29-11-2010 22:52:01 -1.8 C 3.76 g/m*3 -1.8 C 0 km/h
835 29-11-2010 23:04:02 -1.8 C 3.76 g/m*3 -1.8 C 0 km/h
836 29-11-2010 23:16:01 -1.7 C 3.83 g/m*3 -1.7 C 0 km/h
837 29-11-2010 23:28:01 -1.7 C 3.83 g/m*3 -1.7 C 0 km/h
838 29-11-2010 23:40:02 -1.6 C 3.86 g/m*3 -1.6 C 0 km/h
839 29-11-2010 23:52:01 -1.6 C 3.86 g/m*3 -1.6 C 0 km/h
840 30-11-2010 00:04:02 -1.6 C 3.86 g/m*3 -1.6 C 0 km/h
841 30-11-2010 00:16:01 -1.7 C 3.83 g/m*3 -1.7 C 0 km/h
842 30-11-2010 00:28:01 -1.8 C 3.8 g/m*3 -1.8 C 0 km/h
843 30-11-2010 00:40:01 -1.9 C 3.78 g/m*3 -1.9 C 0 km/h
844 30-11-2010 00:52:01 -1.9 C 3.78 g/m*3 -1.9 C 0 km/h
845 30-11-2010 01:04:01 -2 C 3.75 g/m*3 -2 C 0 km/h
846 30-11-2010 01:16:01 -2 C 3.75 g/m*3 -2 C 0 km/h
847 30-11-2010 01:28:01 -2 C 3.75 g/m*3 -2 C 0 km/h
848 30-11-2010 01:40:01 -1.9 C 3.78 g/m*3 -1.9 C 0 km/h
849 30-11-2010 01:52:01 -1.9 C 3.78 g/m*3 -1.9 C 0 km/h
850 30-11-2010 02:04:01 -1.8 C 3.8 g/m*3 -1.8 C 0 km/h
Sensor: Nr:Datum:Temp:Abs-Feuchte:Windchill:Wind:
Aussen-T/F 851 30-11-2010 02:16:02 -1.7 C 3.83 g/m*3 -1.7 C 0 km/h
852 30-11-2010 02:28:02 -1.7 C 3.83 g/m*3 -1.7 C 0 km/h
853 30-11-2010 02:40:01 -1.6 C 3.86 g/m*3 -1.6 C 0 km/h
854 30-11-2010 02:53:05 -1.6 C 3.86 g/m*3 -1.6 C 0 km/h
855 30-11-2010 03:05:05 -1.6 C 3.86 g/m*3 -1.6 C 0 km/h
856 30-11-2010 03:17:05 -1.6 C 3.86 g/m*3 -1.6 C 0 km/h
857 30-11-2010 03:29:05 -1.6 C 3.86 g/m*3 -1.6 C 0 km/h
858 30-11-2010 03:41:01 -1.8 C 3.8 g/m*3 -1.8 C 0 km/h
859 30-11-2010 03:53:01 -1.9 C 3.74 g/m*3 -1.9 C 0 km/h
860 30-11-2010 04:05:02 -2.1 C 3.68 g/m*3 -2.1 C 0 km/h
861 30-11-2010 04:17:02 -2.3 C 3.63 g/m*3 -2.3 C 0 km/h
862 30-11-2010 04:29:02 -2.4 C 3.61 g/m*3 -2.4 C 0 km/h
863 30-11-2010 04:41:02 -2.5 C 3.58 g/m*3 -2.5 C 0 km/h
864 30-11-2010 04:53:02 -2.5 C 3.58 g/m*3 -2.5 C 0 km/h
865 30-11-2010 05:05:01 -2.5 C 3.58 g/m*3 -2.5 C 0 km/h
866 30-11-2010 05:17:02 -2.5 C 3.58 g/m*3 -2.5 C 0 km/h
867 30-11-2010 05:29:03 -2.5 C 3.58 g/m*3 -2.5 C 0 km/h
868 30-11-2010 05:41:01 -2.3 C 3.67 g/m*3 -2.3 C 0 km/h
869 30-11-2010 05:53:02 -2.2 C 3.7 g/m*3 -2.2 C 0 km/h
870 30-11-2010 06:05:02 -2.2 C 3.7 g/m*3 -2.2 C 0 km/h
871 30-11-2010 06:17:02 -2.2 C 3.7 g/m*3 -2.2 C 0 km/h
872 30-11-2010 06:29:02 -2.3 C 3.63 g/m*3 -2.3 C 0 km/h
873 30-11-2010 06:41:03 -2.3 C 3.63 g/m*3 -2.3 C 0 km/h
874 30-11-2010 06:53:02 -2.3 C 3.63 g/m*3 -2.3 C 0 km/h
875 30-11-2010 07:05:02 -2.3 C 3.63 g/m*3 -2.3 C 0 km/h
Sensor: Nr:Datum:Temp:Abs-Feuchte:Windchill:Wind:
Aussen-T/F 876 30-11-2010 07:17:01 -2.3 C 3.67 g/m*3 -2.3 C 0 km/h
877 30-11-2010 07:29:01 -2.3 C 3.67 g/m*3 -2.3 C 0 km/h
878 30-11-2010 07:41:02 -2.3 C 3.67 g/m*3 -2.3 C 0 km/h
879 30-11-2010 07:53:02 -2.2 C 3.66 g/m*3 -2.2 C 0 km/h
880 30-11-2010 08:05:02 -2.1 C 3.68 g/m*3 -2.1 C 0 km/h
881 30-11-2010 08:17:01 -2.1 C 3.68 g/m*3 -2.1 C 0 km/h
882 30-11-2010 08:29:01 -2.1 C 3.68 g/m*3 -2.1 C 0 km/h
883 30-11-2010 08:41:02 -2.1 C 3.68 g/m*3 -2.1 C 0 km/h
884 30-11-2010 08:53:02 -2 C 3.58 g/m*3 -2 C 0 km/h
885 30-11-2010 09:05:02 -2 C 3.58 g/m*3 -2 C 0 km/h
886 30-11-2010 09:17:02 -2 C 3.58 g/m*3 -2 C 0 km/h
887 30-11-2010 09:29:02 -2 C 3.58 g/m*3 -2 C 0 km/h
888 30-11-2010 09:41:02 -2 C 3.58 g/m*3 -2 C 0 km/h
889 30-11-2010 09:53:01 -2 C 3.58 g/m*3 -2 C 0 km/h
890 30-11-2010 10:05:02 -2 C 3.58 g/m*3 -2 C 0 km/h
891 30-11-2010 10:17:02 -2 C 3.58 g/m*3 -2 C 0 km/h
892 30-11-2010 10:29:02 -1.7 C 3.49 g/m*3 -1.7 C 0 km/h
893 30-11-2010 10:41:01 -1.8 C 3.42 g/m*3 -1.8 C 0 km/h
894 30-11-2010 10:53:02 -1.6 C 3.47 g/m*3 -1.6 C 0 km/h
895 30-11-2010 11:05:01 -1.6 C 3.47 g/m*3 -1.6 C 0 km/h
896 30-11-2010 11:17:02 -1.6 C 3.47 g/m*3 -1.6 C 0 km/h
897 30-11-2010 11:29:02 -1.6 C 3.47 g/m*3 -1.6 C 0 km/h
898 30-11-2010 11:41:01 -1.3 C 3.41 g/m*3 -1.3 C 0 km/h
899 30-11-2010 11:53:02 -1.4 C 3.39 g/m*3 -1.4 C 0 km/h
900 30-11-2010 12:05:02 -1.3 C 3.32 g/m*3 -1.3 C 0 km/h
Sensor: Nr:Datum:Temp:Abs-Feuchte:Windchill:Wind:
Aussen-T/F 901 30-11-2010 12:17:02 -1.2 C 3.34 g/m*3 -1.2 C 0 km/h
902 30-11-2010 12:29:02 -1.3 C 3.23 g/m*3 -1.3 C 0 km/h
903 30-11-2010 12:41:02 -1.3 C 3.28 g/m*3 -1.3 C 0 km/h
904 30-11-2010 12:53:01 -1.4 C 3.21 g/m*3 -1.4 C 0 km/h
905 30-11-2010 13:05:02 -1.2 C 3.25 g/m*3 -1.2 C 0 km/h
906 30-11-2010 13:17:01 -1.1 C 3.28 g/m*3 -1.1 C 0 km/h
907 30-11-2010 13:29:01 -1 C 3.25 g/m*3 -1 C 0 km/h
908 30-11-2010 13:41:02 -1 C 3.25 g/m*3 -1 C 0 km/h
909 30-11-2010 13:53:01 -1.1 C 3.19 g/m*3 -1.1 C 0 km/h
910 30-11-2010 14:05:01 -1.2 C 3.17 g/m*3 -1.2 C 0 km/h
911 30-11-2010 14:17:01 -1.3 C 3.19 g/m*3 -1.3 C 0 km/h
912 30-11-2010 14:29:01 -1.4 C 3.21 g/m*3 -1.4 C 0 km/h
913 30-11-2010 14:41:02 -1.3 C 3.23 g/m*3 -1.3 C 0 km/h
914 30-11-2010 14:53:02 -1.4 C 3.21 g/m*3 -1.4 C 0 km/h
915 30-11-2010 15:05:02 -1.4 C 3.21 g/m*3 -1.4 C 0 km/h
916 30-11-2010 15:17:02 -1.5 C 3.23 g/m*3 -1.5 C 0 km/h
917 30-11-2010 15:29:02 -1.5 C 3.23 g/m*3 -1.5 C 0 km/h
918 30-11-2010 15:41:02 -1.5 C 3.23 g/m*3 -1.5 C 0 km/h
919 30-11-2010 15:53:01 -1.5 C 3.23 g/m*3 -1.5 C 0 km/h
920 30-11-2010 16:05:02 -1.5 C 3.23 g/m*3 -1.5 C 0 km/h
921 30-11-2010 16:17:01 -1.5 C 3.23 g/m*3 -1.5 C 0 km/h
922 30-11-2010 16:29:01 -1.5 C 3.23 g/m*3 -1.5 C 0 km/h
923 30-11-2010 16:41:01 -1.5 C 3.23 g/m*3 -1.5 C 0 km/h
924 30-11-2010 16:53:01 -1.5 C 3.23 g/m*3 -1.5 C 0 km/h
925 30-11-2010 17:05:01 -1.5 C 3.23 g/m*3 -1.5 C 0 km/h
Sensor: Nr:Datum:Temp:Abs-Feuchte:Windchill:Wind:
Aussen-T/F 926 30-11-2010 17:17:01 -2 C 3.25 g/m*3 -2 C 0 km/h
927 30-11-2010 17:29:01 -1.9 C 3.23 g/m*3 -1.9 C 0 km/h
928 30-11-2010 17:41:01 -2.1 C 3.18 g/m*3 -2.1 C 0 km/h
929 30-11-2010 17:53:01 -2.1 C 3.18 g/m*3 -2.1 C 0 km/h
930 30-11-2010 18:05:01 -2.1 C 3.18 g/m*3 -2.1 C 0 km/h
931 30-11-2010 18:17:02 -2.1 C 3.18 g/m*3 -2.1 C 0 km/h
932 30-11-2010 18:29:02 -2.1 C 3.18 g/m*3 -2.1 C 0 km/h
933 30-11-2010 18:41:01 -2.1 C 3.18 g/m*3 -2.1 C 0 km/h
934 30-11-2010 18:53:03 -2.1 C 3.18 g/m*3 -2.1 C 0 km/h
935 30-11-2010 19:05:02 -2.1 C 3.18 g/m*3 -2.1 C 0 km/h
936 30-11-2010 19:17:02 -2.1 C 3.18 g/m*3 -2.1 C 0 km/h
937 30-11-2010 19:29:02 -2.1 C 3.18 g/m*3 -2.1 C 0 km/h
938 30-11-2010 19:41:02 -2.1 C 3.18 g/m*3 -2.1 C 0 km/h
939 30-11-2010 19:53:02 -2.1 C 3.14 g/m*3 -2.1 C 0 km/h
940 30-11-2010 20:05:02 -2.1 C 3.14 g/m*3 -2.1 C 0 km/h
941 30-11-2010 20:17:02 -2.2 C 3.12 g/m*3 -2.2 C 0 km/h
942 30-11-2010 20:29:02 -2.3 C 3.1 g/m*3 -2.3 C 0 km/h
943 30-11-2010 20:41:02 -2.4 C 3.07 g/m*3 -2.4 C 0 km/h
944 30-11-2010 20:53:02 -2.3 C 3.14 g/m*3 -2.3 C 0 km/h
945 30-11-2010 21:05:01 -2.4 C 3.07 g/m*3 -2.4 C 0 km/h
946 30-11-2010 21:17:01 -2.4 C 3.07 g/m*3 -2.4 C 0 km/h
947 30-11-2010 21:29:01 -2.4 C 3.07 g/m*3 -2.4 C 0 km/h
948 30-11-2010 21:41:02 -2.4 C 3.03 g/m*3 -2.4 C 0 km/h
949 30-11-2010 21:53:02 -2.4 C 2.99 g/m*3 -2.4 C 0 km/h
950 30-11-2010 22:05:02 -2.5 C 2.97 g/m*3 -2.5 C 0 km/h
Sensor: Nr:Datum:Temp:Abs-Feuchte:Windchill:Wind:
Aussen-T/F 951 30-11-2010 22:18:02 -2.6 C 2.95 g/m*3 -2.6 C 0 km/h
952 30-11-2010 22:30:02 -2.6 C 2.95 g/m*3 -2.6 C 0 km/h
953 30-11-2010 22:42:02 -2.6 C 2.91 g/m*3 -2.6 C 0 km/h
954 30-11-2010 22:54:02 -2.6 C 2.91 g/m*3 -2.6 C 0 km/h
955 30-11-2010 23:06:03 -2.6 C 2.87 g/m*3 -2.6 C 0 km/h
956 30-11-2010 23:18:03 -2.7 C 2.85 g/m*3 -2.7 C 0 km/h
957 30-11-2010 23:30:03 -2.8 C 2.83 g/m*3 -2.8 C 0 km/h
958 30-11-2010 23:42:03 -2.8 C 2.83 g/m*3 -2.8 C 0 km/h
959 30-11-2010 23:54:03 -2.9 C 2.77 g/m*3 -2.9 C 0 km/h
960 01-12-2010 00:06:03 -2.9 C 2.81 g/m*3 -2.9 C 0 km/h
961 01-12-2010 00:18:03 -3 C 2.75 g/m*3 -3 C 0 km/h
962 01-12-2010 00:30:03 -3 C 2.75 g/m*3 -3 C 0 km/h
963 01-12-2010 00:42:03 -3 C 2.75 g/m*3 -3 C 0 km/h
964 01-12-2010 00:54:03 -3.1 C 2.73 g/m*3 -3.1 C 0 km/h
965 01-12-2010 01:06:03 -3.2 C 2.71 g/m*3 -3.2 C 0 km/h
966 01-12-2010 01:18:03 -3.2 C 2.71 g/m*3 -3.2 C 0 km/h
967 01-12-2010 01:30:03 -3.3 C 2.65 g/m*3 -3.3 C 0 km/h
968 01-12-2010 01:42:03 -3.3 C 2.65 g/m*3 -3.3 C 0 km/h
969 01-12-2010 01:54:03 -3.5 C 2.62 g/m*3 -3.5 C 0 km/h
970 01-12-2010 02:06:03 -3.6 C 2.6 g/m*3 -3.6 C 0 km/h
971 01-12-2010 02:18:03 -3.8 C 2.52 g/m*3 -3.8 C 0 km/h
972 01-12-2010 02:30:03 -4 C 2.49 g/m*3 -4 C 0 km/h
973 01-12-2010 02:42:03 -4 C 2.49 g/m*3 -4 C 0 km/h
974 01-12-2010 02:54:03 -4 C 2.45 g/m*3 -4 C 0 km/h
975 01-12-2010 03:06:03 -4.1 C 2.43 g/m*3 -4.1 C 0 km/h
Sensor: Nr:Datum:Temp:Abs-Feuchte:Windchill:Wind:
Aussen-T/F 976 01-12-2010 03:18:03 -4.2 C 2.42 g/m*3 -4.2 C 0 km/h
977 01-12-2010 03:30:04 -4.3 C 2.36 g/m*3 -4.3 C 0 km/h
978 01-12-2010 03:42:04 -4.5 C 2.33 g/m*3 -4.5 C 0 km/h
979 01-12-2010 03:54:04 -4.6 C 2.28 g/m*3 -4.6 C 0 km/h
980 01-12-2010 04:06:04 -4.8 C 2.28 g/m*3 -4.8 C 0 km/h
981 01-12-2010 04:18:04 -4.9 C 2.26 g/m*3 -4.9 C 0 km/h
982 01-12-2010 04:30:04 -5 C 2.21 g/m*3 -5 C 0 km/h
983 01-12-2010 04:42:04 -5.1 C 2.2 g/m*3 -5.1 C 0 km/h
984 01-12-2010 04:54:04 -5.2 C 2.22 g/m*3 -5.2 C 0 km/h
985 01-12-2010 05:06:04 -5.3 C 2.17 g/m*3 -5.3 C 0 km/h
986 01-12-2010 05:18:04 -5.4 C 2.18 g/m*3 -5.4 C 0 km/h
987 01-12-2010 05:30:04 -5.4 C 2.18 g/m*3 -5.4 C 0 km/h
988 01-12-2010 05:42:04 -5.5 C 2.17 g/m*3 -5.5 C 0 km/h
989 01-12-2010 05:54:04 -5.4 C 2.22 g/m*3 -5.4 C 0 km/h
990 01-12-2010 06:06:04 -5.4 C 2.18 g/m*3 -5.4 C 0 km/h
991 01-12-2010 06:18:04 -5.4 C 2.18 g/m*3 -5.4 C 0 km/h
992 01-12-2010 06:30:04 -5.6 C 2.12 g/m*3 -5.6 C 0 km/h
993 01-12-2010 06:42:04 -5.6 C 2.12 g/m*3 -5.6 C 0 km/h
994 01-12-2010 06:54:04 -5.8 C 2.09 g/m*3 -5.8 C 0 km/h
995 01-12-2010 07:06:04 -5.8 C 2.09 g/m*3 -5.8 C 0 km/h
996 01-12-2010 07:18:04 -5.8 C 2.09 g/m*3 -5.8 C 0 km/h
997 01-12-2010 07:30:04 -5.9 C 2.04 g/m*3 -5.9 C 0 km/h
998 01-12-2010 07:42:03 -6 C 2.03 g/m*3 -6 C 0 km/h
999 01-12-2010 07:54:02 -6 C 2.03 g/m*3 -6 C 0 km/h
1000 01-12-2010 08:06:02 -6.1 C 1.98 g/m*3 -6.1 C 0 km/h
Sensor: Nr:Datum:Temp:Abs-Feuchte:Windchill:Wind:
Aussen-T/F 1001 01-12-2010 08:18:02 -6.2 C 1.97 g/m*3 -6.2 C 0 km/h
1002 01-12-2010 08:30:02 -6.2 C 1.97 g/m*3 -6.2 C 0 km/h
1003 01-12-2010 08:42:02 -6.4 C 1.91 g/m*3 -6.4 C 0 km/h
1004 01-12-2010 08:54:01 -6.4 C 1.91 g/m*3 -6.4 C 0 km/h
1005 01-12-2010 09:06:02 -6.2 C 1.94 g/m*3 -6.2 C 0 km/h
1006 01-12-2010 09:18:01 -6.1 C 1.92 g/m*3 -6.1 C 0 km/h
1007 01-12-2010 09:30:01 -6 C 1.9 g/m*3 -6 C 0 km/h
1008 01-12-2010 09:42:02 -5.8 C 1.93 g/m*3 -5.8 C 0 km/h
1009 01-12-2010 09:54:02 -5.7 C 1.94 g/m*3 -5.7 C 0 km/h
1010 01-12-2010 10:06:02 -5.6 C 1.96 g/m*3 -5.6 C 0 km/h
1011 01-12-2010 10:18:01 -5.5 C 1.97 g/m*3 -5.5 C 0 km/h
1012 01-12-2010 10:30:01 -5.4 C 1.95 g/m*3 -5.4 C 0 km/h
1013 01-12-2010 10:42:02 -5.6 C 1.92 g/m*3 -5.6 C 0 km/h
1014 01-12-2010 10:54:01 -5.6 C 1.96 g/m*3 -5.6 C 0 km/h
1015 01-12-2010 11:06:02 -5.5 C 1.97 g/m*3 -5.5 C 0 km/h
1016 01-12-2010 11:18:02 -5.4 C 1.98 g/m*3 -5.4 C 0 km/h
1017 01-12-2010 11:30:02 -5.4 C 1.98 g/m*3 -5.4 C 0 km/h
1018 01-12-2010 11:42:02 -5.6 C 1.96 g/m*3 -5.6 C 0 km/h
1019 01-12-2010 11:54:02 -5.5 C 1.97 g/m*3 -5.5 C 0 km/h
1020 01-12-2010 12:06:01 -5.6 C 1.96 g/m*3 -5.6 C 0 km/h
1021 01-12-2010 12:18:02 -5.7 C 1.94 g/m*3 -5.7 C 0 km/h
1022 01-12-2010 12:30:03 -5.8 C 1.93 g/m*3 -5.8 C 0 km/h
1023 01-12-2010 12:42:01 -6 C 1.9 g/m*3 -6 C 0 km/h
1024 01-12-2010 12:54:02 -6 C 1.9 g/m*3 -6 C 0 km/h
1025 01-12-2010 13:06:01 -6 C 1.87 g/m*3 -6 C 0 km/h
Sensor: Nr:Datum:Temp:Abs-Feuchte:Windchill:Wind:
Aussen-T/F 1026 01-12-2010 13:18:01 -6.1 C 1.89 g/m*3 -6.1 C 0 km/h
1027 01-12-2010 13:30:01 -6.1 C 1.86 g/m*3 -6.1 C 0 km/h
1028 01-12-2010 13:42:02 -6.1 C 1.82 g/m*3 -6.1 C 0 km/h
1029 01-12-2010 13:54:02 -6.2 C 1.81 g/m*3 -6.2 C 0 km/h
1030 01-12-2010 14:06:02 -6.2 C 1.81 g/m*3 -6.2 C 0 km/h
1031 01-12-2010 14:18:02 -6.2 C 1.78 g/m*3 -6.2 C 0 km/h
1032 01-12-2010 14:30:02 -6.2 C 1.78 g/m*3 -6.2 C 0 km/h
1033 01-12-2010 14:42:02 -6.1 C 1.79 g/m*3 -6.1 C 0 km/h
1034 01-12-2010 14:54:02 -6.2 C 1.78 g/m*3 -6.2 C 0 km/h
1035 01-12-2010 15:06:02 -6.2 C 1.78 g/m*3 -6.2 C 0 km/h
1036 01-12-2010 15:18:02 -6.2 C 1.78 g/m*3 -6.2 C 0 km/h
1037 01-12-2010 15:30:02 -6.3 C 1.77 g/m*3 -6.3 C 0 km/h
1038 01-12-2010 15:42:02 -6.3 C 1.8 g/m*3 -6.3 C 0 km/h
1039 01-12-2010 15:54:01 -6.4 C 1.78 g/m*3 -6.4 C 0 km/h
1040 01-12-2010 16:06:01 -6.5 C 1.74 g/m*3 -6.5 C 0 km/h
1041 01-12-2010 16:18:02 -6.6 C 1.73 g/m*3 -6.6 C 0 km/h
1042 01-12-2010 16:30:02 -6.6 C 1.76 g/m*3 -6.6 C 0 km/h
1043 01-12-2010 16:42:01 -6.6 C 1.76 g/m*3 -6.6 C 0 km/h
1044 01-12-2010 16:54:01 -6.6 C 1.76 g/m*3 -6.6 C 0 km/h
1045 01-12-2010 17:06:01 -6.6 C 1.79 g/m*3 -6.6 C 0 km/h
1046 01-12-2010 17:18:02 -6.6 C 1.79 g/m*3 -6.6 C 0 km/h
1047 01-12-2010 17:30:02 -6.6 C 1.79 g/m*3 -6.6 C 0 km/h
1048 01-12-2010 17:42:01 -6.6 C 1.79 g/m*3 -6.6 C 0 km/h
1049 01-12-2010 17:54:03 -6.5 C 1.83 g/m*3 -6.5 C 0 km/h
1050 01-12-2010 18:06:02 -6.5 C 1.83 g/m*3 -6.5 C 0 km/h
Sensor: Nr:Datum:Temp:Abs-Feuchte:Windchill:Wind:
Aussen-T/F 1051 01-12-2010 18:18:02 -6.5 C 1.83 g/m*3 -6.5 C 0 km/h
1052 01-12-2010 18:30:02 -6.6 C 1.79 g/m*3 -6.6 C 0 km/h
1053 01-12-2010 18:42:02 -6.5 C 1.83 g/m*3 -6.5 C 0 km/h
1054 01-12-2010 18:54:02 -6.6 C 1.82 g/m*3 -6.6 C 0 km/h
1055 01-12-2010 19:06:01 -6.6 C 1.82 g/m*3 -6.6 C 0 km/h
1056 01-12-2010 19:18:02 -6.5 C 1.8 g/m*3 -6.5 C 0 km/h
1057 01-12-2010 19:30:02 -6.6 C 1.82 g/m*3 -6.6 C 0 km/h
1058 01-12-2010 19:42:02 -6.6 C 1.82 g/m*3 -6.6 C 0 km/h
1059 01-12-2010 19:54:02 -6.6 C 1.79 g/m*3 -6.6 C 0 km/h
1060 01-12-2010 20:06:03 -6.6 C 1.79 g/m*3 -6.6 C 0 km/h
1061 01-12-2010 20:18:02 -6.6 C 1.76 g/m*3 -6.6 C 0 km/h
1062 01-12-2010 20:30:02 -6.7 C 1.75 g/m*3 -6.7 C 0 km/h
1063 01-12-2010 20:42:02 -6.7 C 1.75 g/m*3 -6.7 C 0 km/h
1064 01-12-2010 20:54:01 -6.6 C 1.82 g/m*3 -6.6 C 0 km/h
1065 01-12-2010 21:06:02 -6.6 C 1.82 g/m*3 -6.6 C 0 km/h
1066 01-12-2010 21:18:01 -6.8 C 1.73 g/m*3 -6.8 C 0 km/h
1067 01-12-2010 21:30:01 -6.8 C 1.7 g/m*3 -6.8 C 0 km/h
1068 01-12-2010 21:42:01 -6.7 C 1.75 g/m*3 -6.7 C 0 km/h
1069 01-12-2010 21:54:01 -6.8 C 1.7 g/m*3 -6.8 C 0 km/h
1070 01-12-2010 22:06:01 -6.8 C 1.67 g/m*3 -6.8 C 0 km/h
1071 01-12-2010 22:18:02 -6.8 C 1.7 g/m*3 -6.8 C 0 km/h
1072 01-12-2010 22:30:02 -6.9 C 1.72 g/m*3 -6.9 C 0 km/h
1073 01-12-2010 22:42:01 -6.9 C 1.75 g/m*3 -6.9 C 0 km/h
1074 01-12-2010 22:54:02 -6.9 C 1.78 g/m*3 -6.9 C 0 km/h
1075 01-12-2010 23:06:02 -7 C 1.74 g/m*3 -7 C 0 km/h
Sensor: Nr:Datum:Temp:Abs-Feuchte:Windchill:Wind:
Aussen-T/F 1076 01-12-2010 23:18:02 -7 C 1.77 g/m*3 -7 C 0 km/h
1077 01-12-2010 23:30:02 -7 C 1.8 g/m*3 -7 C 0 km/h
1078 01-12-2010 23:42:03 -7.1 C 1.78 g/m*3 -7.1 C 0 km/h
1079 01-12-2010 23:54:02 -7.2 C 1.77 g/m*3 -7.2 C 0 km/h
1080 02-12-2010 00:06:02 -7.1 C 1.81 g/m*3 -7.1 C 0 km/h
1081 02-12-2010 00:18:01 -7.1 C 1.81 g/m*3 -7.1 C 0 km/h
1082 02-12-2010 00:30:01 -7.1 C 1.84 g/m*3 -7.1 C 0 km/h
1083 02-12-2010 00:42:02 -7.2 C 1.8 g/m*3 -7.2 C 0 km/h
1084 02-12-2010 00:54:02 -7.2 C 1.8 g/m*3 -7.2 C 0 km/h
1085 02-12-2010 01:06:02 -7.2 C 1.8 g/m*3 -7.2 C 0 km/h
1086 02-12-2010 01:18:02 -7.1 C 1.81 g/m*3 -7.1 C 0 km/h
1087 02-12-2010 01:30:02 -7.1 C 1.78 g/m*3 -7.1 C 0 km/h
1088 02-12-2010 01:42:02 -7.1 C 1.78 g/m*3 -7.1 C 0 km/h
1089 02-12-2010 01:54:02 -7.1 C 1.75 g/m*3 -7.1 C 0 km/h
1090 02-12-2010 02:06:02 -7.2 C 1.74 g/m*3 -7.2 C 0 km/h
1091 02-12-2010 02:18:03 -7.3 C 1.67 g/m*3 -7.3 C 0 km/h
1092 02-12-2010 02:30:03 -7.3 C 1.7 g/m*3 -7.3 C 0 km/h
1093 02-12-2010 02:42:02 -7.3 C 1.7 g/m*3 -7.3 C 0 km/h
1094 02-12-2010 02:55:04 -7.3 C 1.73 g/m*3 -7.3 C 0 km/h
1095 02-12-2010 03:07:04 -7.3 C 1.73 g/m*3 -7.3 C 0 km/h
1096 02-12-2010 03:19:04 -7.2 C 1.77 g/m*3 -7.2 C 0 km/h
1097 02-12-2010 03:31:01 -7.3 C 1.76 g/m*3 -7.3 C 0 km/h
1098 02-12-2010 03:43:01 -7.4 C 1.72 g/m*3 -7.4 C 0 km/h
1099 02-12-2010 03:55:01 -7.4 C 1.72 g/m*3 -7.4 C 0 km/h
1100 02-12-2010 04:07:01 -7.5 C 1.73 g/m*3 -7.5 C 0 km/h
Sensor: Nr:Datum:Temp:Abs-Feuchte:Windchill:Wind:
Aussen-T/F 1101 02-12-2010 04:19:01 -7.5 C 1.76 g/m*3 -7.5 C 0 km/h
1102 02-12-2010 04:31:01 -7.5 C 1.79 g/m*3 -7.5 C 0 km/h
1103 02-12-2010 04:43:01 -7.5 C 1.82 g/m*3 -7.5 C 0 km/h
1104 02-12-2010 04:55:01 -7.5 C 1.79 g/m*3 -7.5 C 0 km/h
1105 02-12-2010 05:07:01 -7.6 C 1.77 g/m*3 -7.6 C 0 km/h
1106 02-12-2010 05:19:02 -7.6 C 1.77 g/m*3 -7.6 C 0 km/h
1107 02-12-2010 05:31:01 -7.6 C 1.77 g/m*3 -7.6 C 0 km/h
1108 02-12-2010 05:43:01 -7.6 C 1.83 g/m*3 -7.6 C 0 km/h
1109 02-12-2010 05:55:03 -7.8 C 1.78 g/m*3 -7.8 C 0 km/h
1110 02-12-2010 06:07:02 -7.8 C 1.8 g/m*3 -7.8 C 0 km/h
1111 02-12-2010 06:19:02 -7.7 C 1.85 g/m*3 -7.7 C 0 km/h
1112 02-12-2010 06:31:02 -7.8 C 1.83 g/m*3 -7.8 C 0 km/h
1113 02-12-2010 06:43:02 -7.8 C 1.83 g/m*3 -7.8 C 0 km/h
1114 02-12-2010 06:55:02 -7.7 C 1.87 g/m*3 -7.7 C 0 km/h
1115 02-12-2010 07:07:01 -7.7 C 1.9 g/m*3 -7.7 C 0 km/h
1116 02-12-2010 07:19:02 -7.7 C 1.9 g/m*3 -7.7 C 0 km/h
1117 02-12-2010 07:31:02 -7.8 C 1.86 g/m*3 -7.8 C 0 km/h
1118 02-12-2010 07:43:02 -7.7 C 1.9 g/m*3 -7.7 C 0 km/h
1119 02-12-2010 07:55:02 -7.7 C 1.9 g/m*3 -7.7 C 0 km/h
1120 02-12-2010 08:07:02 -7.7 C 1.9 g/m*3 -7.7 C 0 km/h
1121 02-12-2010 08:19:02 -7.7 C 1.87 g/m*3 -7.7 C 0 km/h
1122 02-12-2010 08:31:03 -7.7 C 1.87 g/m*3 -7.7 C 0 km/h
1123 02-12-2010 08:43:03 -7.8 C 1.83 g/m*3 -7.8 C 0 km/h
1124 02-12-2010 08:55:02 -7.6 C 1.86 g/m*3 -7.6 C 0 km/h
1125 02-12-2010 09:07:01 -7.4 C 1.92 g/m*3 -7.4 C 0 km/h
Sensor: Nr:Datum:Temp:Abs-Feuchte:Windchill:Wind:
Aussen-T/F 1126 02-12-2010 09:19:01 -7.1 C 1.96 g/m*3 -7.1 C 0 km/h
1127 02-12-2010 09:31:02 -7.2 C 1.94 g/m*3 -7.2 C 0 km/h
1128 02-12-2010 09:43:02 -7.1 C 1.96 g/m*3 -7.1 C 0 km/h
1129 02-12-2010 09:55:02 -6.7 C 2.02 g/m*3 -6.7 C 0 km/h
1130 02-12-2010 10:07:02 -6.5 C 2.02 g/m*3 -6.5 C 0 km/h
1131 02-12-2010 10:19:02 -6.3 C 1.98 g/m*3 -6.3 C 0 km/h
1132 02-12-2010 10:31:02 -6.1 C 1.98 g/m*3 -6.1 C 0 km/h
1133 02-12-2010 10:43:02 -6 C 1.96 g/m*3 -6 C 0 km/h
1134 02-12-2010 10:55:02 -5.8 C 2.02 g/m*3 -5.8 C 0 km/h
1135 02-12-2010 11:07:02 -5.8 C 2.02 g/m*3 -5.8 C 0 km/h
1136 02-12-2010 11:19:01 -6.1 C 1.95 g/m*3 -6.1 C 0 km/h
1137 02-12-2010 11:31:02 -5.2 C 2.11 g/m*3 -5.2 C 0 km/h
1138 02-12-2010 11:43:02 -5.6 C 2.02 g/m*3 -5.6 C 0 km/h
1139 02-12-2010 11:55:01 -5.4 C 2.05 g/m*3 -5.4 C 0 km/h
1140 02-12-2010 12:07:02 -6.2 C 1.97 g/m*3 -6.2 C 0 km/h
1141 02-12-2010 12:19:02 -6.2 C 2.03 g/m*3 -6.2 C 0 km/h
1142 02-12-2010 12:31:01 -6.1 C 2.04 g/m*3 -6.1 C 0 km/h
1143 02-12-2010 12:43:01 -6.1 C 2.08 g/m*3 -6.1 C 0 km/h
1144 02-12-2010 12:55:02 -5.8 C 2.15 g/m*3 -5.8 C 0 km/h
1145 02-12-2010 13:07:01 -5.8 C 2.12 g/m*3 -5.8 C 0 km/h
1146 02-12-2010 13:19:02 -5.7 C 2.14 g/m*3 -5.7 C 0 km/h
1147 02-12-2010 13:31:01 -5.3 C 2.2 g/m*3 -5.3 C 0 km/h
1148 02-12-2010 13:43:01 -4.5 C 2.26 g/m*3 -4.5 C 0 km/h
1149 02-12-2010 13:55:02 -5.2 C 2.05 g/m*3 -5.2 C 0 km/h
1150 02-12-2010 14:07:02 -5.1 C 2.13 g/m*3 -5.1 C 0 km/h
Sensor: Nr:Datum:Temp:Abs-Feuchte:Windchill:Wind:
Aussen-T/F 1151 02-12-2010 14:19:02 -5.6 C 2.12 g/m*3 -5.6 C 0 km/h
1152 02-12-2010 14:31:02 -6 C 2.06 g/m*3 -6 C 0 km/h
1153 02-12-2010 14:43:02 -6 C 2.15 g/m*3 -6 C 0 km/h
1154 02-12-2010 14:55:02 -5.3 C 2.33 g/m*3 -5.3 C 0 km/h
1155 02-12-2010 15:07:02 -4.9 C 2.37 g/m*3 -4.9 C 0 km/h
1156 02-12-2010 15:19:01 -4.6 C 2.31 g/m*3 -4.6 C 0 km/h
1157 02-12-2010 15:31:02 -4.6 C 2.24 g/m*3 -4.6 C 0 km/h
1158 02-12-2010 15:43:02 -4.8 C 2.21 g/m*3 -4.8 C 0 km/h
1159 02-12-2010 15:55:02 -4.8 C 2.25 g/m*3 -4.8 C 0 km/h
1160 02-12-2010 16:07:02 -4.9 C 2.26 g/m*3 -4.9 C 0 km/h
1161 02-12-2010 16:19:01 -5.1 C 2.26 g/m*3 -5.1 C 0 km/h
1162 02-12-2010 16:31:02 -5.1 C 2.3 g/m*3 -5.1 C 0 km/h
1163 02-12-2010 16:43:02 -5.2 C 2.32 g/m*3 -5.2 C 0 km/h
1164 02-12-2010 16:55:02 -5.3 C 2.37 g/m*3 -5.3 C 0 km/h
1165 02-12-2010 17:07:02 -5.7 C 2.3 g/m*3 -5.7 C 0 km/h
1166 02-12-2010 17:19:02 -6.9 C 2.11 g/m*3 -6.9 C 0 km/h
1167 02-12-2010 17:31:02 -7.9 C 2.04 g/m*3 -7.9 C 0 km/h
1168 02-12-2010 17:43:02 -8.2 C 2.05 g/m*3 -8.2 C 0 km/h
1169 02-12-2010 17:55:01 -8.1 C 2.12 g/m*3 -8.1 C 0 km/h
1170 02-12-2010 18:07:02 -8.2 C 2.13 g/m*3 -8.2 C 0 km/h
1171 02-12-2010 18:19:02 -8 C 2.19 g/m*3 -8 C 0 km/h
1172 02-12-2010 18:31:02 -7.8 C 2.25 g/m*3 -7.8 C 0 km/h
1173 02-12-2010 18:43:02 -8.2 C 2.18 g/m*3 -8.2 C 0 km/h
1174 02-12-2010 18:55:02 -7.9 C 2.23 g/m*3 -7.9 C 0 km/h
1175 02-12-2010 19:07:01 -7.9 C 2.26 g/m*3 -7.9 C 0 km/h
Sensor: Nr:Datum:Temp:Abs-Feuchte:Windchill:Wind:
Aussen-T/F 1176 02-12-2010 19:19:02 -7.9 C 2.26 g/m*3 -7.9 C 0 km/h
1177 02-12-2010 19:31:02 -8.6 C 2.12 g/m*3 -8.6 C 0 km/h
1178 02-12-2010 19:43:02 -8.9 C 2.07 g/m*3 -8.9 C 0 km/h
1179 02-12-2010 19:55:02 -8.8 C 2.09 g/m*3 -8.8 C 0 km/h
1180 02-12-2010 20:07:01 -9.4 C 2 g/m*3 -9.4 C 0 km/h
1181 02-12-2010 20:19:01 -9 C 2.06 g/m*3 -9 C 0 km/h
1182 02-12-2010 20:31:02 -7.7 C 2.32 g/m*3 -7.7 C 0 km/h
1183 02-12-2010 20:43:02 -7.2 C 2.41 g/m*3 -7.2 C 0 km/h
1184 02-12-2010 20:55:02 -6.9 C 2.49 g/m*3 -6.9 C 0 km/h
1185 02-12-2010 21:07:02 -6.9 C 2.46 g/m*3 -6.9 C 0 km/h
1186 02-12-2010 21:19:02 -7 C 2.44 g/m*3 -7 C 0 km/h
1187 02-12-2010 21:31:02 -7.5 C 2.33 g/m*3 -7.5 C 0 km/h
1188 02-12-2010 21:43:02 -7.9 C 2.26 g/m*3 -7.9 C 0 km/h
1189 02-12-2010 21:55:02 -8.4 C 2.15 g/m*3 -8.4 C 0 km/h
1190 02-12-2010 22:07:02 -8.2 C 2.21 g/m*3 -8.2 C 0 km/h
1191 02-12-2010 22:20:04 -8.5 C 2.13 g/m*3 -8.5 C 0 km/h
1192 02-12-2010 22:32:04 -8.9 C 2.07 g/m*3 -8.9 C 0 km/h
1193 02-12-2010 22:44:04 -8.9 C 2.05 g/m*3 -8.9 C 0 km/h
1194 02-12-2010 22:56:04 -8.2 C 2.18 g/m*3 -8.2 C 0 km/h
1195 02-12-2010 23:08:04 -8.3 C 2.17 g/m*3 -8.3 C 0 km/h
1196 02-12-2010 23:20:04 -7.8 C 2.28 g/m*3 -7.8 C 0 km/h
1197 02-12-2010 23:32:04 -7.9 C 2.23 g/m*3 -7.9 C 0 km/h
1198 02-12-2010 23:44:04 -7.8 C 2.25 g/m*3 -7.8 C 0 km/h
1199 02-12-2010 23:56:04 -8 C 2.22 g/m*3 -8 C 0 km/h
1200 03-12-2010 00:08:04 -8.5 C 2.11 g/m*3 -8.5 C 0 km/h
Sensor: Nr:Datum:Temp:Abs-Feuchte:Windchill:Wind:
Aussen-T/F 1201 03-12-2010 00:20:04 -9.5 C 1.93 g/m*3 -9.5 C 0 km/h
1202 03-12-2010 00:32:04 -10.1 C 1.82 g/m*3 -10.1 C 0 km/h
1203 03-12-2010 00:44:04 -10.7 C 1.72 g/m*3 -10.7 C 0 km/h
1204 03-12-2010 00:56:04 -10.6 C 1.73 g/m*3 -10.6 C 0 km/h
1205 03-12-2010 01:08:04 -10.4 C 1.76 g/m*3 -10.4 C 0 km/h
1206 03-12-2010 01:20:04 -9.8 C 1.89 g/m*3 -9.8 C 0 km/h
1207 03-12-2010 01:32:04 -9.7 C 1.9 g/m*3 -9.7 C 0 km/h
1208 03-12-2010 01:44:04 -9.3 C 1.99 g/m*3 -9.3 C 0 km/h
1209 03-12-2010 01:56:04 -9.1 C 2.02 g/m*3 -9.1 C 0 km/h
1210 03-12-2010 02:08:04 -9.1 C 2.02 g/m*3 -9.1 C 0 km/h
1211 03-12-2010 02:20:04 -9 C 2.03 g/m*3 -9 C 0 km/h
1212 03-12-2010 02:32:05 -9.1 C 1.99 g/m*3 -9.1 C 0 km/h
1213 03-12-2010 02:44:05 -9.1 C 1.99 g/m*3 -9.1 C 0 km/h
1214 03-12-2010 02:56:05 -9.3 C 1.96 g/m*3 -9.3 C 0 km/h
1215 03-12-2010 03:08:05 -9.2 C 1.98 g/m*3 -9.2 C 0 km/h
1216 03-12-2010 03:20:05 -9 C 2.01 g/m*3 -9 C 0 km/h
1217 03-12-2010 03:32:05 -8.7 C 2.05 g/m*3 -8.7 C 0 km/h
1218 03-12-2010 03:44:05 -8.5 C 2.11 g/m*3 -8.5 C 0 km/h
1219 03-12-2010 03:56:05 -8.5 C 2.08 g/m*3 -8.5 C 0 km/h
1220 03-12-2010 04:08:05 -8.2 C 2.13 g/m*3 -8.2 C 0 km/h
1221 03-12-2010 04:20:05 -8.1 C 2.14 g/m*3 -8.1 C 0 km/h
1222 03-12-2010 04:32:05 -7.9 C 2.18 g/m*3 -7.9 C 0 km/h
1223 03-12-2010 04:44:05 -8 C 2.16 g/m*3 -8 C 0 km/h
1224 03-12-2010 04:56:05 -8.1 C 2.12 g/m*3 -8.1 C 0 km/h
1225 03-12-2010 05:08:05 -8.6 C 2.04 g/m*3 -8.6 C 0 km/h
Sensor: Nr:Datum:Temp:Abs-Feuchte:Windchill:Wind:
Aussen-T/F 1226 03-12-2010 05:20:05 -8.8 C 1.98 g/m*3 -8.8 C 0 km/h
1227 03-12-2010 05:32:05 -8.6 C 2.04 g/m*3 -8.6 C 0 km/h
1228 03-12-2010 05:44:05 -8.5 C 2.08 g/m*3 -8.5 C 0 km/h
1229 03-12-2010 05:56:05 -8.9 C 2 g/m*3 -8.9 C 0 km/h
1230 03-12-2010 06:08:05 -9.5 C 1.91 g/m*3 -9.5 C 0 km/h
1231 03-12-2010 06:20:05 -9.8 C 1.84 g/m*3 -9.8 C 0 km/h
1232 03-12-2010 06:32:06 -9.6 C 1.89 g/m*3 -9.6 C 0 km/h
1233 03-12-2010 06:44:06 -9.4 C 1.92 g/m*3 -9.4 C 0 km/h
1234 03-12-2010 06:56:06 -9.1 C 1.99 g/m*3 -9.1 C 0 km/h
1235 03-12-2010 07:08:03 -8.7 C 2.08 g/m*3 -8.7 C 0 km/h
1236 03-12-2010 07:20:04 -8.7 C 2.08 g/m*3 -8.7 C 0 km/h
1237 03-12-2010 07:32:03 -8.9 C 2.02 g/m*3 -8.9 C 0 km/h
1238 03-12-2010 07:44:03 -9 C 2.01 g/m*3 -9 C 0 km/h
1239 03-12-2010 07:56:02 -9.3 C 1.96 g/m*3 -9.3 C 0 km/h
1240 03-12-2010 08:08:02 -9.5 C 1.93 g/m*3 -9.5 C 0 km/h
1241 03-12-2010 08:20:02 -9.9 C 1.85 g/m*3 -9.9 C 0 km/h
1242 03-12-2010 08:32:03 -10.2 C 1.81 g/m*3 -10.2 C 0 km/h
1243 03-12-2010 08:44:03 -10 C 1.84 g/m*3 -10 C 0 km/h
1244 03-12-2010 08:56:02 -10 C 1.84 g/m*3 -10 C 0 km/h
1245 03-12-2010 09:08:01 -10 C 1.84 g/m*3 -10 C 0 km/h
1246 03-12-2010 09:20:02 -9.8 C 1.87 g/m*3 -9.8 C 0 km/h
1247 03-12-2010 09:32:02 -10 C 1.81 g/m*3 -10 C 0 km/h
1248 03-12-2010 09:44:02 -9.8 C 1.84 g/m*3 -9.8 C 0 km/h
1249 03-12-2010 09:56:02 -9.4 C 1.87 g/m*3 -9.4 C 0 km/h
1250 03-12-2010 10:08:03 -9.1 C 1.92 g/m*3 -9.1 C 0 km/h
Sensor: Nr:Datum:Temp:Abs-Feuchte:Windchill:Wind:
Aussen-T/F 1251 03-12-2010 10:20:02 -8.6 C 1.96 g/m*3 -8.6 C 0 km/h
1252 03-12-2010 10:32:02 -8.2 C 2.05 g/m*3 -8.2 C 0 km/h
1253 03-12-2010 10:44:02 -7.5 C 2.16 g/m*3 -7.5 C 0 km/h
1254 03-12-2010 10:56:01 -7.1 C 2.19 g/m*3 -7.1 C 0 km/h
1255 03-12-2010 11:08:02 -6.6 C 2.24 g/m*3 -6.6 C 0 km/h
1256 03-12-2010 11:20:01 -6.6 C 2.21 g/m*3 -6.6 C 0 km/h
1257 03-12-2010 11:32:01 -6.4 C 2.21 g/m*3 -6.4 C 0 km/h
1258 03-12-2010 11:44:01 -6.2 C 2.22 g/m*3 -6.2 C 0 km/h
1259 03-12-2010 11:56:01 -5.8 C 2.25 g/m*3 -5.8 C 0 km/h
1260 03-12-2010 12:08:01 -5.7 C 2.23 g/m*3 -5.7 C 0 km/h
1261 03-12-2010 12:20:02 -5.4 C 2.25 g/m*3 -5.4 C 0 km/h
1262 03-12-2010 12:32:01 -4.9 C 2.33 g/m*3 -4.9 C 0 km/h
1263 03-12-2010 12:44:01 -4.8 C 2.31 g/m*3 -4.8 C 0 km/h
1264 03-12-2010 12:56:02 -5 C 2.28 g/m*3 -5 C 0 km/h
1265 03-12-2010 13:08:01 -4.9 C 2.3 g/m*3 -4.9 C 0 km/h
1266 03-12-2010 13:20:02 -4.7 C 2.33 g/m*3 -4.7 C 0 km/h
1267 03-12-2010 13:32:01 -4.8 C 2.31 g/m*3 -4.8 C 0 km/h
1268 03-12-2010 13:44:01 -4.7 C 2.33 g/m*3 -4.7 C 0 km/h
1269 03-12-2010 13:56:02 -4.6 C 2.35 g/m*3 -4.6 C 0 km/h
1270 03-12-2010 14:08:02 -4.4 C 2.35 g/m*3 -4.4 C 0 km/h
1271 03-12-2010 14:20:02 -4.3 C 2.4 g/m*3 -4.3 C 0 km/h
1272 03-12-2010 14:32:02 -4.3 C 2.36 g/m*3 -4.3 C 0 km/h
1273 03-12-2010 14:44:02 -4.2 C 2.38 g/m*3 -4.2 C 0 km/h
1274 03-12-2010 14:56:02 -4.1 C 2.4 g/m*3 -4.1 C 0 km/h
1275 03-12-2010 15:08:02 -4.2 C 2.42 g/m*3 -4.2 C 0 km/h
Sensor: Nr:Datum:Temp:Abs-Feuchte:Windchill:Wind:
Aussen-T/F 1276 03-12-2010 15:20:01 -4.4 C 2.42 g/m*3 -4.4 C 0 km/h
1277 03-12-2010 15:32:02 -4.7 C 2.4 g/m*3 -4.7 C 0 km/h
1278 03-12-2010 15:44:02 -4.8 C 2.42 g/m*3 -4.8 C 0 km/h
1279 03-12-2010 15:56:02 -5.3 C 2.37 g/m*3 -5.3 C 0 km/h
1280 03-12-2010 16:08:02 -5.7 C 2.36 g/m*3 -5.7 C 0 km/h
1281 03-12-2010 16:20:02 -6.1 C 2.36 g/m*3 -6.1 C 0 km/h
1282 03-12-2010 16:32:02 -6.3 C 2.35 g/m*3 -6.3 C 0 km/h
1283 03-12-2010 16:44:02 -6.3 C 2.39 g/m*3 -6.3 C 0 km/h
1284 03-12-2010 16:56:02 -6.5 C 2.38 g/m*3 -6.5 C 0 km/h
1285 03-12-2010 17:08:02 -6.8 C 2.33 g/m*3 -6.8 C 0 km/h
1286 03-12-2010 17:20:02 -6.8 C 2.36 g/m*3 -6.8 C 0 km/h
1287 03-12-2010 17:32:02 -7 C 2.33 g/m*3 -7 C 0 km/h
1288 03-12-2010 17:44:02 -7 C 2.36 g/m*3 -7 C 0 km/h
1289 03-12-2010 17:56:02 -7.3 C 2.3 g/m*3 -7.3 C 0 km/h
1290 03-12-2010 18:08:02 -7.4 C 2.29 g/m*3 -7.4 C 0 km/h
1291 03-12-2010 18:20:02 -7.3 C 2.3 g/m*3 -7.3 C 0 km/h
1292 03-12-2010 18:32:02 -7 C 2.36 g/m*3 -7 C 0 km/h
1293 03-12-2010 18:44:02 -6.8 C 2.42 g/m*3 -6.8 C 0 km/h
1294 03-12-2010 18:56:02 -6.6 C 2.46 g/m*3 -6.6 C 0 km/h
1295 03-12-2010 19:08:02 -6.1 C 2.58 g/m*3 -6.1 C 0 km/h
1296 03-12-2010 19:20:02 -5.8 C 2.64 g/m*3 -5.8 C 0 km/h
1297 03-12-2010 19:32:01 -5.7 C 2.65 g/m*3 -5.7 C 0 km/h
1298 03-12-2010 19:44:01 -5.6 C 2.64 g/m*3 -5.6 C 0 km/h
1299 03-12-2010 19:56:02 -5.5 C 2.66 g/m*3 -5.5 C 0 km/h
1300 03-12-2010 20:08:01 -5.5 C 2.63 g/m*3 -5.5 C 0 km/h
Sensor: Nr:Datum:Temp:Abs-Feuchte:Windchill:Wind:
Aussen-T/F 1301 03-12-2010 20:20:02 -5.4 C 2.65 g/m*3 -5.4 C 0 km/h
1302 03-12-2010 20:32:02 -5.3 C 2.67 g/m*3 -5.3 C 0 km/h
1303 03-12-2010 20:44:02 -5.3 C 2.63 g/m*3 -5.3 C 0 km/h
1304 03-12-2010 20:56:02 -5.3 C 2.63 g/m*3 -5.3 C 0 km/h
1305 03-12-2010 21:08:03 -5.3 C 2.63 g/m*3 -5.3 C 0 km/h
1306 03-12-2010 21:20:02 -5.5 C 2.56 g/m*3 -5.5 C 0 km/h
1307 03-12-2010 21:32:02 -6.1 C 2.45 g/m*3 -6.1 C 0 km/h
1308 03-12-2010 21:44:02 -6.1 C 2.48 g/m*3 -6.1 C 0 km/h
1309 03-12-2010 21:56:01 -5.6 C 2.61 g/m*3 -5.6 C 0 km/h
1310 03-12-2010 22:08:02 -5.9 C 2.55 g/m*3 -5.9 C 0 km/h
1311 03-12-2010 22:20:01 -6.5 C 2.41 g/m*3 -6.5 C 0 km/h
1312 03-12-2010 22:32:02 -6.9 C 2.37 g/m*3 -6.9 C 0 km/h
1313 03-12-2010 22:44:03 -7.2 C 2.32 g/m*3 -7.2 C 0 km/h
1314 03-12-2010 22:56:02 -7.4 C 2.32 g/m*3 -7.4 C 0 km/h
1315 03-12-2010 23:08:02 -8 C 2.22 g/m*3 -8 C 0 km/h
1316 03-12-2010 23:20:01 -8 C 2.22 g/m*3 -8 C 0 km/h
1317 03-12-2010 23:32:02 -8.2 C 2.18 g/m*3 -8.2 C 0 km/h
1318 03-12-2010 23:44:02 -7.2 C 2.41 g/m*3 -7.2 C 0 km/h
1319 03-12-2010 23:56:02 -8.2 C 2.21 g/m*3 -8.2 C 0 km/h
1320 04-12-2010 00:08:02 -8.7 C 2.13 g/m*3 -8.7 C 0 km/h
1321 04-12-2010 00:20:02 -8.4 C 2.18 g/m*3 -8.4 C 0 km/h
1322 04-12-2010 00:32:02 -8.5 C 2.16 g/m*3 -8.5 C 0 km/h
1323 04-12-2010 00:44:02 -8.6 C 2.14 g/m*3 -8.6 C 0 km/h
1324 04-12-2010 00:56:02 -8.3 C 2.22 g/m*3 -8.3 C 0 km/h
1325 04-12-2010 01:08:02 -8.2 C 2.24 g/m*3 -8.2 C 0 km/h
Sensor: Nr:Datum:Temp:Abs-Feuchte:Windchill:Wind:
Aussen-T/F 1326 04-12-2010 01:20:03 -9.1 C 2.04 g/m*3 -9.1 C 0 km/h
1327 04-12-2010 01:32:02 -9.4 C 2 g/m*3 -9.4 C 0 km/h
1328 04-12-2010 01:44:02 -9.4 C 2 g/m*3 -9.4 C 0 km/h
1329 04-12-2010 01:56:02 -9.4 C 2.02 g/m*3 -9.4 C 0 km/h
1330 04-12-2010 02:08:02 -9.6 C 1.97 g/m*3 -9.6 C 0 km/h
1331 04-12-2010 02:20:02 -9.4 C 2 g/m*3 -9.4 C 0 km/h
1332 04-12-2010 02:32:02 -9 C 2.08 g/m*3 -9 C 0 km/h
1333 04-12-2010 02:44:02 -9.1 C 2.04 g/m*3 -9.1 C 0 km/h
1334 04-12-2010 02:57:04 -9.2 C 2.03 g/m*3 -9.2 C 0 km/h
1335 04-12-2010 03:09:04 -9.8 C 1.94 g/m*3 -9.8 C 0 km/h
1336 04-12-2010 03:21:03 -10.4 C 1.83 g/m*3 -10.4 C 0 km/h
1337 04-12-2010 03:33:01 -10.5 C 1.79 g/m*3 -10.5 C 0 km/h
1338 04-12-2010 03:45:01 -10 C 1.88 g/m*3 -10 C 0 km/h
1339 04-12-2010 03:57:01 -9 C 2.06 g/m*3 -9 C 0 km/h
1340 04-12-2010 04:09:02 -8.8 C 2.09 g/m*3 -8.8 C 0 km/h
1341 04-12-2010 04:21:02 -8.2 C 2.21 g/m*3 -8.2 C 0 km/h
1342 04-12-2010 04:33:01 -8 C 2.24 g/m*3 -8 C 0 km/h
1343 04-12-2010 04:45:02 -7.6 C 2.31 g/m*3 -7.6 C 0 km/h
1344 04-12-2010 04:57:02 -7.2 C 2.38 g/m*3 -7.2 C 0 km/h
1345 04-12-2010 05:09:01 -6.9 C 2.43 g/m*3 -6.9 C 0 km/h
1346 04-12-2010 05:21:02 -6.3 C 2.57 g/m*3 -6.3 C 0 km/h
1347 04-12-2010 05:33:01 -5.1 C 2.81 g/m*3 -5.1 C 0 km/h
1348 04-12-2010 05:45:02 -4.5 C 2.82 g/m*3 -4.5 C 0 km/h
1349 04-12-2010 05:57:02 -4.8 C 2.73 g/m*3 -4.8 C 0 km/h
1350 04-12-2010 06:09:02 -4.5 C 2.68 g/m*3 -4.5 C 0 km/h
Sensor: Nr:Datum:Temp:Abs-Feuchte:Windchill:Wind:
Aussen-T/F 1351 04-12-2010 06:21:02 -4.9 C 2.57 g/m*3 -4.9 C 0 km/h
1352 04-12-2010 06:33:03 -5 C 2.55 g/m*3 -5 C 0 km/h
1353 04-12-2010 06:45:02 -5.3 C 2.53 g/m*3 -5.3 C 0 km/h
1354 04-12-2010 06:57:02 -5 C 2.62 g/m*3 -5 C 0 km/h
1355 04-12-2010 07:09:02 -5 C 2.62 g/m*3 -5 C 0 km/h
1356 04-12-2010 07:21:01 -5.3 C 2.53 g/m*3 -5.3 C 0 km/h
1357 04-12-2010 07:33:02 -5.4 C 2.51 g/m*3 -5.4 C 0 km/h
1358 04-12-2010 07:45:02 -5.2 C 2.58 g/m*3 -5.2 C 0 km/h
1359 04-12-2010 07:57:02 -4.8 C 2.66 g/m*3 -4.8 C 0 km/h
1360 04-12-2010 08:09:02 -4.8 C 2.63 g/m*3 -4.8 C 0 km/h
1361 04-12-2010 08:21:02 -4.1 C 2.76 g/m*3 -4.1 C 0 km/h
1362 04-12-2010 08:33:02 -3.8 C 2.71 g/m*3 -3.8 C 0 km/h
1363 04-12-2010 08:45:02 -3.5 C 2.65 g/m*3 -3.5 C 0 km/h
1364 04-12-2010 08:57:02 -3.5 C 2.58 g/m*3 -3.5 C 0 km/h
1365 04-12-2010 09:09:02 -3.3 C 2.61 g/m*3 -3.3 C 0 km/h
1366 04-12-2010 09:21:01 -3.1 C 2.57 g/m*3 -3.1 C 0 km/h
1367 04-12-2010 09:33:02 -3 C 2.59 g/m*3 -3 C 0 km/h
1368 04-12-2010 09:45:01 -2.9 C 2.61 g/m*3 -2.9 C 0 km/h
1369 04-12-2010 09:57:01 -3.2 C 2.52 g/m*3 -3.2 C 0 km/h
1370 04-12-2010 10:09:02 -2.9 C 2.57 g/m*3 -2.9 C 0 km/h
1371 04-12-2010 10:21:02 -2.4 C 2.66 g/m*3 -2.4 C 0 km/h
1372 04-12-2010 10:33:02 -2 C 2.82 g/m*3 -2 C 0 km/h
1373 04-12-2010 10:45:02 -1.8 C 2.69 g/m*3 -1.8 C 0 km/h
1374 04-12-2010 10:57:02 -1.5 C 2.62 g/m*3 -1.5 C 0 km/h
1375 04-12-2010 11:09:01 -1.5 C 2.58 g/m*3 -1.5 C 0 km/h
Sensor: Nr:Datum:Temp:Abs-Feuchte:Windchill:Wind:
Aussen-T/F 1376 04-12-2010 11:21:02 -1.3 C 2.43 g/m*3 -1.3 C 0 km/h
1377 04-12-2010 11:33:01 -1.5 C 2.4 g/m*3 -1.5 C 0 km/h
1378 04-12-2010 11:45:02 -1.3 C 2.43 g/m*3 -1.3 C 0 km/h
1379 04-12-2010 11:57:02 -1.3 C 2.39 g/m*3 -1.3 C 0 km/h
1380 04-12-2010 12:09:02 -1 C 2.49 g/m*3 -1 C 0 km/h
1381 04-12-2010 12:21:02 -0.9 C 2.41 g/m*3 -0.9 C 0 km/h
1382 04-12-2010 12:33:03 -0.7 C 2.49 g/m*3 -0.7 C 0 km/h
1383 04-12-2010 12:45:02 -0.8 C 2.43 g/m*3 -0.8 C 0 km/h
1384 04-12-2010 12:57:02 -0.9 C 2.46 g/m*3 -0.9 C 0 km/h
1385 04-12-2010 13:09:02 -1.3 C 2.39 g/m*3 -1.3 C 0 km/h
1386 04-12-2010 13:21:01 -1.6 C 2.38 g/m*3 -1.6 C 0 km/h
1387 04-12-2010 13:33:02 -1.6 C 2.38 g/m*3 -1.6 C 0 km/h
1388 04-12-2010 13:45:02 -1.3 C 2.43 g/m*3 -1.3 C 0 km/h
1389 04-12-2010 13:57:02 -1.2 C 2.45 g/m*3 -1.2 C 0 km/h
1390 04-12-2010 14:09:02 -1.1 C 2.47 g/m*3 -1.1 C 0 km/h
1391 04-12-2010 14:21:01 -1.1 C 2.47 g/m*3 -1.1 C 0 km/h
1392 04-12-2010 14:33:02 -0.9 C 2.46 g/m*3 -0.9 C 0 km/h
1393 04-12-2010 14:45:01 -1 C 2.49 g/m*3 -1 C 0 km/h
1394 04-12-2010 14:57:01 -0.9 C 2.46 g/m*3 -0.9 C 0 km/h
1395 04-12-2010 15:09:02 -0.9 C 2.5 g/m*3 -0.9 C 0 km/h
1396 04-12-2010 15:21:02 -0.9 C 2.5 g/m*3 -0.9 C 0 km/h
1397 04-12-2010 15:33:02 -0.9 C 2.5 g/m*3 -0.9 C 0 km/h
1398 04-12-2010 15:45:01 -0.9 C 2.5 g/m*3 -0.9 C 0 km/h
1399 04-12-2010 15:57:01 -1 C 2.58 g/m*3 -1 C 0 km/h
1400 04-12-2010 16:09:02 -1.1 C 2.6 g/m*3 -1.1 C 0 km/h
Sensor: Nr:Datum:Temp:Abs-Feuchte:Windchill:Wind:
Aussen-T/F 1401 04-12-2010 16:21:02 -1.1 C 2.6 g/m*3 -1.1 C 0 km/h
1402 04-12-2010 16:33:01 -1.3 C 2.66 g/m*3 -1.3 C 0 km/h
1403 04-12-2010 16:45:02 -1.2 C 2.67 g/m*3 -1.2 C 0 km/h
1404 04-12-2010 16:57:02 -1.4 C 2.68 g/m*3 -1.4 C 0 km/h
1405 04-12-2010 17:09:01 -1.2 C 2.72 g/m*3 -1.2 C 0 km/h
1406 04-12-2010 17:21:02 -1 C 2.76 g/m*3 -1 C 0 km/h
1407 04-12-2010 17:33:02 -1 C 2.76 g/m*3 -1 C 0 km/h
1408 04-12-2010 17:45:02 -1.1 C 2.78 g/m*3 -1.1 C 0 km/h
1409 04-12-2010 17:57:03 -1.1 C 2.78 g/m*3 -1.1 C 0 km/h
1410 04-12-2010 18:09:02 -1.1 C 2.78 g/m*3 -1.1 C 0 km/h
1411 04-12-2010 18:21:02 -1 C 2.8 g/m*3 -1 C 0 km/h
1412 04-12-2010 18:33:02 -0.8 C 2.8 g/m*3 -0.8 C 0 km/h
1413 04-12-2010 18:45:01 -0.8 C 2.8 g/m*3 -0.8 C 0 km/h
1414 04-12-2010 18:57:01 -0.8 C 2.8 g/m*3 -0.8 C 0 km/h
1415 04-12-2010 19:09:02 -0.9 C 2.78 g/m*3 -0.9 C 0 km/h
1416 04-12-2010 19:21:01 -0.8 C 2.8 g/m*3 -0.8 C 0 km/h
1417 04-12-2010 19:33:02 -0.8 C 2.8 g/m*3 -0.8 C 0 km/h
1418 04-12-2010 19:45:01 -1 C 2.8 g/m*3 -1 C 0 km/h
1419 04-12-2010 19:57:01 -1.1 C 2.78 g/m*3 -1.1 C 0 km/h
1420 04-12-2010 20:09:02 -1.1 C 2.83 g/m*3 -1.1 C 0 km/h
1421 04-12-2010 20:21:01 -1.2 C 2.85 g/m*3 -1.2 C 0 km/h
1422 04-12-2010 20:33:02 -0.9 C 2.87 g/m*3 -0.9 C 0 km/h
1423 04-12-2010 20:45:01 -0.7 C 2.91 g/m*3 -0.7 C 0 km/h
1424 04-12-2010 20:57:01 -0.9 C 2.91 g/m*3 -0.9 C 0 km/h
1425 04-12-2010 21:09:02 -1.2 C 2.94 g/m*3 -1.2 C 0 km/h
Sensor: Nr:Datum:Temp:Abs-Feuchte:Windchill:Wind:
Aussen-T/F 1426 04-12-2010 21:21:02 -1.1 C 3.01 g/m*3 -1.1 C 0 km/h
1427 04-12-2010 21:33:01 -1 C 3.12 g/m*3 -1 C 0 km/h
1428 04-12-2010 21:45:02 -1.1 C 3.28 g/m*3 -1.1 C 0 km/h
1429 04-12-2010 21:57:02 -1.1 C 3.32 g/m*3 -1.1 C 0 km/h
1430 04-12-2010 22:09:02 -1.3 C 3.32 g/m*3 -1.3 C 0 km/h
1431 04-12-2010 22:21:01 -1.1 C 3.46 g/m*3 -1.1 C 0 km/h
1432 04-12-2010 22:33:02 -1.3 C 3.45 g/m*3 -1.3 C 0 km/h
1433 04-12-2010 22:45:02 -1.1 C 3.55 g/m*3 -1.1 C 0 km/h
1434 04-12-2010 22:57:02 -1.1 C 3.55 g/m*3 -1.1 C 0 km/h
1435 04-12-2010 23:09:02 -1.3 C 3.5 g/m*3 -1.3 C 0 km/h
1436 04-12-2010 23:21:02 -1.4 C 3.47 g/m*3 -1.4 C 0 km/h
1437 04-12-2010 23:33:02 -1.1 C 3.5 g/m*3 -1.1 C 0 km/h
1438 04-12-2010 23:45:02 -1 C 3.53 g/m*3 -1 C 0 km/h
1439 04-12-2010 23:57:02 -0.8 C 3.53 g/m*3 -0.8 C 0 km/h
1440 05-12-2010 00:09:02 -0.8 C 3.48 g/m*3 -0.8 C 0 km/h
1441 05-12-2010 00:21:02 -0.7 C 3.51 g/m*3 -0.7 C 0 km/h
1442 05-12-2010 00:33:02 -0.5 C 3.51 g/m*3 -0.5 C 0 km/h
1443 05-12-2010 00:45:02 -0.4 C 3.49 g/m*3 -0.4 C 0 km/h
1444 05-12-2010 00:57:02 -0.1 C 3.42 g/m*3 -0.1 C 0 km/h
1445 05-12-2010 01:09:02 -0.1 C 3.42 g/m*3 -0.1 C 0 km/h
1446 05-12-2010 01:21:02 0.3 C 3.26 g/m*3 0.3 C 0 km/h
1447 05-12-2010 01:33:02 0.3 C 3.26 g/m*3 0.3 C 0 km/h
1448 05-12-2010 01:45:02 0.1 C 3.27 g/m*3 0.1 C 0 km/h
1449 05-12-2010 01:57:02 0 C 3.34 g/m*3 0 C 0 km/h
1450 05-12-2010 02:09:02 0 C 3.39 g/m*3 0 C 0 km/h
Sensor: Nr:Datum:Temp:Abs-Feuchte:Windchill:Wind:
Aussen-T/F 1451 05-12-2010 02:21:03 0.1 C 3.46 g/m*3 0.1 C 0 km/h
1452 05-12-2010 02:33:02 0 C 3.49 g/m*3 0 C 0 km/h
1453 05-12-2010 02:46:04 0 C 3.54 g/m*3 0 C 0 km/h
1454 05-12-2010 02:58:04 0 C 3.59 g/m*3 0 C 0 km/h
1455 05-12-2010 03:10:04 0 C 3.54 g/m*3 0 C 0 km/h
1456 05-12-2010 03:22:04 0.2 C 3.49 g/m*3 0.2 C 0 km/h
1457 05-12-2010 03:34:02 0.2 C 3.54 g/m*3 0.2 C 0 km/h
1458 05-12-2010 03:46:02 0.1 C 3.51 g/m*3 0.1 C 0 km/h
1459 05-12-2010 03:58:02 0.1 C 3.56 g/m*3 0.1 C 0 km/h
1460 05-12-2010 04:10:02 0.1 C 3.61 g/m*3 0.1 C 0 km/h
1461 05-12-2010 04:22:02 0.1 C 3.66 g/m*3 0.1 C 0 km/h
1462 05-12-2010 04:34:02 0.1 C 3.66 g/m*3 0.1 C 0 km/h
1463 05-12-2010 04:46:01 0.2 C 3.54 g/m*3 0.2 C 0 km/h
1464 05-12-2010 04:58:01 0.1 C 3.42 g/m*3 0.1 C 0 km/h
1465 05-12-2010 05:10:01 0.3 C 3.36 g/m*3 0.3 C 0 km/h
1466 05-12-2010 05:22:01 -0.1 C 3.32 g/m*3 -0.1 C 0 km/h
1467 05-12-2010 05:34:01 0.1 C 3.27 g/m*3 0.1 C 0 km/h
1468 05-12-2010 05:46:01 0.6 C 3.18 g/m*3 0.6 C 0 km/h
1469 05-12-2010 05:58:01 0.2 C 3.09 g/m*3 0.2 C 0 km/h
1470 05-12-2010 06:10:01 0.2 C 3.14 g/m*3 0.2 C 0 km/h
1471 05-12-2010 06:22:02 0.5 C 3.06 g/m*3 0.5 C 0 km/h
1472 05-12-2010 06:34:01 0.1 C 2.98 g/m*3 0.1 C 0 km/h
1473 05-12-2010 06:46:02 0.2 C 3 g/m*3 0.2 C 0 km/h
1474 05-12-2010 06:58:02 0.1 C 2.93 g/m*3 0.1 C 0 km/h
1475 05-12-2010 07:10:02 -0.2 C 3.01 g/m*3 -0.2 C 0 km/h
Sensor: Nr:Datum:Temp:Abs-Feuchte:Windchill:Wind:
Aussen-T/F 1476 05-12-2010 07:22:02 0.2 C 2.95 g/m*3 0.2 C 0 km/h
1477 05-12-2010 07:34:01 0.1 C 2.88 g/m*3 0.1 C 0 km/h
1478 05-12-2010 07:46:02 -0.2 C 2.82 g/m*3 -0.2 C 0 km/h
1479 05-12-2010 07:58:02 -0.3 C 2.89 g/m*3 -0.3 C 0 km/h
1480 05-12-2010 08:10:01 -0.5 C 2.9 g/m*3 -0.5 C 0 km/h
1481 05-12-2010 08:22:01 0.1 C 2.93 g/m*3 0.1 C 0 km/h
1482 05-12-2010 08:34:02 -0.1 C 2.84 g/m*3 -0.1 C 0 km/h
1483 05-12-2010 08:46:02 -0.4 C 2.83 g/m*3 -0.4 C 0 km/h
1484 05-12-2010 08:58:02 -0.7 C 3 g/m*3 -0.7 C 0 km/h
1485 05-12-2010 09:10:02 -0.6 C 3.02 g/m*3 -0.6 C 0 km/h
1486 05-12-2010 09:22:02 -0.4 C 3.02 g/m*3 -0.4 C 0 km/h
1487 05-12-2010 09:34:02 0 C 2.91 g/m*3 0 C 0 km/h
1488 05-12-2010 09:46:02 0.3 C 2.97 g/m*3 0.3 C 0 km/h
1489 05-12-2010 09:58:02 0.8 C 2.87 g/m*3 0.8 C 0 km/h
1490 05-12-2010 10:10:02 1.2 C 2.74 g/m*3 1.2 C 0 km/h
1491 05-12-2010 10:22:02 1.5 C 2.69 g/m*3 1.5 C 0 km/h
1492 05-12-2010 10:34:02 1.6 C 3.03 g/m*3 1.6 C 0 km/h
1493 05-12-2010 10:46:02 1.9 C 2.81 g/m*3 1.9 C 0 km/h
1494 05-12-2010 10:58:02 2.2 C 2.87 g/m*3 2.2 C 0 km/h
1495 05-12-2010 11:10:02 2.5 C 2.7 g/m*3 2.5 C 0 km/h
1496 05-12-2010 11:22:02 2.3 C 2.78 g/m*3 2.3 C 0 km/h
1497 05-12-2010 11:34:02 2.5 C 2.87 g/m*3 2.5 C 0 km/h
1498 05-12-2010 11:46:01 2.6 C 2.72 g/m*3 2.6 C 0 km/h
1499 05-12-2010 11:58:01 2.8 C 2.76 g/m*3 2.8 C 0 km/h
1500 05-12-2010 12:10:01 2.8 C 2.7 g/m*3 2.8 C 0 km/h
Sensor: Nr:Datum:Temp:Abs-Feuchte:Windchill:Wind:
Aussen-T/F 1501 05-12-2010 12:22:02 3 C 2.68 g/m*3 3 C 0 km/h
1502 05-12-2010 12:34:01 3.2 C 2.65 g/m*3 3.2 C 0 km/h
1503 05-12-2010 12:46:02 3.3 C 2.67 g/m*3 3.3 C 0 km/h
1504 05-12-2010 12:58:02 3.2 C 2.65 g/m*3 3.2 C 0 km/h
1505 05-12-2010 13:10:02 3.3 C 2.67 g/m*3 3.3 C 0 km/h
1506 05-12-2010 13:22:03 3.4 C 2.63 g/m*3 3.4 C 0 km/h
1507 05-12-2010 13:34:02 3.4 C 2.57 g/m*3 3.4 C 0 km/h
1508 05-12-2010 13:46:02 3.3 C 2.61 g/m*3 3.3 C 0 km/h
1509 05-12-2010 13:58:02 3.6 C 2.66 g/m*3 3.6 C 0 km/h
1510 05-12-2010 14:10:02 3.2 C 2.59 g/m*3 3.2 C 0 km/h
1511 05-12-2010 14:22:02 3.3 C 2.61 g/m*3 3.3 C 0 km/h
1512 05-12-2010 14:34:02 3.3 C 2.61 g/m*3 3.3 C 0 km/h
1513 05-12-2010 14:46:02 3.2 C 2.59 g/m*3 3.2 C 0 km/h
1514 05-12-2010 14:58:03 3.2 C 2.59 g/m*3 3.2 C 0 km/h
1515 05-12-2010 15:10:01 2.9 C 2.78 g/m*3 2.9 C 0 km/h
1516 05-12-2010 15:22:02 2.6 C 2.84 g/m*3 2.6 C 0 km/h
1517 05-12-2010 15:34:02 2.1 C 3.08 g/m*3 2.1 C 0 km/h
1518 05-12-2010 15:46:02 1.7 C 3.27 g/m*3 1.7 C 0 km/h
1519 05-12-2010 15:58:02 1.8 C 3.23 g/m*3 1.8 C 0 km/h
1520 05-12-2010 16:10:02 1.5 C 3.28 g/m*3 1.5 C 0 km/h
1521 05-12-2010 16:22:02 1.4 C 3.31 g/m*3 1.4 C 0 km/h
1522 05-12-2010 16:34:02 1.2 C 3.31 g/m*3 1.2 C 0 km/h
1523 05-12-2010 16:46:01 1.1 C 3.24 g/m*3 1.1 C 0 km/h
1524 05-12-2010 16:58:01 1 C 3.27 g/m*3 1 C 0 km/h
1525 05-12-2010 17:10:02 1 C 3.32 g/m*3 1 C 0 km/h
Sensor: Nr:Datum:Temp:Abs-Feuchte:Windchill:Wind:
Aussen-T/F 1526 05-12-2010 17:22:01 1.1 C 3.45 g/m*3 1.1 C 0 km/h
1527 05-12-2010 17:34:01 1.7 C 3.38 g/m*3 1.7 C 0 km/h
1528 05-12-2010 17:46:01 1.7 C 3.43 g/m*3 1.7 C 0 km/h
1529 05-12-2010 17:58:01 1.4 C 3.41 g/m*3 1.4 C 0 km/h
1530 05-12-2010 18:10:02 1 C 3.63 g/m*3 1 C 0 km/h
1531 05-12-2010 18:22:02 0.9 C 3.76 g/m*3 0.9 C 0 km/h
1532 05-12-2010 18:34:02 0.8 C 3.79 g/m*3 0.8 C 0 km/h
1533 05-12-2010 18:46:02 0.9 C 3.92 g/m*3 0.9 C 0 km/h
1534 05-12-2010 18:58:02 0.8 C 3.94 g/m*3 0.8 C 0 km/h
1535 05-12-2010 19:10:02 0.8 C 3.94 g/m*3 0.8 C 0 km/h
1536 05-12-2010 19:22:02 0.9 C 3.92 g/m*3 0.9 C 0 km/h
1537 05-12-2010 19:34:02 0.8 C 3.94 g/m*3 0.8 C 0 km/h
1538 05-12-2010 19:46:01 0.9 C 4.02 g/m*3 0.9 C 0 km/h
1539 05-12-2010 19:58:01 0.9 C 4.02 g/m*3 0.9 C 0 km/h
1540 05-12-2010 20:10:02 0.9 C 4.02 g/m*3 0.9 C 0 km/h
1541 05-12-2010 20:22:01 0.7 C 4.02 g/m*3 0.7 C 0 km/h
1542 05-12-2010 20:34:02 0.6 C 4.09 g/m*3 0.6 C 0 km/h
1543 05-12-2010 20:46:02 0.5 C 4.11 g/m*3 0.5 C 0 km/h
1544 05-12-2010 20:58:02 0.4 C 4.13 g/m*3 0.4 C 0 km/h
1545 05-12-2010 21:10:02 0.3 C 4.16 g/m*3 0.3 C 0 km/h
1546 05-12-2010 21:22:01 0.3 C 4.25 g/m*3 0.3 C 0 km/h
1547 05-12-2010 21:34:02 0.3 C 4.25 g/m*3 0.3 C 0 km/h
1548 05-12-2010 21:46:02 0.3 C 4.3 g/m*3 0.3 C 0 km/h
1549 05-12-2010 21:58:02 0.5 C 4.36 g/m*3 0.5 C 0 km/h
1550 05-12-2010 22:10:02 0.4 C 4.38 g/m*3 0.4 C 0 km/h
Sensor: Nr:Datum:Temp:Abs-Feuchte:Windchill:Wind:
Aussen-T/F 1551 05-12-2010 22:22:02 0.4 C 4.33 g/m*3 0.4 C 0 km/h
1552 05-12-2010 22:34:02 0.4 C 4.33 g/m*3 0.4 C 0 km/h
1553 05-12-2010 22:46:02 0.3 C 4.35 g/m*3 0.3 C 0 km/h
1554 05-12-2010 22:58:02 0.3 C 4.35 g/m*3 0.3 C 0 km/h
1555 05-12-2010 23:10:02 0.2 C 4.32 g/m*3 0.2 C 0 km/h
1556 05-12-2010 23:22:02 0.2 C 4.32 g/m*3 0.2 C 0 km/h
1557 05-12-2010 23:34:02 0.2 C 4.32 g/m*3 0.2 C 0 km/h
1558 05-12-2010 23:46:02 0.2 C 4.32 g/m*3 0.2 C 0 km/h
1559 05-12-2010 23:58:02 0.2 C 4.37 g/m*3 0.2 C 0 km/h
1560 06-12-2010 00:10:01 0.1 C 4.34 g/m*3 0.1 C 0 km/h
1561 06-12-2010 00:22:02 0.1 C 4.34 g/m*3 0.1 C 0 km/h
1562 06-12-2010 00:34:02 0.1 C 4.34 g/m*3 0.1 C 0 km/h
1563 06-12-2010 00:46:02 0.2 C 4.37 g/m*3 0.2 C 0 km/h
1564 06-12-2010 00:58:02 0.1 C 4.34 g/m*3 0.1 C 0 km/h
1565 06-12-2010 01:10:03 0.2 C 4.37 g/m*3 0.2 C 0 km/h
1566 06-12-2010 01:22:02 0.1 C 4.34 g/m*3 0.1 C 0 km/h
1567 06-12-2010 01:34:02 0.1 C 4.39 g/m*3 0.1 C 0 km/h
1568 06-12-2010 01:46:01 0.1 C 4.39 g/m*3 0.1 C 0 km/h
1569 06-12-2010 01:58:01 0.1 C 4.39 g/m*3 0.1 C 0 km/h
1570 06-12-2010 02:10:02 0.1 C 4.39 g/m*3 0.1 C 0 km/h
1571 06-12-2010 02:22:01 0.1 C 4.39 g/m*3 0.1 C 0 km/h
1572 06-12-2010 02:34:01 0.1 C 4.39 g/m*3 0.1 C 0 km/h
1573 06-12-2010 02:47:03 0.1 C 4.39 g/m*3 0.1 C 0 km/h
1574 06-12-2010 02:59:03 0.1 C 4.39 g/m*3 0.1 C 0 km/h
1575 06-12-2010 03:11:04 0.1 C 4.39 g/m*3 0.1 C 0 km/h
Sensor: Nr:Datum:Temp:Abs-Feuchte:Windchill:Wind:
Aussen-T/F 1576 06-12-2010 03:23:05 0.1 C 4.34 g/m*3 0.1 C 0 km/h
1577 06-12-2010 03:35:02 0.1 C 4.34 g/m*3 0.1 C 0 km/h
1578 06-12-2010 03:47:02 0.1 C 4.34 g/m*3 0.1 C 0 km/h
1579 06-12-2010 03:59:02 0.1 C 4.34 g/m*3 0.1 C 0 km/h
1580 06-12-2010 04:11:02 0.2 C 4.37 g/m*3 0.2 C 0 km/h
1581 06-12-2010 04:23:02 0.2 C 4.42 g/m*3 0.2 C 0 km/h
1582 06-12-2010 04:35:02 0.1 C 4.39 g/m*3 0.1 C 0 km/h
1583 06-12-2010 04:47:02 0.1 C 4.39 g/m*3 0.1 C 0 km/h
1584 06-12-2010 04:59:02 0.1 C 4.34 g/m*3 0.1 C 0 km/h
1585 06-12-2010 05:11:02 0 C 4.31 g/m*3 0 C 0 km/h
1586 06-12-2010 05:23:02 0 C 4.31 g/m*3 0 C 0 km/h
1587 06-12-2010 05:35:02 0.1 C 4.34 g/m*3 0.1 C 0 km/h
1588 06-12-2010 05:47:02 0 C 4.31 g/m*3 0 C 0 km/h
1589 06-12-2010 05:59:02 0.1 C 4.39 g/m*3 0.1 C 0 km/h
1590 06-12-2010 06:11:02 0.1 C 4.39 g/m*3 0.1 C 0 km/h
1591 06-12-2010 06:23:02 0 C 4.36 g/m*3 0 C 0 km/h
1592 06-12-2010 06:35:02 0 C 4.36 g/m*3 0 C 0 km/h
1593 06-12-2010 06:47:02 0 C 4.36 g/m*3 0 C 0 km/h
1594 06-12-2010 06:59:02 0 C 4.36 g/m*3 0 C 0 km/h
1595 06-12-2010 07:11:01 0 C 4.36 g/m*3 0 C 0 km/h
1596 06-12-2010 07:23:02 0 C 4.36 g/m*3 0 C 0 km/h
1597 06-12-2010 07:35:01 0 C 4.36 g/m*3 0 C 0 km/h
1598 06-12-2010 07:47:02 0 C 4.31 g/m*3 0 C 0 km/h
1599 06-12-2010 07:59:02 0 C 4.31 g/m*3 0 C 0 km/h
1600 06-12-2010 08:11:02 0 C 4.31 g/m*3 0 C 0 km/h
Sensor: Nr:Datum:Temp:Abs-Feuchte:Windchill:Wind:
Aussen-T/F 1601 06-12-2010 08:23:02 0 C 4.31 g/m*3 0 C 0 km/h
1602 06-12-2010 08:35:02 0 C 4.31 g/m*3 0 C 0 km/h
1603 06-12-2010 08:47:02 0.1 C 4.29 g/m*3 0.1 C 0 km/h
1604 06-12-2010 08:59:02 0.2 C 4.32 g/m*3 0.2 C 0 km/h
1605 06-12-2010 09:11:02 0.4 C 4.38 g/m*3 0.4 C 0 km/h
1606 06-12-2010 09:23:01 0.7 C 4.37 g/m*3 0.7 C 0 km/h
1607 06-12-2010 09:35:02 0.9 C 4.43 g/m*3 0.9 C 0 km/h
1608 06-12-2010 09:47:02 1.1 C 4.34 g/m*3 1.1 C 0 km/h
1609 06-12-2010 09:59:02 1.1 C 4.34 g/m*3 1.1 C 0 km/h
1610 06-12-2010 10:11:02 1.3 C 4.13 g/m*3 1.3 C 0 km/h
1611 06-12-2010 10:23:01 1.4 C 4.05 g/m*3 1.4 C 0 km/h
1612 06-12-2010 10:35:01 1.4 C 4.05 g/m*3 1.4 C 0 km/h
1613 06-12-2010 10:47:03 1.3 C 3.97 g/m*3 1.3 C 0 km/h
1614 06-12-2010 10:59:03 1.5 C 3.97 g/m*3 1.5 C 0 km/h
1615 06-12-2010 11:11:02 1.5 C 3.97 g/m*3 1.5 C 0 km/h
1616 06-12-2010 11:23:02 1.7 C 3.97 g/m*3 1.7 C 0 km/h
1617 06-12-2010 11:35:02 2 C 3.95 g/m*3 2 C 0 km/h
1618 06-12-2010 11:47:02 2 C 3.89 g/m*3 2 C 0 km/h
1619 06-12-2010 11:59:02 2.2 C 3.89 g/m*3 2.2 C 0 km/h
1620 06-12-2010 12:11:01 2.2 C 3.83 g/m*3 2.2 C 0 km/h
1621 06-12-2010 12:23:02 2.5 C 3.79 g/m*3 2.5 C 0 km/h
1622 06-12-2010 12:35:02 2.6 C 3.76 g/m*3 2.6 C 0 km/h
1623 06-12-2010 12:47:02 2.3 C 3.69 g/m*3 2.3 C 0 km/h
1624 06-12-2010 12:59:02 2.4 C 3.71 g/m*3 2.4 C 0 km/h
1625 06-12-2010 13:11:03 2.5 C 3.74 g/m*3 2.5 C 0 km/h
Sensor: Nr:Datum:Temp:Abs-Feuchte:Windchill:Wind:
Aussen-T/F 1626 06-12-2010 13:23:02 2.5 C 3.68 g/m*3 2.5 C 0 km/h
1627 06-12-2010 13:35:02 2.6 C 3.7 g/m*3 2.6 C 0 km/h
1628 06-12-2010 13:47:01 2.7 C 3.67 g/m*3 2.7 C 0 km/h
1629 06-12-2010 13:59:01 2.4 C 3.6 g/m*3 2.4 C 0 km/h
1630 06-12-2010 14:11:02 2.1 C 3.58 g/m*3 2.1 C 0 km/h
1631 06-12-2010 14:23:01 2.2 C 3.66 g/m*3 2.2 C 0 km/h
1632 06-12-2010 14:35:01 2 C 3.61 g/m*3 2 C 0 km/h
1633 06-12-2010 14:47:01 1.8 C 3.56 g/m*3 1.8 C 0 km/h
1634 06-12-2010 14:59:01 1.4 C 3.52 g/m*3 1.4 C 0 km/h
1635 06-12-2010 15:11:02 1.4 C 3.57 g/m*3 1.4 C 0 km/h
1636 06-12-2010 15:23:02 1.2 C 3.58 g/m*3 1.2 C 0 km/h
1637 06-12-2010 15:35:01 1 C 3.63 g/m*3 1 C 0 km/h
1638 06-12-2010 15:47:01 0.8 C 3.74 g/m*3 0.8 C 0 km/h
1639 06-12-2010 15:59:01 0.4 C 3.74 g/m*3 0.4 C 0 km/h
1640 06-12-2010 16:11:01 0 C 3.68 g/m*3 0 C 0 km/h
1641 06-12-2010 16:23:02 -0.2 C 3.68 g/m*3 -0.2 C 0 km/h
1642 06-12-2010 16:35:01 -0.3 C 3.7 g/m*3 -0.3 C 0 km/h
1643 06-12-2010 16:47:03 -0.4 C 3.68 g/m*3 -0.4 C 0 km/h
1644 06-12-2010 16:59:03 -0.4 C 3.72 g/m*3 -0.4 C 0 km/h
1645 06-12-2010 17:11:02 -0.5 C 3.7 g/m*3 -0.5 C 0 km/h
1646 06-12-2010 17:23:02 -0.6 C 3.72 g/m*3 -0.6 C 0 km/h
1647 06-12-2010 17:35:02 -0.7 C 3.74 g/m*3 -0.7 C 0 km/h
1648 06-12-2010 17:47:02 -0.8 C 3.71 g/m*3 -0.8 C 0 km/h
1649 06-12-2010 17:59:03 -0.8 C 3.76 g/m*3 -0.8 C 0 km/h
1650 06-12-2010 18:11:01 -1.1 C 3.68 g/m*3 -1.1 C 0 km/h
Sensor: Nr:Datum:Temp:Abs-Feuchte:Windchill:Wind:
Aussen-T/F 1651 06-12-2010 18:23:02 -1 C 3.75 g/m*3 -1 C 0 km/h
1652 06-12-2010 18:35:02 -0.8 C 3.8 g/m*3 -0.8 C 0 km/h
1653 06-12-2010 18:47:02 -0.7 C 3.83 g/m*3 -0.7 C 0 km/h
1654 06-12-2010 18:59:02 -0.9 C 3.73 g/m*3 -0.9 C 0 km/h
1655 06-12-2010 19:11:03 -0.8 C 3.76 g/m*3 -0.8 C 0 km/h
1656 06-12-2010 19:23:02 -0.9 C 3.73 g/m*3 -0.9 C 0 km/h
1657 06-12-2010 19:35:02 -0.8 C 3.76 g/m*3 -0.8 C 0 km/h
1658 06-12-2010 19:47:01 -0.9 C 3.73 g/m*3 -0.9 C 0 km/h
1659 06-12-2010 19:59:01 -0.8 C 3.76 g/m*3 -0.8 C 0 km/h
1660 06-12-2010 20:11:02 -1 C 3.71 g/m*3 -1 C 0 km/h
1661 06-12-2010 20:23:01 -1.2 C 3.66 g/m*3 -1.2 C 0 km/h
1662 06-12-2010 20:35:02 -1.1 C 3.68 g/m*3 -1.1 C 0 km/h
1663 06-12-2010 20:47:02 -1.2 C 3.66 g/m*3 -1.2 C 0 km/h
1664 06-12-2010 20:59:02 -1.2 C 3.66 g/m*3 -1.2 C 0 km/h
1665 06-12-2010 21:11:02 -1.3 C 3.63 g/m*3 -1.3 C 0 km/h
1666 06-12-2010 21:23:02 -1.3 C 3.63 g/m*3 -1.3 C 0 km/h
1667 06-12-2010 21:36:02 -1.2 C 3.66 g/m*3 -1.2 C 0 km/h
1668 06-12-2010 21:48:02 -1.3 C 3.63 g/m*3 -1.3 C 0 km/h
1669 06-12-2010 22:00:02 -1.5 C 3.58 g/m*3 -1.5 C 0 km/h
1670 06-12-2010 22:12:02 -1.4 C 3.65 g/m*3 -1.4 C 0 km/h
1671 06-12-2010 22:24:02 -1.3 C 3.67 g/m*3 -1.3 C 0 km/h
1672 06-12-2010 22:36:02 -1.1 C 3.73 g/m*3 -1.1 C 0 km/h
1673 06-12-2010 22:48:02 -0.9 C 3.78 g/m*3 -0.9 C 0 km/h
1674 06-12-2010 23:00:02 -0.8 C 3.76 g/m*3 -0.8 C 0 km/h
1675 06-12-2010 23:12:02 -0.6 C 3.81 g/m*3 -0.6 C 0 km/h
Sensor: Nr:Datum:Temp:Abs-Feuchte:Windchill:Wind:
Aussen-T/F 1676 06-12-2010 23:24:02 -0.5 C 3.79 g/m*3 -0.5 C 0 km/h
1677 06-12-2010 23:36:03 -0.6 C 3.72 g/m*3 -0.6 C 0 km/h
1678 06-12-2010 23:48:03 -0.9 C 3.64 g/m*3 -0.9 C 0 km/h
1679 07-12-2010 00:00:03 -0.8 C 3.67 g/m*3 -0.8 C 0 km/h
1680 07-12-2010 00:12:03 -0.8 C 3.67 g/m*3 -0.8 C 0 km/h
1681 07-12-2010 00:24:03 -0.9 C 3.64 g/m*3 -0.9 C 0 km/h
1682 07-12-2010 00:36:03 -1.4 C 3.47 g/m*3 -1.4 C 0 km/h
1683 07-12-2010 00:48:03 -1.4 C 3.56 g/m*3 -1.4 C 0 km/h
1684 07-12-2010 01:00:03 -1.4 C 3.6 g/m*3 -1.4 C 0 km/h
1685 07-12-2010 01:12:03 -1.4 C 3.6 g/m*3 -1.4 C 0 km/h
1686 07-12-2010 01:24:03 -1.4 C 3.6 g/m*3 -1.4 C 0 km/h
1687 07-12-2010 01:36:03 -0.9 C 3.78 g/m*3 -0.9 C 0 km/h
1688 07-12-2010 01:48:03 -0.7 C 3.83 g/m*3 -0.7 C 0 km/h
1689 07-12-2010 02:00:03 -0.6 C 3.81 g/m*3 -0.6 C 0 km/h
1690 07-12-2010 02:12:03 -0.5 C 3.79 g/m*3 -0.5 C 0 km/h
1691 07-12-2010 02:24:03 -0.5 C 3.79 g/m*3 -0.5 C 0 km/h
1692 07-12-2010 02:36:03 -0.6 C 3.72 g/m*3 -0.6 C 0 km/h
1693 07-12-2010 02:48:03 -0.6 C 3.72 g/m*3 -0.6 C 0 km/h
1694 07-12-2010 03:00:03 -0.5 C 3.74 g/m*3 -0.5 C 0 km/h
1695 07-12-2010 03:12:03 -0.5 C 3.74 g/m*3 -0.5 C 0 km/h
1696 07-12-2010 03:24:03 -0.6 C 3.72 g/m*3 -0.6 C 0 km/h
1697 07-12-2010 03:36:03 -0.6 C 3.72 g/m*3 -0.6 C 0 km/h
1698 07-12-2010 03:48:03 -0.6 C 3.72 g/m*3 -0.6 C 0 km/h
1699 07-12-2010 04:00:04 -0.6 C 3.76 g/m*3 -0.6 C 0 km/h
1700 07-12-2010 04:12:04 -0.7 C 3.69 g/m*3 -0.7 C 0 km/h
Sensor: Nr:Datum:Temp:Abs-Feuchte:Windchill:Wind:
Aussen-T/F 1701 07-12-2010 04:24:04 -0.7 C 3.69 g/m*3 -0.7 C 0 km/h
1702 07-12-2010 04:36:04 -0.9 C 3.64 g/m*3 -0.9 C 0 km/h
1703 07-12-2010 04:48:04 -0.8 C 3.71 g/m*3 -0.8 C 0 km/h
1704 07-12-2010 05:00:04 -1 C 3.66 g/m*3 -1 C 0 km/h
1705 07-12-2010 05:12:04 -1 C 3.66 g/m*3 -1 C 0 km/h
1706 07-12-2010 05:24:04 -0.9 C 3.69 g/m*3 -0.9 C 0 km/h
1707 07-12-2010 05:36:04 -0.9 C 3.69 g/m*3 -0.9 C 0 km/h
1708 07-12-2010 05:48:04 -0.9 C 3.69 g/m*3 -0.9 C 0 km/h
1709 07-12-2010 06:00:04 -0.8 C 3.71 g/m*3 -0.8 C 0 km/h
1710 07-12-2010 06:12:04 -0.7 C 3.69 g/m*3 -0.7 C 0 km/h
1711 07-12-2010 06:24:04 -0.7 C 3.69 g/m*3 -0.7 C 0 km/h
1712 07-12-2010 06:36:04 -0.8 C 3.67 g/m*3 -0.8 C 0 km/h
1713 07-12-2010 06:48:04 -0.9 C 3.64 g/m*3 -0.9 C 0 km/h
1714 07-12-2010 07:00:04 -1 C 3.57 g/m*3 -1 C 0 km/h
1715 07-12-2010 07:12:04 -1 C 3.57 g/m*3 -1 C 0 km/h
1716 07-12-2010 07:24:01 -1 C 3.57 g/m*3 -1 C 0 km/h
1717 07-12-2010 07:36:02 -1 C 3.57 g/m*3 -1 C 0 km/h
1718 07-12-2010 07:48:02 -1 C 3.57 g/m*3 -1 C 0 km/h
1719 07-12-2010 08:00:02 -1 C 3.57 g/m*3 -1 C 0 km/h
1720 07-12-2010 08:12:02 -0.9 C 3.6 g/m*3 -0.9 C 0 km/h
1721 07-12-2010 08:24:02 -0.9 C 3.6 g/m*3 -0.9 C 0 km/h
1722 07-12-2010 08:36:02 -0.8 C 3.62 g/m*3 -0.8 C 0 km/h
1723 07-12-2010 08:48:02 -0.6 C 3.63 g/m*3 -0.6 C 0 km/h
1724 07-12-2010 09:00:02 -0.6 C 3.63 g/m*3 -0.6 C 0 km/h
1725 07-12-2010 09:12:02 -0.5 C 3.65 g/m*3 -0.5 C 0 km/h
Sensor: Nr:Datum:Temp:Abs-Feuchte:Windchill:Wind:
Aussen-T/F 1726 07-12-2010 09:24:02 -0.5 C 3.56 g/m*3 -0.5 C 0 km/h
1727 07-12-2010 09:36:02 -0.3 C 3.61 g/m*3 -0.3 C 0 km/h
1728 07-12-2010 09:48:02 -0.1 C 3.61 g/m*3 -0.1 C 0 km/h
1729 07-12-2010 10:00:02 0.2 C 3.64 g/m*3 0.2 C 0 km/h
1730 07-12-2010 10:12:01 0.1 C 3.56 g/m*3 0.1 C 0 km/h
1731 07-12-2010 10:24:02 0.1 C 3.61 g/m*3 0.1 C 0 km/h
1732 07-12-2010 10:36:02 0.3 C 3.61 g/m*3 0.3 C 0 km/h
1733 07-12-2010 10:48:01 0.2 C 3.59 g/m*3 0.2 C 0 km/h
1734 07-12-2010 11:00:02 0.2 C 3.59 g/m*3 0.2 C 0 km/h
1735 07-12-2010 11:12:01 0.5 C 3.61 g/m*3 0.5 C 0 km/h
1736 07-12-2010 11:24:01 0.3 C 3.51 g/m*3 0.3 C 0 km/h
1737 07-12-2010 11:36:02 0.8 C 3.69 g/m*3 0.8 C 0 km/h
1738 07-12-2010 11:48:02 1 C 3.63 g/m*3 1 C 0 km/h
1739 07-12-2010 12:00:02 1 C 3.63 g/m*3 1 C 0 km/h
1740 07-12-2010 12:12:02 0.7 C 3.56 g/m*3 0.7 C 0 km/h
1741 07-12-2010 12:24:02 1 C 3.63 g/m*3 1 C 0 km/h
1742 07-12-2010 12:36:02 1.3 C 3.66 g/m*3 1.3 C 0 km/h
1743 07-12-2010 12:48:02 1.6 C 3.68 g/m*3 1.6 C 0 km/h
1744 07-12-2010 13:00:02 2.1 C 3.58 g/m*3 2.1 C 0 km/h
1745 07-12-2010 13:12:02 1.2 C 3.58 g/m*3 1.2 C 0 km/h
1746 07-12-2010 13:24:02 1.5 C 3.71 g/m*3 1.5 C 0 km/h
1747 07-12-2010 13:36:02 1.2 C 3.58 g/m*3 1.2 C 0 km/h
1748 07-12-2010 13:48:02 1.2 C 3.58 g/m*3 1.2 C 0 km/h
1749 07-12-2010 14:00:02 1.2 C 3.58 g/m*3 1.2 C 0 km/h
1750 07-12-2010 14:12:02 1.2 C 3.63 g/m*3 1.2 C 0 km/h
Sensor: Nr:Datum:Temp:Abs-Feuchte:Windchill:Wind:
Aussen-T/F 1751 07-12-2010 14:24:02 1.3 C 3.71 g/m*3 1.3 C 0 km/h
1752 07-12-2010 14:36:02 0.9 C 3.71 g/m*3 0.9 C 0 km/h
1753 07-12-2010 14:48:02 0.7 C 3.71 g/m*3 0.7 C 0 km/h
1754 07-12-2010 15:00:02 0.7 C 3.76 g/m*3 0.7 C 0 km/h
1755 07-12-2010 15:12:02 0.6 C 3.74 g/m*3 0.6 C 0 km/h
1756 07-12-2010 15:24:02 0.4 C 3.79 g/m*3 0.4 C 0 km/h
1757 07-12-2010 15:36:02 0.2 C 3.83 g/m*3 0.2 C 0 km/h
1758 07-12-2010 15:48:02 0.1 C 3.9 g/m*3 0.1 C 0 km/h
1759 07-12-2010 16:00:02 0 C 3.97 g/m*3 0 C 0 km/h
1760 07-12-2010 16:12:01 -0.2 C 4.01 g/m*3 -0.2 C 0 km/h
1761 07-12-2010 16:24:02 -0.3 C 4.03 g/m*3 -0.3 C 0 km/h
1762 07-12-2010 16:36:02 -0.3 C 4.13 g/m*3 -0.3 C 0 km/h
1763 07-12-2010 16:48:02 -0.3 C 4.13 g/m*3 -0.3 C 0 km/h
1764 07-12-2010 17:00:02 -0.3 C 4.18 g/m*3 -0.3 C 0 km/h
1765 07-12-2010 17:12:03 -0.3 C 4.18 g/m*3 -0.3 C 0 km/h
1766 07-12-2010 17:24:02 -0.3 C 4.22 g/m*3 -0.3 C 0 km/h
1767 07-12-2010 17:36:02 -0.3 C 4.22 g/m*3 -0.3 C 0 km/h
1768 07-12-2010 17:48:01 -0.3 C 4.22 g/m*3 -0.3 C 0 km/h
1769 07-12-2010 18:00:01 -0.3 C 4.22 g/m*3 -0.3 C 0 km/h
1770 07-12-2010 18:12:02 -0.3 C 4.22 g/m*3 -0.3 C 0 km/h
1771 07-12-2010 18:24:01 -0.3 C 4.27 g/m*3 -0.3 C 0 km/h
1772 07-12-2010 18:36:02 -0.2 C 4.3 g/m*3 -0.2 C 0 km/h
1773 07-12-2010 18:48:01 -0.2 C 4.3 g/m*3 -0.2 C 0 km/h
1774 07-12-2010 19:00:01 -0.2 C 4.3 g/m*3 -0.2 C 0 km/h
1775 07-12-2010 19:12:02 -0.2 C 4.3 g/m*3 -0.2 C 0 km/h
Sensor: Nr:Datum:Temp:Abs-Feuchte:Windchill:Wind:
Aussen-T/F 1776 07-12-2010 19:24:02 -0.2 C 4.3 g/m*3 -0.2 C 0 km/h
1777 07-12-2010 19:36:01 -0.2 C 4.3 g/m*3 -0.2 C 0 km/h
1778 07-12-2010 19:48:02 -0.2 C 4.35 g/m*3 -0.2 C 0 km/h
1779 07-12-2010 20:00:02 -0.1 C 4.38 g/m*3 -0.1 C 0 km/h
1780 07-12-2010 20:12:01 -0.2 C 4.35 g/m*3 -0.2 C 0 km/h
1781 07-12-2010 20:24:02 -0.2 C 4.35 g/m*3 -0.2 C 0 km/h
1782 07-12-2010 20:36:01 -0.2 C 4.35 g/m*3 -0.2 C 0 km/h
1783 07-12-2010 20:48:02 -0.1 C 4.38 g/m*3 -0.1 C 0 km/h
1784 07-12-2010 21:00:02 -0.2 C 4.35 g/m*3 -0.2 C 0 km/h
1785 07-12-2010 21:12:01 -0.2 C 4.35 g/m*3 -0.2 C 0 km/h
1786 07-12-2010 21:24:01 -0.2 C 4.35 g/m*3 -0.2 C 0 km/h
1787 07-12-2010 21:36:01 -0.2 C 4.35 g/m*3 -0.2 C 0 km/h
1788 07-12-2010 21:48:02 -0.2 C 4.4 g/m*3 -0.2 C 0 km/h
1789 07-12-2010 22:00:03 -0.1 C 4.43 g/m*3 -0.1 C 0 km/h
1790 07-12-2010 22:12:02 -0.2 C 4.4 g/m*3 -0.2 C 0 km/h
1791 07-12-2010 22:25:02 -0.2 C 4.4 g/m*3 -0.2 C 0 km/h
1792 07-12-2010 22:37:02 -0.2 C 4.4 g/m*3 -0.2 C 0 km/h
1793 07-12-2010 22:49:02 -0.2 C 4.4 g/m*3 -0.2 C 0 km/h
1794 07-12-2010 23:01:02 -0.2 C 4.4 g/m*3 -0.2 C 0 km/h
1795 07-12-2010 23:13:02 -0.2 C 4.4 g/m*3 -0.2 C 0 km/h
1796 07-12-2010 23:25:02 -0.2 C 4.4 g/m*3 -0.2 C 0 km/h
1797 07-12-2010 23:37:02 -0.2 C 4.4 g/m*3 -0.2 C 0 km/h
1798 07-12-2010 23:49:02 -0.2 C 4.4 g/m*3 -0.2 C 0 km/h
1799 08-12-2010 00:01:02 -0.2 C 4.4 g/m*3 -0.2 C 0 km/h
1800 08-12-2010 00:13:02 -0.2 C 4.4 g/m*3 -0.2 C 0 km/h
Sensor: Nr:Datum:Temp:Abs-Feuchte:Windchill:Wind:
Aussen-T/F 1801 08-12-2010 00:25:02 -0.2 C 4.4 g/m*3 -0.2 C 0 km/h
1802 08-12-2010 00:37:02 -0.2 C 4.4 g/m*3 -0.2 C 0 km/h
1803 08-12-2010 00:49:02 -0.2 C 4.4 g/m*3 -0.2 C 0 km/h
1804 08-12-2010 01:01:02 -0.2 C 4.4 g/m*3 -0.2 C 0 km/h
1805 08-12-2010 01:13:02 -0.2 C 4.4 g/m*3 -0.2 C 0 km/h
1806 08-12-2010 01:25:02 -0.2 C 4.4 g/m*3 -0.2 C 0 km/h
1807 08-12-2010 01:37:03 -0.2 C 4.4 g/m*3 -0.2 C 0 km/h
1808 08-12-2010 01:49:03 -0.2 C 4.4 g/m*3 -0.2 C 0 km/h
1809 08-12-2010 02:01:03 -0.2 C 4.4 g/m*3 -0.2 C 0 km/h
1810 08-12-2010 02:13:03 -0.1 C 4.43 g/m*3 -0.1 C 0 km/h
1811 08-12-2010 02:25:03 -0.1 C 4.43 g/m*3 -0.1 C 0 km/h
1812 08-12-2010 02:37:03 -0.2 C 4.4 g/m*3 -0.2 C 0 km/h
1813 08-12-2010 02:49:03 -0.2 C 4.4 g/m*3 -0.2 C 0 km/h
1814 08-12-2010 03:01:03 -0.2 C 4.4 g/m*3 -0.2 C 0 km/h
1815 08-12-2010 03:13:03 -0.2 C 4.4 g/m*3 -0.2 C 0 km/h
1816 08-12-2010 03:25:03 -0.2 C 4.4 g/m*3 -0.2 C 0 km/h
1817 08-12-2010 03:37:03 -0.2 C 4.4 g/m*3 -0.2 C 0 km/h
1818 08-12-2010 03:49:03 -0.1 C 4.43 g/m*3 -0.1 C 0 km/h
1819 08-12-2010 04:01:03 -0.1 C 4.43 g/m*3 -0.1 C 0 km/h
1820 08-12-2010 04:13:03 -0.1 C 4.43 g/m*3 -0.1 C 0 km/h
1821 08-12-2010 04:25:03 -0.1 C 4.43 g/m*3 -0.1 C 0 km/h
1822 08-12-2010 04:37:03 -0.1 C 4.43 g/m*3 -0.1 C 0 km/h
1823 08-12-2010 04:49:03 0 C 4.46 g/m*3 0 C 0 km/h
1824 08-12-2010 05:01:03 -0.1 C 4.43 g/m*3 -0.1 C 0 km/h
1825 08-12-2010 05:13:03 0 C 4.46 g/m*3 0 C 0 km/h
Sensor: Nr:Datum:Temp:Abs-Feuchte:Windchill:Wind:
Aussen-T/F 1826 08-12-2010 05:25:03 -0.1 C 4.47 g/m*3 -0.1 C 0 km/h
1827 08-12-2010 05:37:03 -0.1 C 4.47 g/m*3 -0.1 C 0 km/h
1828 08-12-2010 05:49:03 -0.1 C 4.47 g/m*3 -0.1 C 0 km/h
1829 08-12-2010 06:01:04 -0.1 C 4.47 g/m*3 -0.1 C 0 km/h
1830 08-12-2010 06:13:04 0 C 4.51 g/m*3 0 C 0 km/h
1831 08-12-2010 06:25:04 -0.1 C 4.47 g/m*3 -0.1 C 0 km/h
1832 08-12-2010 06:37:04 0 C 4.51 g/m*3 0 C 0 km/h
1833 08-12-2010 06:49:04 -0.1 C 4.47 g/m*3 -0.1 C 0 km/h
1834 08-12-2010 07:01:04 0 C 4.51 g/m*3 0 C 0 km/h
1835 08-12-2010 07:13:04 -0.1 C 4.47 g/m*3 -0.1 C 0 km/h
1836 08-12-2010 07:25:04 0 C 4.51 g/m*3 0 C 0 km/h
1837 08-12-2010 07:37:04 0 C 4.51 g/m*3 0 C 0 km/h
1838 08-12-2010 07:49:04 0 C 4.51 g/m*3 0 C 0 km/h
1839 08-12-2010 08:01:04 0 C 4.51 g/m*3 0 C 0 km/h
1840 08-12-2010 08:13:04 0 C 4.51 g/m*3 0 C 0 km/h
1841 08-12-2010 08:25:04 0 C 4.51 g/m*3 0 C 0 km/h
1842 08-12-2010 08:37:04 0 C 4.51 g/m*3 0 C 0 km/h
1843 08-12-2010 08:49:04 0 C 4.51 g/m*3 0 C 0 km/h
1844 08-12-2010 09:01:01 0.1 C 4.54 g/m*3 0.1 C 0 km/h
1845 08-12-2010 09:13:01 0.1 C 4.54 g/m*3 0.1 C 0 km/h
1846 08-12-2010 09:25:02 0.1 C 4.54 g/m*3 0.1 C 0 km/h
1847 08-12-2010 09:37:01 0.1 C 4.54 g/m*3 0.1 C 0 km/h
1848 08-12-2010 09:49:02 0 C 4.51 g/m*3 0 C 0 km/h
1849 08-12-2010 10:01:02 0.1 C 4.54 g/m*3 0.1 C 0 km/h
1850 08-12-2010 10:13:02 0.1 C 4.54 g/m*3 0.1 C 0 km/h
Sensor: Nr:Datum:Temp:Abs-Feuchte:Windchill:Wind:
Aussen-T/F 1851 08-12-2010 10:25:02 0.2 C 4.57 g/m*3 0.2 C 0 km/h
1852 08-12-2010 10:37:02 0.2 C 4.57 g/m*3 0.2 C 0 km/h
1853 08-12-2010 10:49:02 0.3 C 4.6 g/m*3 0.3 C 0 km/h
1854 08-12-2010 11:01:02 0.3 C 4.65 g/m*3 0.3 C 0 km/h
1855 08-12-2010 11:13:02 0.3 C 4.65 g/m*3 0.3 C 0 km/h
1856 08-12-2010 11:25:01 0.4 C 4.63 g/m*3 0.4 C 0 km/h
1857 08-12-2010 11:37:02 0.3 C 4.6 g/m*3 0.3 C 0 km/h
1858 08-12-2010 11:49:02 0.4 C 4.63 g/m*3 0.4 C 0 km/h
1859 08-12-2010 12:01:02 0.5 C 4.66 g/m*3 0.5 C 0 km/h
1860 08-12-2010 12:13:02 0.6 C 4.7 g/m*3 0.6 C 0 km/h
1861 08-12-2010 12:25:02 0.5 C 4.66 g/m*3 0.5 C 0 km/h
1862 08-12-2010 12:37:02 0.6 C 4.7 g/m*3 0.6 C 0 km/h
1863 08-12-2010 12:49:02 0.6 C 4.65 g/m*3 0.6 C 0 km/h
1864 08-12-2010 13:01:02 0.5 C 4.61 g/m*3 0.5 C 0 km/h
1865 08-12-2010 13:13:02 0.6 C 4.6 g/m*3 0.6 C 0 km/h
1866 08-12-2010 13:25:02 0.7 C 4.63 g/m*3 0.7 C 0 km/h
1867 08-12-2010 13:37:02 0.7 C 4.58 g/m*3 0.7 C 0 km/h
1868 08-12-2010 13:49:01 0.6 C 4.49 g/m*3 0.6 C 0 km/h
1869 08-12-2010 14:01:01 0.6 C 4.49 g/m*3 0.6 C 0 km/h
1870 08-12-2010 14:13:01 0.4 C 4.43 g/m*3 0.4 C 0 km/h
1871 08-12-2010 14:25:01 0.4 C 4.43 g/m*3 0.4 C 0 km/h
1872 08-12-2010 14:37:01 0.4 C 4.43 g/m*3 0.4 C 0 km/h
1873 08-12-2010 14:49:01 0.3 C 4.4 g/m*3 0.3 C 0 km/h
1874 08-12-2010 15:01:01 0.2 C 4.37 g/m*3 0.2 C 0 km/h
1875 08-12-2010 15:13:01 0 C 4.31 g/m*3 0 C 0 km/h
Sensor: Nr:Datum:Temp:Abs-Feuchte:Windchill:Wind:
Aussen-T/F 1876 08-12-2010 15:25:02 -0.1 C 4.28 g/m*3 -0.1 C 0 km/h
1877 08-12-2010 15:37:01 -0.2 C 4.25 g/m*3 -0.2 C 0 km/h
1878 08-12-2010 15:49:03 -0.3 C 4.22 g/m*3 -0.3 C 0 km/h
1879 08-12-2010 16:01:02 -0.3 C 4.22 g/m*3 -0.3 C 0 km/h
1880 08-12-2010 16:13:02 -0.3 C 4.27 g/m*3 -0.3 C 0 km/h
1881 08-12-2010 16:25:03 -0.3 C 4.27 g/m*3 -0.3 C 0 km/h
1882 08-12-2010 16:37:02 -0.3 C 4.27 g/m*3 -0.3 C 0 km/h
1883 08-12-2010 16:49:02 -0.3 C 4.27 g/m*3 -0.3 C 0 km/h
1884 08-12-2010 17:01:02 -0.3 C 4.27 g/m*3 -0.3 C 0 km/h
1885 08-12-2010 17:13:02 -0.3 C 4.27 g/m*3 -0.3 C 0 km/h
1886 08-12-2010 17:25:02 -0.3 C 4.27 g/m*3 -0.3 C 0 km/h
1887 08-12-2010 17:37:02 -0.3 C 4.27 g/m*3 -0.3 C 0 km/h
1888 08-12-2010 17:49:02 -0.6 C 4.14 g/m*3 -0.6 C 0 km/h
1889 08-12-2010 18:01:01 -0.7 C 4.11 g/m*3 -0.7 C 0 km/h
1890 08-12-2010 18:13:01 -0.7 C 4.11 g/m*3 -0.7 C 0 km/h
1891 08-12-2010 18:25:01 -0.7 C 4.11 g/m*3 -0.7 C 0 km/h
1892 08-12-2010 18:37:02 -0.8 C 4.08 g/m*3 -0.8 C 0 km/h
1893 08-12-2010 18:49:02 -0.8 C 4.08 g/m*3 -0.8 C 0 km/h
1894 08-12-2010 19:01:02 -0.8 C 4.08 g/m*3 -0.8 C 0 km/h
1895 08-12-2010 19:13:02 -0.8 C 4.08 g/m*3 -0.8 C 0 km/h
1896 08-12-2010 19:25:02 -1 C 4.02 g/m*3 -1 C 0 km/h
1897 08-12-2010 19:37:02 -1 C 4.02 g/m*3 -1 C 0 km/h
1898 08-12-2010 19:49:01 -1 C 4.07 g/m*3 -1 C 0 km/h
1899 08-12-2010 20:01:01 -1 C 4.07 g/m*3 -1 C 0 km/h
1900 08-12-2010 20:13:01 -1 C 4.02 g/m*3 -1 C 0 km/h
Sensor: Nr:Datum:Temp:Abs-Feuchte:Windchill:Wind:
Aussen-T/F 1901 08-12-2010 20:25:01 -1.1 C 4 g/m*3 -1.1 C 0 km/h
1902 08-12-2010 20:37:02 -1.1 C 4 g/m*3 -1.1 C 0 km/h
1903 08-12-2010 20:49:02 -1.1 C 4 g/m*3 -1.1 C 0 km/h
1904 08-12-2010 21:01:02 -1.2 C 3.97 g/m*3 -1.2 C 0 km/h
1905 08-12-2010 21:13:02 -1.2 C 3.97 g/m*3 -1.2 C 0 km/h
1906 08-12-2010 21:25:02 -1.2 C 3.97 g/m*3 -1.2 C 0 km/h
1907 08-12-2010 21:37:02 -1.3 C 3.9 g/m*3 -1.3 C 0 km/h
1908 08-12-2010 21:49:02 -1.3 C 3.9 g/m*3 -1.3 C 0 km/h
1909 08-12-2010 22:01:02 -1.4 C 3.87 g/m*3 -1.4 C 0 km/h
1910 08-12-2010 22:13:02 -1.4 C 3.82 g/m*3 -1.4 C 0 km/h
1911 08-12-2010 22:25:02 -1.4 C 3.82 g/m*3 -1.4 C 0 km/h
1912 08-12-2010 22:38:04 -1.5 C 3.8 g/m*3 -1.5 C 0 km/h
1913 08-12-2010 22:50:04 -1.5 C 3.8 g/m*3 -1.5 C 0 km/h
1914 08-12-2010 23:02:04 -1.3 C 3.81 g/m*3 -1.3 C 0 km/h
1915 08-12-2010 23:14:04 -1.3 C 3.76 g/m*3 -1.3 C 0 km/h
1916 08-12-2010 23:26:04 -1.3 C 3.72 g/m*3 -1.3 C 0 km/h
1917 08-12-2010 23:38:04 -1.3 C 3.72 g/m*3 -1.3 C 0 km/h
1918 08-12-2010 23:50:04 -1.3 C 3.67 g/m*3 -1.3 C 0 km/h
1919 09-12-2010 00:02:04 -1.3 C 3.67 g/m*3 -1.3 C 0 km/h
1920 09-12-2010 00:14:04 -1.3 C 3.67 g/m*3 -1.3 C 0 km/h
1921 09-12-2010 00:26:04 -1.3 C 3.67 g/m*3 -1.3 C 0 km/h
1922 09-12-2010 00:38:04 -1.3 C 3.63 g/m*3 -1.3 C 0 km/h
1923 09-12-2010 00:50:05 -1.4 C 3.56 g/m*3 -1.4 C 0 km/h
1924 09-12-2010 01:02:05 -1.4 C 3.56 g/m*3 -1.4 C 0 km/h
1925 09-12-2010 01:14:05 -1.5 C 3.58 g/m*3 -1.5 C 0 km/h
Sensor: Nr:Datum:Temp:Abs-Feuchte:Windchill:Wind:
Aussen-T/F 1926 09-12-2010 01:26:05 -1.5 C 3.58 g/m*3 -1.5 C 0 km/h
1927 09-12-2010 01:38:05 -1.6 C 3.55 g/m*3 -1.6 C 0 km/h
1928 09-12-2010 01:50:05 -1.6 C 3.51 g/m*3 -1.6 C 0 km/h
1929 09-12-2010 02:02:05 -1.7 C 3.53 g/m*3 -1.7 C 0 km/h
1930 09-12-2010 02:14:05 -1.7 C 3.49 g/m*3 -1.7 C 0 km/h
1931 09-12-2010 02:26:05 -1.8 C 3.51 g/m*3 -1.8 C 0 km/h
1932 09-12-2010 02:38:05 -1.7 C 3.62 g/m*3 -1.7 C 0 km/h
1933 09-12-2010 02:50:05 -1.8 C 3.63 g/m*3 -1.8 C 0 km/h
1934 09-12-2010 03:02:05 -1.7 C 3.7 g/m*3 -1.7 C 0 km/h
1935 09-12-2010 03:14:05 -1.7 C 3.7 g/m*3 -1.7 C 0 km/h
1936 09-12-2010 03:26:05 -1.7 C 3.7 g/m*3 -1.7 C 0 km/h
1937 09-12-2010 03:38:05 -1.7 C 3.7 g/m*3 -1.7 C 0 km/h
1938 09-12-2010 03:50:05 -1.7 C 3.66 g/m*3 -1.7 C 0 km/h
1939 09-12-2010 04:02:05 -1.6 C 3.68 g/m*3 -1.6 C 0 km/h
1940 09-12-2010 04:14:05 -1.4 C 3.78 g/m*3 -1.4 C 0 km/h
1941 09-12-2010 04:26:05 -1.6 C 3.73 g/m*3 -1.6 C 0 km/h
1942 09-12-2010 04:38:05 -1.7 C 3.7 g/m*3 -1.7 C 0 km/h
1943 09-12-2010 04:50:05 -1.8 C 3.72 g/m*3 -1.8 C 0 km/h
1944 09-12-2010 05:02:05 -1.9 C 3.69 g/m*3 -1.9 C 0 km/h
1945 09-12-2010 05:14:05 -1.2 C 3.88 g/m*3 -1.2 C 0 km/h
1946 09-12-2010 05:26:06 -0.8 C 3.9 g/m*3 -0.8 C 0 km/h
1947 09-12-2010 05:38:06 -0.7 C 3.88 g/m*3 -0.7 C 0 km/h
1948 09-12-2010 05:50:06 -0.6 C 3.86 g/m*3 -0.6 C 0 km/h
1949 09-12-2010 06:02:06 -0.7 C 3.83 g/m*3 -0.7 C 0 km/h
1950 09-12-2010 06:14:06 -0.5 C 3.88 g/m*3 -0.5 C 0 km/h
Sensor: Nr:Datum:Temp:Abs-Feuchte:Windchill:Wind:
Aussen-T/F 1951 09-12-2010 06:26:06 -0.3 C 3.94 g/m*3 -0.3 C 0 km/h
1952 09-12-2010 06:38:06 -0.3 C 3.94 g/m*3 -0.3 C 0 km/h
1953 09-12-2010 06:50:06 -0.3 C 3.89 g/m*3 -0.3 C 0 km/h
1954 09-12-2010 07:02:06 -0.3 C 3.94 g/m*3 -0.3 C 0 km/h
1955 09-12-2010 07:14:06 -0.3 C 3.94 g/m*3 -0.3 C 0 km/h
1956 09-12-2010 07:26:06 -0.3 C 3.94 g/m*3 -0.3 C 0 km/h
1957 09-12-2010 07:38:03 -0.3 C 3.94 g/m*3 -0.3 C 0 km/h
1958 09-12-2010 07:50:02 -0.2 C 4.01 g/m*3 -0.2 C 0 km/h
1959 09-12-2010 08:02:02 -0.3 C 3.99 g/m*3 -0.3 C 0 km/h
1960 09-12-2010 08:14:02 -0.2 C 3.97 g/m*3 -0.2 C 0 km/h
1961 09-12-2010 08:26:01 -0.3 C 3.94 g/m*3 -0.3 C 0 km/h
1962 09-12-2010 08:38:02 -0.5 C 3.84 g/m*3 -0.5 C 0 km/h
1963 09-12-2010 08:50:02 -0.6 C 3.81 g/m*3 -0.6 C 0 km/h
1964 09-12-2010 09:02:02 -0.3 C 3.89 g/m*3 -0.3 C 0 km/h
1965 09-12-2010 09:14:02 -0.2 C 3.92 g/m*3 -0.2 C 0 km/h
1966 09-12-2010 09:26:02 0 C 3.92 g/m*3 0 C 0 km/h
1967 09-12-2010 09:38:02 0.2 C 3.98 g/m*3 0.2 C 0 km/h
1968 09-12-2010 09:50:02 -0.1 C 3.95 g/m*3 -0.1 C 0 km/h
1969 09-12-2010 10:02:02 0.1 C 4.05 g/m*3 0.1 C 0 km/h
1970 09-12-2010 10:14:02 0.2 C 4.03 g/m*3 0.2 C 0 km/h
1971 09-12-2010 10:26:02 0.3 C 4.01 g/m*3 0.3 C 0 km/h
1972 09-12-2010 10:38:02 0.6 C 3.99 g/m*3 0.6 C 0 km/h
1973 09-12-2010 10:50:02 0.4 C 3.93 g/m*3 0.4 C 0 km/h
1974 09-12-2010 11:02:02 0.7 C 4.02 g/m*3 0.7 C 0 km/h
1975 09-12-2010 11:14:02 0.7 C 4.02 g/m*3 0.7 C 0 km/h
Sensor: Nr:Datum:Temp:Abs-Feuchte:Windchill:Wind:
Aussen-T/F 1976 09-12-2010 11:26:02 0.7 C 4.07 g/m*3 0.7 C 0 km/h
1977 09-12-2010 11:38:02 1 C 4.1 g/m*3 1 C 0 km/h
1978 09-12-2010 11:50:02 0.9 C 4.12 g/m*3 0.9 C 0 km/h
1979 09-12-2010 12:02:02 1.4 C 4.21 g/m*3 1.4 C 0 km/h
1980 09-12-2010 12:14:02 2.2 C 4.22 g/m*3 2.2 C 0 km/h
1981 09-12-2010 12:26:02 2.4 C 4.11 g/m*3 2.4 C 0 km/h
1982 09-12-2010 12:38:01 2.7 C 3.96 g/m*3 2.7 C 0 km/h
1983 09-12-2010 12:50:02 2.2 C 3.83 g/m*3 2.2 C 0 km/h
1984 09-12-2010 13:02:01 1.7 C 4.03 g/m*3 1.7 C 0 km/h
1985 09-12-2010 13:14:01 1.5 C 4.19 g/m*3 1.5 C 0 km/h
1986 09-12-2010 13:26:01 1.6 C 4.22 g/m*3 1.6 C 0 km/h
1987 09-12-2010 13:38:02 2 C 4.17 g/m*3 2 C 0 km/h
1988 09-12-2010 13:50:02 1.9 C 3.92 g/m*3 1.9 C 0 km/h
1989 09-12-2010 14:02:02 2.3 C 3.91 g/m*3 2.3 C 0 km/h
1990 09-12-2010 14:14:02 2.2 C 3.89 g/m*3 2.2 C 0 km/h
1991 09-12-2010 14:26:02 2.1 C 3.86 g/m*3 2.1 C 0 km/h
1992 09-12-2010 14:38:02 2 C 4 g/m*3 2 C 0 km/h
1993 09-12-2010 14:50:02 2 C 3.95 g/m*3 2 C 0 km/h
1994 09-12-2010 15:02:02 1.6 C 3.95 g/m*3 1.6 C 0 km/h
1995 09-12-2010 15:14:02 1.4 C 3.89 g/m*3 1.4 C 0 km/h
1996 09-12-2010 15:26:02 2 C 3.72 g/m*3 2 C 0 km/h
1997 09-12-2010 15:38:02 2 C 3.61 g/m*3 2 C 0 km/h
1998 09-12-2010 15:50:02 2.2 C 3.55 g/m*3 2.2 C 0 km/h
1999 09-12-2010 16:02:02 1.9 C 3.53 g/m*3 1.9 C 0 km/h
2000 09-12-2010 16:14:02 1.7 C 3.59 g/m*3 1.7 C 0 km/h
Sensor: Nr:Datum:Temp:Abs-Feuchte:Windchill:Wind:
Aussen-T/F 2001 09-12-2010 16:26:03 0.9 C 3.61 g/m*3 0.9 C 0 km/h
2002 09-12-2010 16:38:02 1.6 C 3.79 g/m*3 1.6 C 0 km/h
2003 09-12-2010 16:50:02 1.5 C 3.76 g/m*3 1.5 C 0 km/h
2004 09-12-2010 17:02:02 1.6 C 3.79 g/m*3 1.6 C 0 km/h
2005 09-12-2010 17:14:02 1.5 C 3.81 g/m*3 1.5 C 0 km/h
2006 09-12-2010 17:26:02 1.5 C 3.92 g/m*3 1.5 C 0 km/h
2007 09-12-2010 17:38:02 1.5 C 3.97 g/m*3 1.5 C 0 km/h
2008 09-12-2010 17:50:02 1.4 C 3.95 g/m*3 1.4 C 0 km/h
2009 09-12-2010 18:02:01 1.7 C 4.03 g/m*3 1.7 C 0 km/h
2010 09-12-2010 18:14:01 1.5 C 3.97 g/m*3 1.5 C 0 km/h
2011 09-12-2010 18:26:02 1.7 C 4.08 g/m*3 1.7 C 0 km/h
2012 09-12-2010 18:38:02 1.5 C 4.03 g/m*3 1.5 C 0 km/h
2013 09-12-2010 18:50:02 2 C 4.06 g/m*3 2 C 0 km/h
2014 09-12-2010 19:02:03 2 C 3.89 g/m*3 2 C 0 km/h
2015 09-12-2010 19:14:03 2.3 C 3.91 g/m*3 2.3 C 0 km/h
2016 09-12-2010 19:26:02 2.2 C 3.89 g/m*3 2.2 C 0 km/h
2017 09-12-2010 19:38:02 2.2 C 3.89 g/m*3 2.2 C 0 km/h
2018 09-12-2010 19:50:01 2.1 C 3.92 g/m*3 2.1 C 0 km/h
2019 09-12-2010 20:02:02 2 C 3.95 g/m*3 2 C 0 km/h
2020 09-12-2010 20:14:02 2.5 C 4.02 g/m*3 2.5 C 0 km/h
2021 09-12-2010 20:26:01 2.6 C 3.99 g/m*3 2.6 C 0 km/h
2022 09-12-2010 20:39:03 2.7 C 4.02 g/m*3 2.7 C 0 km/h
2023 09-12-2010 20:51:03 2.4 C 4 g/m*3 2.4 C 0 km/h
2024 09-12-2010 21:03:03 2.6 C 4.11 g/m*3 2.6 C 0 km/h
2025 09-12-2010 21:15:03 2.6 C 4.05 g/m*3 2.6 C 0 km/h
Sensor: Nr:Datum:Temp:Abs-Feuchte:Windchill:Wind:
Aussen-T/F 2026 09-12-2010 21:27:03 2.6 C 4.05 g/m*3 2.6 C 0 km/h
2027 09-12-2010 21:39:03 2.6 C 3.99 g/m*3 2.6 C 0 km/h
2028 09-12-2010 21:51:03 2.5 C 4.08 g/m*3 2.5 C 0 km/h
2029 09-12-2010 22:03:03 2.8 C 4.11 g/m*3 2.8 C 0 km/h
2030 09-12-2010 22:15:03 2.7 C 4.08 g/m*3 2.7 C 0 km/h
2031 09-12-2010 22:27:03 2.4 C 4.11 g/m*3 2.4 C 0 km/h
2032 09-12-2010 22:39:04 2.4 C 4.17 g/m*3 2.4 C 0 km/h
2033 09-12-2010 22:51:04 1.9 C 4.3 g/m*3 1.9 C 0 km/h
2034 09-12-2010 23:03:04 1.6 C 4.33 g/m*3 1.6 C 0 km/h
2035 09-12-2010 23:15:04 1.4 C 4.37 g/m*3 1.4 C 0 km/h
2036 09-12-2010 23:27:04 1.4 C 4.43 g/m*3 1.4 C 0 km/h
2037 09-12-2010 23:39:04 1.6 C 4.54 g/m*3 1.6 C 0 km/h
2038 09-12-2010 23:51:04 1.5 C 4.46 g/m*3 1.5 C 0 km/h
2039 10-12-2010 00:03:04 1.6 C 4.49 g/m*3 1.6 C 0 km/h
2040 10-12-2010 00:15:04 1.6 C 4.43 g/m*3 1.6 C 0 km/h
2041 10-12-2010 00:27:04 2 C 4.45 g/m*3 2 C 0 km/h
2042 10-12-2010 00:39:04 2.1 C 4.36 g/m*3 2.1 C 0 km/h
2043 10-12-2010 00:51:04 2.2 C 4.34 g/m*3 2.2 C 0 km/h
2044 10-12-2010 01:03:04 2.1 C 4.36 g/m*3 2.1 C 0 km/h
2045 10-12-2010 01:15:04 1.9 C 4.36 g/m*3 1.9 C 0 km/h
2046 10-12-2010 01:27:04 2 C 4.39 g/m*3 2 C 0 km/h
2047 10-12-2010 01:39:04 2.1 C 4.36 g/m*3 2.1 C 0 km/h
2048 10-12-2010 01:51:04 2.1 C 4.31 g/m*3 2.1 C 0 km/h
2049 10-12-2010 02:03:04 2.3 C 4.2 g/m*3 2.3 C 0 km/h
2050 10-12-2010 02:15:04 1.8 C 4.17 g/m*3 1.8 C 0 km/h
Sensor: Nr:Datum:Temp:Abs-Feuchte:Windchill:Wind:
Aussen-T/F 2051 10-12-2010 02:27:04 1.4 C 4.16 g/m*3 1.4 C 0 km/h
2052 10-12-2010 02:39:04 1.6 C 4.38 g/m*3 1.6 C 0 km/h
2053 10-12-2010 02:51:04 1.4 C 4.37 g/m*3 1.4 C 0 km/h
2054 10-12-2010 03:03:05 1 C 4.31 g/m*3 1 C 0 km/h
2055 10-12-2010 03:15:05 1.3 C 4.5 g/m*3 1.3 C 0 km/h
2056 10-12-2010 03:27:05 1.2 C 4.53 g/m*3 1.2 C 0 km/h
2057 10-12-2010 03:39:05 1.3 C 4.61 g/m*3 1.3 C 0 km/h
2058 10-12-2010 03:51:05 1.4 C 4.64 g/m*3 1.4 C 0 km/h
2059 10-12-2010 04:03:05 1.4 C 4.69 g/m*3 1.4 C 0 km/h
2060 10-12-2010 04:15:05 1.2 C 4.63 g/m*3 1.2 C 0 km/h
2061 10-12-2010 04:27:05 1.4 C 4.69 g/m*3 1.4 C 0 km/h
2062 10-12-2010 04:39:05 2 C 4.89 g/m*3 2 C 0 km/h
2063 10-12-2010 04:51:05 2.5 C 5.06 g/m*3 2.5 C 0 km/h
2064 10-12-2010 05:03:05 2.8 C 5.04 g/m*3 2.8 C 0 km/h
2065 10-12-2010 05:15:05 2.6 C 4.86 g/m*3 2.6 C 0 km/h
2066 10-12-2010 05:27:05 2.4 C 4.8 g/m*3 2.4 C 0 km/h
2067 10-12-2010 05:39:05 2.4 C 4.85 g/m*3 2.4 C 0 km/h
2068 10-12-2010 05:51:05 2.4 C 4.8 g/m*3 2.4 C 0 km/h
2069 10-12-2010 06:03:05 2.2 C 4.79 g/m*3 2.2 C 0 km/h
2070 10-12-2010 06:15:05 2.1 C 4.76 g/m*3 2.1 C 0 km/h
2071 10-12-2010 06:27:05 2 C 4.72 g/m*3 2 C 0 km/h
2072 10-12-2010 06:39:05 1.5 C 4.67 g/m*3 1.5 C 0 km/h
2073 10-12-2010 06:51:05 1.4 C 4.69 g/m*3 1.4 C 0 km/h
2074 10-12-2010 07:03:05 1.2 C 4.63 g/m*3 1.2 C 0 km/h
2075 10-12-2010 07:15:02 1.1 C 4.65 g/m*3 1.1 C 0 km/h
Sensor: Nr:Datum:Temp:Abs-Feuchte:Windchill:Wind:
Aussen-T/F 2076 10-12-2010 07:27:03 1.1 C 4.65 g/m*3 1.1 C 0 km/h
2077 10-12-2010 07:39:02 0.5 C 4.46 g/m*3 0.5 C 0 km/h
2078 10-12-2010 07:51:03 -0.1 C 4.28 g/m*3 -0.1 C 0 km/h
2079 10-12-2010 08:03:02 -0.2 C 4.3 g/m*3 -0.2 C 0 km/h
2080 10-12-2010 08:15:02 -0.4 C 4.24 g/m*3 -0.4 C 0 km/h
2081 10-12-2010 08:27:02 -0.3 C 4.27 g/m*3 -0.3 C 0 km/h
2082 10-12-2010 08:39:02 -0.3 C 4.32 g/m*3 -0.3 C 0 km/h
2083 10-12-2010 08:51:02 -0.4 C 4.29 g/m*3 -0.4 C 0 km/h
2084 10-12-2010 09:03:02 -0.6 C 4.23 g/m*3 -0.6 C 0 km/h
2085 10-12-2010 09:15:02 -0.7 C 4.2 g/m*3 -0.7 C 0 km/h
2086 10-12-2010 09:27:02 -0.6 C 4.23 g/m*3 -0.6 C 0 km/h
2087 10-12-2010 09:39:02 0 C 4.41 g/m*3 0 C 0 km/h
2088 10-12-2010 09:51:02 -0.1 C 4.43 g/m*3 -0.1 C 0 km/h
2089 10-12-2010 10:03:01 -0.3 C 4.32 g/m*3 -0.3 C 0 km/h
2090 10-12-2010 10:15:01 0 C 4.41 g/m*3 0 C 0 km/h
2091 10-12-2010 10:27:02 0 C 4.41 g/m*3 0 C 0 km/h
2092 10-12-2010 10:39:01 0.2 C 4.52 g/m*3 0.2 C 0 km/h
2093 10-12-2010 10:51:03 0.4 C 4.58 g/m*3 0.4 C 0 km/h
2094 10-12-2010 11:03:02 0.2 C 4.47 g/m*3 0.2 C 0 km/h
2095 10-12-2010 11:15:02 1.1 C 4.76 g/m*3 1.1 C 0 km/h
2096 10-12-2010 11:27:02 1.6 C 4.92 g/m*3 1.6 C 0 km/h
2097 10-12-2010 11:39:02 2 C 5 g/m*3 2 C 0 km/h
2098 10-12-2010 11:51:02 2 C 4.95 g/m*3 2 C 0 km/h
2099 10-12-2010 12:03:01 2.3 C 5.05 g/m*3 2.3 C 0 km/h
2100 10-12-2010 12:15:02 2.2 C 4.96 g/m*3 2.2 C 0 km/h
Sensor: Nr:Datum:Temp:Abs-Feuchte:Windchill:Wind:
Aussen-T/F 2101 10-12-2010 12:27:02 2.4 C 5.02 g/m*3 2.4 C 0 km/h
2102 10-12-2010 12:39:02 2.3 C 4.93 g/m*3 2.3 C 0 km/h
2103 10-12-2010 12:51:02 2 C 4.78 g/m*3 2 C 0 km/h
2104 10-12-2010 13:03:03 2.6 C 4.98 g/m*3 2.6 C 0 km/h
2105 10-12-2010 13:15:02 2.7 C 4.95 g/m*3 2.7 C 0 km/h
2106 10-12-2010 13:27:02 3 C 4.88 g/m*3 3 C 0 km/h
2107 10-12-2010 13:39:02 3.4 C 4.95 g/m*3 3.4 C 0 km/h
2108 10-12-2010 13:51:01 3.1 C 4.73 g/m*3 3.1 C 0 km/h
2109 10-12-2010 14:03:02 3.1 C 4.67 g/m*3 3.1 C 0 km/h
2110 10-12-2010 14:15:01 3.1 C 4.67 g/m*3 3.1 C 0 km/h
2111 10-12-2010 14:27:01 2.9 C 4.67 g/m*3 2.9 C 0 km/h
2112 10-12-2010 14:39:01 2.7 C 4.66 g/m*3 2.7 C 0 km/h
2113 10-12-2010 14:51:01 2.3 C 4.59 g/m*3 2.3 C 0 km/h
2114 10-12-2010 15:03:01 2.2 C 4.62 g/m*3 2.2 C 0 km/h
2115 10-12-2010 15:15:02 1.8 C 4.6 g/m*3 1.8 C 0 km/h
2116 10-12-2010 15:27:02 1.8 C 4.66 g/m*3 1.8 C 0 km/h
2117 10-12-2010 15:39:01 1.6 C 4.65 g/m*3 1.6 C 0 km/h
2118 10-12-2010 15:51:02 1.5 C 4.67 g/m*3 1.5 C 0 km/h
2119 10-12-2010 16:03:01 1.5 C 4.73 g/m*3 1.5 C 0 km/h
2120 10-12-2010 16:15:01 1.5 C 4.78 g/m*3 1.5 C 0 km/h
2121 10-12-2010 16:27:02 1.4 C 4.75 g/m*3 1.4 C 0 km/h
2122 10-12-2010 16:39:01 1.6 C 4.87 g/m*3 1.6 C 0 km/h
2123 10-12-2010 16:51:02 1.7 C 4.9 g/m*3 1.7 C 0 km/h
2124 10-12-2010 17:03:01 1.9 C 4.97 g/m*3 1.9 C 0 km/h
2125 10-12-2010 17:15:02 1.6 C 4.87 g/m*3 1.6 C 0 km/h
Sensor: Nr:Datum:Temp:Abs-Feuchte:Windchill:Wind:
Aussen-T/F 2126 10-12-2010 17:27:02 1.6 C 4.87 g/m*3 1.6 C 0 km/h
2127 10-12-2010 17:39:02 2.3 C 5.1 g/m*3 2.3 C 0 km/h
2128 10-12-2010 17:51:01 1.8 C 4.93 g/m*3 1.8 C 0 km/h
2129 10-12-2010 18:03:02 1.7 C 4.9 g/m*3 1.7 C 0 km/h
2130 10-12-2010 18:15:01 2 C 5 g/m*3 2 C 0 km/h
2131 10-12-2010 18:27:01 2.2 C 5.01 g/m*3 2.2 C 0 km/h
2132 10-12-2010 18:39:02 1.8 C 4.88 g/m*3 1.8 C 0 km/h
2133 10-12-2010 18:51:02 1.6 C 4.87 g/m*3 1.6 C 0 km/h
2134 10-12-2010 19:03:02 2 C 4.95 g/m*3 2 C 0 km/h
2135 10-12-2010 19:15:01 2.2 C 5.01 g/m*3 2.2 C 0 km/h
2136 10-12-2010 19:27:01 2.5 C 5.06 g/m*3 2.5 C 0 km/h
2137 10-12-2010 19:39:02 2.3 C 4.93 g/m*3 2.3 C 0 km/h
2138 10-12-2010 19:51:02 2.4 C 4.91 g/m*3 2.4 C 0 km/h
2139 10-12-2010 20:03:02 2.4 C 4.91 g/m*3 2.4 C 0 km/h
2140 10-12-2010 20:15:01 2.7 C 5.01 g/m*3 2.7 C 0 km/h
2141 10-12-2010 20:27:01 2.8 C 4.99 g/m*3 2.8 C 0 km/h
2142 10-12-2010 20:39:02 2.5 C 4.83 g/m*3 2.5 C 0 km/h
2143 10-12-2010 20:51:01 2.6 C 4.92 g/m*3 2.6 C 0 km/h
2144 10-12-2010 21:03:02 2.5 C 4.89 g/m*3 2.5 C 0 km/h
2145 10-12-2010 21:15:02 2.5 C 4.83 g/m*3 2.5 C 0 km/h
2146 10-12-2010 21:27:02 2.4 C 4.8 g/m*3 2.4 C 0 km/h
2147 10-12-2010 21:39:02 2.6 C 4.86 g/m*3 2.6 C 0 km/h
2148 10-12-2010 21:51:02 2.5 C 4.89 g/m*3 2.5 C 0 km/h
2149 10-12-2010 22:03:02 2.5 C 4.89 g/m*3 2.5 C 0 km/h
2150 10-12-2010 22:15:01 2.6 C 4.86 g/m*3 2.6 C 0 km/h
Sensor: Nr:Datum:Temp:Abs-Feuchte:Windchill:Wind:
Aussen-T/F 2151 10-12-2010 22:27:01 2.4 C 4.85 g/m*3 2.4 C 0 km/h
2152 10-12-2010 22:39:02 2.5 C 4.89 g/m*3 2.5 C 0 km/h
2153 10-12-2010 22:51:01 2.6 C 4.86 g/m*3 2.6 C 0 km/h
2154 10-12-2010 23:03:02 2.4 C 4.8 g/m*3 2.4 C 0 km/h
2155 10-12-2010 23:15:02 2.3 C 4.82 g/m*3 2.3 C 0 km/h
2156 10-12-2010 23:27:02 2.1 C 4.87 g/m*3 2.1 C 0 km/h
2157 10-12-2010 23:39:02 2.2 C 4.9 g/m*3 2.2 C 0 km/h
2158 10-12-2010 23:51:01 2.2 C 4.9 g/m*3 2.2 C 0 km/h
2159 11-12-2010 00:03:02 2.2 C 4.96 g/m*3 2.2 C 0 km/h
2160 11-12-2010 00:15:02 2.3 C 4.99 g/m*3 2.3 C 0 km/h
2161 11-12-2010 00:27:02 2.1 C 4.92 g/m*3 2.1 C 0 km/h
2162 11-12-2010 00:39:01 2.2 C 5.01 g/m*3 2.2 C 0 km/h
2163 11-12-2010 00:51:02 2.1 C 4.98 g/m*3 2.1 C 0 km/h
2164 11-12-2010 01:03:01 2.3 C 5.05 g/m*3 2.3 C 0 km/h
2165 11-12-2010 01:15:02 2.4 C 5.08 g/m*3 2.4 C 0 km/h
2166 11-12-2010 01:27:03 2.5 C 5.12 g/m*3 2.5 C 0 km/h
2167 11-12-2010 01:39:01 2.5 C 5.06 g/m*3 2.5 C 0 km/h
2168 11-12-2010 01:51:02 2.6 C 5.09 g/m*3 2.6 C 0 km/h
2169 11-12-2010 02:03:02 2.7 C 5.13 g/m*3 2.7 C 0 km/h
2170 11-12-2010 02:15:02 2.8 C 5.16 g/m*3 2.8 C 0 km/h
2171 11-12-2010 02:27:02 2.8 C 5.16 g/m*3 2.8 C 0 km/h
2172 11-12-2010 02:39:03 2.6 C 5.09 g/m*3 2.6 C 0 km/h
2173 11-12-2010 02:51:01 2.7 C 5.13 g/m*3 2.7 C 0 km/h
2174 11-12-2010 03:03:01 2.6 C 5.09 g/m*3 2.6 C 0 km/h
2175 11-12-2010 03:15:02 2.7 C 5.13 g/m*3 2.7 C 0 km/h
Sensor: Nr:Datum:Temp:Abs-Feuchte:Windchill:Wind:
Aussen-T/F 2176 11-12-2010 03:27:02 2.3 C 4.99 g/m*3 2.3 C 0 km/h
2177 11-12-2010 03:39:02 2.3 C 5.05 g/m*3 2.3 C 0 km/h
2178 11-12-2010 03:51:02 2.8 C 5.22 g/m*3 2.8 C 0 km/h
2179 11-12-2010 04:03:01 3.3 C 5.34 g/m*3 3.3 C 0 km/h
2180 11-12-2010 04:15:01 3 C 5.17 g/m*3 3 C 0 km/h
2181 11-12-2010 04:27:01 3 C 5.17 g/m*3 3 C 0 km/h
2182 11-12-2010 04:39:02 3.5 C 5.29 g/m*3 3.5 C 0 km/h
2183 11-12-2010 04:51:01 3.5 C 5.23 g/m*3 3.5 C 0 km/h
2184 11-12-2010 05:03:02 4 C 5.28 g/m*3 4 C 0 km/h
2185 11-12-2010 05:15:01 4 C 5.21 g/m*3 4 C 0 km/h
2186 11-12-2010 05:27:01 3.8 C 5.14 g/m*3 3.8 C 0 km/h
2187 11-12-2010 05:39:02 3.8 C 5.14 g/m*3 3.8 C 0 km/h
2188 11-12-2010 05:51:01 3.7 C 5.17 g/m*3 3.7 C 0 km/h
2189 11-12-2010 06:03:02 3.6 C 5.2 g/m*3 3.6 C 0 km/h
2190 11-12-2010 06:15:01 3.1 C 5.03 g/m*3 3.1 C 0 km/h
2191 11-12-2010 06:27:01 3.4 C 5.19 g/m*3 3.4 C 0 km/h
2192 11-12-2010 06:39:01 3.4 C 5.19 g/m*3 3.4 C 0 km/h
2193 11-12-2010 06:51:01 3.3 C 5.16 g/m*3 3.3 C 0 km/h
2194 11-12-2010 07:03:01 3.6 C 5.32 g/m*3 3.6 C 0 km/h
2195 11-12-2010 07:15:01 3.9 C 5.31 g/m*3 3.9 C 0 km/h
2196 11-12-2010 07:27:01 4.5 C 5.26 g/m*3 4.5 C 0 km/h
2197 11-12-2010 07:39:01 4.5 C 5.13 g/m*3 4.5 C 0 km/h
2198 11-12-2010 07:51:01 4.2 C 5.03 g/m*3 4.2 C 0 km/h
2199 11-12-2010 08:03:01 4.6 C 5.16 g/m*3 4.6 C 0 km/h
2200 11-12-2010 08:15:02 4.7 C 5.06 g/m*3 4.7 C 0 km/h
Sensor: Nr:Datum:Temp:Abs-Feuchte:Windchill:Wind:
Aussen-T/F 2201 11-12-2010 08:27:02 5 C 4.96 g/m*3 5 C 0 km/h
2202 11-12-2010 08:39:01 5.1 C 4.92 g/m*3 5.1 C 0 km/h
2203 11-12-2010 08:51:02 4.9 C 4.93 g/m*3 4.9 C 0 km/h
2204 11-12-2010 09:03:01 4.5 C 4.86 g/m*3 4.5 C 0 km/h
2205 11-12-2010 09:15:02 4.3 C 4.99 g/m*3 4.3 C 0 km/h
2206 11-12-2010 09:27:02 4 C 4.9 g/m*3 4 C 0 km/h
2207 11-12-2010 09:39:01 4 C 5.15 g/m*3 4 C 0 km/h
2208 11-12-2010 09:51:02 4 C 5.28 g/m*3 4 C 0 km/h
2209 11-12-2010 10:03:01 3.9 C 5.37 g/m*3 3.9 C 0 km/h
2210 11-12-2010 10:15:01 4 C 5.4 g/m*3 4 C 0 km/h
2211 11-12-2010 10:27:01 4 C 5.4 g/m*3 4 C 0 km/h
2212 11-12-2010 10:39:02 3.8 C 5.33 g/m*3 3.8 C 0 km/h
2213 11-12-2010 10:51:01 3.8 C 5.4 g/m*3 3.8 C 0 km/h
2214 11-12-2010 11:03:02 4.1 C 5.38 g/m*3 4.1 C 0 km/h
2215 11-12-2010 11:15:01 4.2 C 5.35 g/m*3 4.2 C 0 km/h
2216 11-12-2010 11:27:01 4.5 C 5.39 g/m*3 4.5 C 0 km/h
2217 11-12-2010 11:39:02 4.4 C 5.35 g/m*3 4.4 C 0 km/h
2218 11-12-2010 11:51:01 4.3 C 5.38 g/m*3 4.3 C 0 km/h
2219 11-12-2010 12:03:02 4.3 C 5.45 g/m*3 4.3 C 0 km/h
2220 11-12-2010 12:15:01 4.4 C 5.55 g/m*3 4.4 C 0 km/h
2221 11-12-2010 12:27:01 4.6 C 5.62 g/m*3 4.6 C 0 km/h
2222 11-12-2010 12:39:01 4.6 C 5.62 g/m*3 4.6 C 0 km/h
2223 11-12-2010 12:51:01 4.8 C 5.57 g/m*3 4.8 C 0 km/h
2224 11-12-2010 13:03:01 4.8 C 5.5 g/m*3 4.8 C 0 km/h
2225 11-12-2010 13:15:01 4.8 C 5.43 g/m*3 4.8 C 0 km/h
Sensor: Nr:Datum:Temp:Abs-Feuchte:Windchill:Wind:
Aussen-T/F 2226 11-12-2010 13:27:01 4.8 C 5.36 g/m*3 4.8 C 0 km/h
2227 11-12-2010 13:39:01 4.9 C 5.33 g/m*3 4.9 C 0 km/h
2228 11-12-2010 13:51:01 5 C 5.3 g/m*3 5 C 0 km/h
2229 11-12-2010 14:03:01 4.8 C 5.3 g/m*3 4.8 C 0 km/h
2230 11-12-2010 14:15:02 4.9 C 5.33 g/m*3 4.9 C 0 km/h
2231 11-12-2010 14:27:02 4.8 C 5.3 g/m*3 4.8 C 0 km/h
2232 11-12-2010 14:39:01 4.9 C 5.33 g/m*3 4.9 C 0 km/h
2233 11-12-2010 14:51:02 5.1 C 5.27 g/m*3 5.1 C 0 km/h
2234 11-12-2010 15:03:01 5.1 C 5.27 g/m*3 5.1 C 0 km/h
2235 11-12-2010 15:15:02 5.1 C 5.2 g/m*3 5.1 C 0 km/h
2236 11-12-2010 15:27:02 5.2 C 5.16 g/m*3 5.2 C 0 km/h
2237 11-12-2010 15:39:01 5.1 C 5.13 g/m*3 5.1 C 0 km/h
2238 11-12-2010 15:51:02 4.8 C 5.16 g/m*3 4.8 C 0 km/h
2239 11-12-2010 16:03:01 4.7 C 5.2 g/m*3 4.7 C 0 km/h
2240 11-12-2010 16:15:01 4.6 C 5.23 g/m*3 4.6 C 0 km/h
2241 11-12-2010 16:27:01 5.1 C 5.27 g/m*3 5.1 C 0 km/h
2242 11-12-2010 16:39:02 5.1 C 5.27 g/m*3 5.1 C 0 km/h
2243 11-12-2010 16:51:01 5 C 5.23 g/m*3 5 C 0 km/h
2244 11-12-2010 17:03:02 5 C 5.16 g/m*3 5 C 0 km/h
2245 11-12-2010 17:15:01 5.4 C 5.23 g/m*3 5.4 C 0 km/h
2246 11-12-2010 17:27:01 5.5 C 5.2 g/m*3 5.5 C 0 km/h
2247 11-12-2010 17:39:02 5.1 C 5.2 g/m*3 5.1 C 0 km/h
2248 11-12-2010 17:51:01 4.8 C 5.3 g/m*3 4.8 C 0 km/h
2249 11-12-2010 18:03:02 4.7 C 5.26 g/m*3 4.7 C 0 km/h
2250 11-12-2010 18:15:01 4.4 C 5.16 g/m*3 4.4 C 0 km/h
Sensor: Nr:Datum:Temp:Abs-Feuchte:Windchill:Wind:
Aussen-T/F 2251 11-12-2010 18:27:01 4.2 C 5.15 g/m*3 4.2 C 0 km/h
2252 11-12-2010 18:39:01 3.9 C 5.24 g/m*3 3.9 C 0 km/h
2253 11-12-2010 18:51:01 3.9 C 5.24 g/m*3 3.9 C 0 km/h
2254 11-12-2010 19:03:01 4.1 C 5.25 g/m*3 4.1 C 0 km/h
2255 11-12-2010 19:15:02 4.2 C 5.22 g/m*3 4.2 C 0 km/h
2256 11-12-2010 19:27:02 4 C 5.15 g/m*3 4 C 0 km/h
2257 11-12-2010 19:39:01 4.4 C 5.22 g/m*3 4.4 C 0 km/h
2258 11-12-2010 19:51:01 4.6 C 5.16 g/m*3 4.6 C 0 km/h
2259 11-12-2010 20:03:01 4.5 C 5.06 g/m*3 4.5 C 0 km/h
2260 11-12-2010 20:15:02 4.4 C 5.03 g/m*3 4.4 C 0 km/h
2261 11-12-2010 20:27:02 5.4 C 5.02 g/m*3 5.4 C 0 km/h
2262 11-12-2010 20:39:01 5 C 4.89 g/m*3 5 C 0 km/h
2263 11-12-2010 20:51:02 4.8 C 5.03 g/m*3 4.8 C 0 km/h
2264 11-12-2010 21:03:01 4.9 C 5.06 g/m*3 4.9 C 0 km/h
2265 11-12-2010 21:15:01 4.8 C 5.03 g/m*3 4.8 C 0 km/h
2266 11-12-2010 21:27:02 4.1 C 4.99 g/m*3 4.1 C 0 km/h
2267 11-12-2010 21:39:01 4 C 5.02 g/m*3 4 C 0 km/h
2268 11-12-2010 21:51:02 4.2 C 5.09 g/m*3 4.2 C 0 km/h
2269 11-12-2010 22:03:01 4.5 C 5.13 g/m*3 4.5 C 0 km/h
2270 11-12-2010 22:15:01 4.2 C 5.03 g/m*3 4.2 C 0 km/h
2271 11-12-2010 22:27:01 4.5 C 5.13 g/m*3 4.5 C 0 km/h
2272 11-12-2010 22:40:19 4.4 C 4.96 g/m*3 4.4 C 0 km/h
2273 11-12-2010 22:52:19 3.9 C 4.93 g/m*3 3.9 C 0 km/h
2274 11-12-2010 23:04:19 4.6 C 5.03 g/m*3 4.6 C 0 km/h
2275 11-12-2010 23:16:20 4.8 C 4.9 g/m*3 4.8 C 0 km/h
Sensor: Nr:Datum:Temp:Abs-Feuchte:Windchill:Wind:
Aussen-T/F 2276 11-12-2010 23:28:20 4.8 C 4.9 g/m*3 4.8 C 0 km/h
2277 11-12-2010 23:40:20 4.5 C 4.8 g/m*3 4.5 C 0 km/h
2278 11-12-2010 23:52:20 4.6 C 4.83 g/m*3 4.6 C 0 km/h
2279 12-12-2010 00:04:20 4.6 C 4.83 g/m*3 4.6 C 0 km/h
2280 12-12-2010 00:16:20 4.4 C 4.96 g/m*3 4.4 C 0 km/h
2281 12-12-2010 00:28:20 4.2 C 4.96 g/m*3 4.2 C 0 km/h
2282 12-12-2010 00:40:20 4.1 C 5.06 g/m*3 4.1 C 0 km/h
2283 12-12-2010 00:52:20 4 C 5.02 g/m*3 4 C 0 km/h
2284 12-12-2010 01:04:20 4.3 C 5.06 g/m*3 4.3 C 0 km/h
2285 12-12-2010 01:16:20 4.7 C 4.86 g/m*3 4.7 C 0 km/h
2286 12-12-2010 01:28:20 4.8 C 4.83 g/m*3 4.8 C 0 km/h
2287 12-12-2010 01:40:20 5 C 4.76 g/m*3 5 C 0 km/h
2288 12-12-2010 01:52:20 5.4 C 4.67 g/m*3 5.4 C 0 km/h
2289 12-12-2010 02:04:20 5.3 C 4.64 g/m*3 5.3 C 0 km/h
2290 12-12-2010 02:16:20 5.3 C 4.57 g/m*3 5.3 C 0 km/h
2291 12-12-2010 02:28:20 4.6 C 4.57 g/m*3 4.6 C 0 km/h
2292 12-12-2010 02:40:21 4.2 C 4.51 g/m*3 4.2 C 0 km/h
2293 12-12-2010 02:52:21 4.7 C 4.6 g/m*3 4.7 C 0 km/h
2294 12-12-2010 03:04:21 4.8 C 4.56 g/m*3 4.8 C 0 km/h
2295 12-12-2010 03:16:21 4.7 C 4.46 g/m*3 4.7 C 0 km/h
2296 12-12-2010 03:28:21 4.2 C 4.57 g/m*3 4.2 C 0 km/h
2297 12-12-2010 03:40:21 3.7 C 4.8 g/m*3 3.7 C 0 km/h
2298 12-12-2010 03:52:21 3.6 C 4.89 g/m*3 3.6 C 0 km/h
2299 12-12-2010 04:04:21 3.5 C 5.04 g/m*3 3.5 C 0 km/h
2300 12-12-2010 04:16:21 3.5 C 5.1 g/m*3 3.5 C 0 km/h
Sensor: Nr:Datum:Temp:Abs-Feuchte:Windchill:Wind:
Aussen-T/F 2301 12-12-2010 04:28:21 3.6 C 5.2 g/m*3 3.6 C 0 km/h
2302 12-12-2010 04:40:21 3.8 C 5.27 g/m*3 3.8 C 0 km/h
2303 12-12-2010 04:52:21 4 C 5.28 g/m*3 4 C 0 km/h
2304 12-12-2010 05:04:21 4 C 5.28 g/m*3 4 C 0 km/h
2305 12-12-2010 05:16:21 3.2 C 4.94 g/m*3 3.2 C 0 km/h
2306 12-12-2010 05:28:21 3.2 C 5.06 g/m*3 3.2 C 0 km/h
2307 12-12-2010 05:40:21 3.6 C 5.26 g/m*3 3.6 C 0 km/h
2308 12-12-2010 05:52:21 3.2 C 5 g/m*3 3.2 C 0 km/h
2309 12-12-2010 06:04:21 2.8 C 4.93 g/m*3 2.8 C 0 km/h
2310 12-12-2010 06:16:21 2.5 C 4.89 g/m*3 2.5 C 0 km/h
2311 12-12-2010 06:28:21 2.9 C 5.14 g/m*3 2.9 C 0 km/h
2312 12-12-2010 06:40:22 3.5 C 5.29 g/m*3 3.5 C 0 km/h
2313 12-12-2010 06:52:22 3.5 C 5.1 g/m*3 3.5 C 0 km/h
2314 12-12-2010 07:04:22 3.6 C 5.01 g/m*3 3.6 C 0 km/h
2315 12-12-2010 07:16:22 3.8 C 5.02 g/m*3 3.8 C 0 km/h
2316 12-12-2010 07:28:22 4 C 4.9 g/m*3 4 C 0 km/h
2317 12-12-2010 07:40:22 3.9 C 4.86 g/m*3 3.9 C 0 km/h
2318 12-12-2010 07:52:22 4 C 4.83 g/m*3 4 C 0 km/h
2319 12-12-2010 08:04:22 4 C 4.83 g/m*3 4 C 0 km/h
2320 12-12-2010 08:16:22 3.8 C 4.83 g/m*3 3.8 C 0 km/h
2321 12-12-2010 08:28:22 3.5 C 4.8 g/m*3 3.5 C 0 km/h
2322 12-12-2010 08:40:04 3.4 C 4.95 g/m*3 3.4 C 0 km/h
2323 12-12-2010 08:52:02 3.4 C 4.95 g/m*3 3.4 C 0 km/h
2324 12-12-2010 09:04:02 3.4 C 4.95 g/m*3 3.4 C 0 km/h
2325 12-12-2010 09:16:02 3.5 C 4.98 g/m*3 3.5 C 0 km/h
Sensor: Nr:Datum:Temp:Abs-Feuchte:Windchill:Wind:
Aussen-T/F 2326 12-12-2010 09:28:02 3.9 C 4.99 g/m*3 3.9 C 0 km/h
2327 12-12-2010 09:40:03 3.9 C 4.93 g/m*3 3.9 C 0 km/h
2328 12-12-2010 09:52:02 3.8 C 4.96 g/m*3 3.8 C 0 km/h
2329 12-12-2010 10:04:01 3.8 C 4.89 g/m*3 3.8 C 0 km/h
2330 12-12-2010 10:16:02 3.8 C 4.96 g/m*3 3.8 C 0 km/h
2331 12-12-2010 10:28:02 3.9 C 5.05 g/m*3 3.9 C 0 km/h
2332 12-12-2010 10:40:02 4 C 5.09 g/m*3 4 C 0 km/h
2333 12-12-2010 10:52:02 3.8 C 5.14 g/m*3 3.8 C 0 km/h
2334 12-12-2010 11:04:03 4.1 C 5.18 g/m*3 4.1 C 0 km/h
2335 12-12-2010 11:16:02 4.1 C 5.12 g/m*3 4.1 C 0 km/h
2336 12-12-2010 11:28:02 4.3 C 5.12 g/m*3 4.3 C 0 km/h
2337 12-12-2010 11:40:02 4.1 C 5.12 g/m*3 4.1 C 0 km/h
2338 12-12-2010 11:52:02 4 C 5.15 g/m*3 4 C 0 km/h
2339 12-12-2010 12:04:02 4 C 5.21 g/m*3 4 C 0 km/h
2340 12-12-2010 12:16:01 4.3 C 5.38 g/m*3 4.3 C 0 km/h
2341 12-12-2010 12:28:01 4.6 C 5.43 g/m*3 4.6 C 0 km/h
2342 12-12-2010 12:40:02 4.7 C 5.33 g/m*3 4.7 C 0 km/h
2343 12-12-2010 12:52:02 4.9 C 5.33 g/m*3 4.9 C 0 km/h
2344 12-12-2010 13:04:02 4.7 C 5.2 g/m*3 4.7 C 0 km/h
2345 12-12-2010 13:16:01 5.1 C 5.2 g/m*3 5.1 C 0 km/h
2346 12-12-2010 13:28:01 4.6 C 5.1 g/m*3 4.6 C 0 km/h
2347 12-12-2010 13:40:02 4.8 C 5.23 g/m*3 4.8 C 0 km/h
2348 12-12-2010 13:52:02 4.9 C 5.13 g/m*3 4.9 C 0 km/h
2349 12-12-2010 14:04:02 4.5 C 5 g/m*3 4.5 C 0 km/h
2350 12-12-2010 14:16:01 3.6 C 4.89 g/m*3 3.6 C 0 km/h
Sensor: Nr:Datum:Temp:Abs-Feuchte:Windchill:Wind:
Aussen-T/F 2351 12-12-2010 14:28:01 3.1 C 4.85 g/m*3 3.1 C 0 km/h
2352 12-12-2010 14:40:02 2.9 C 4.96 g/m*3 2.9 C 0 km/h
2353 12-12-2010 14:52:02 3.2 C 5.06 g/m*3 3.2 C 0 km/h
2354 12-12-2010 15:04:02 3.2 C 5.12 g/m*3 3.2 C 0 km/h
2355 12-12-2010 15:16:02 3.2 C 5.18 g/m*3 3.2 C 0 km/h
2356 12-12-2010 15:28:02 3.1 C 5.21 g/m*3 3.1 C 0 km/h
2357 12-12-2010 15:40:02 3.1 C 5.27 g/m*3 3.1 C 0 km/h
2358 12-12-2010 15:52:02 2.9 C 5.26 g/m*3 2.9 C 0 km/h
2359 12-12-2010 16:04:02 2.7 C 5.13 g/m*3 2.7 C 0 km/h
2360 12-12-2010 16:16:02 2.7 C 5.13 g/m*3 2.7 C 0 km/h
2361 12-12-2010 16:28:03 2.6 C 5.09 g/m*3 2.6 C 0 km/h
2362 12-12-2010 16:40:01 2.7 C 5.13 g/m*3 2.7 C 0 km/h
2363 12-12-2010 16:52:02 2.8 C 5.1 g/m*3 2.8 C 0 km/h
2364 12-12-2010 17:04:01 2.8 C 4.99 g/m*3 2.8 C 0 km/h
2365 12-12-2010 17:16:01 2.7 C 4.78 g/m*3 2.7 C 0 km/h
2366 12-12-2010 17:28:01 2.4 C 4.51 g/m*3 2.4 C 0 km/h
2367 12-12-2010 17:40:02 2.3 C 4.42 g/m*3 2.3 C 0 km/h
2368 12-12-2010 17:52:02 2.2 C 4.39 g/m*3 2.2 C 0 km/h
2369 12-12-2010 18:04:02 2.1 C 4.36 g/m*3 2.1 C 0 km/h
2370 12-12-2010 18:16:02 2 C 4.28 g/m*3 2 C 0 km/h
2371 12-12-2010 18:28:02 1.8 C 4.22 g/m*3 1.8 C 0 km/h
2372 12-12-2010 18:40:02 1.7 C 3.97 g/m*3 1.7 C 0 km/h
2373 12-12-2010 18:52:01 1.7 C 3.92 g/m*3 1.7 C 0 km/h
2374 12-12-2010 19:04:02 1.6 C 3.95 g/m*3 1.6 C 0 km/h
2375 12-12-2010 19:16:01 1.4 C 3.95 g/m*3 1.4 C 0 km/h
Sensor: Nr:Datum:Temp:Abs-Feuchte:Windchill:Wind:
Aussen-T/F 2376 12-12-2010 19:28:01 1.4 C 3.95 g/m*3 1.4 C 0 km/h
2377 12-12-2010 19:40:01 1.3 C 3.87 g/m*3 1.3 C 0 km/h
2378 12-12-2010 19:52:01 1.2 C 3.84 g/m*3 1.2 C 0 km/h
2379 12-12-2010 20:04:01 1.4 C 3.57 g/m*3 1.4 C 0 km/h
2380 12-12-2010 20:16:02 1.4 C 3.52 g/m*3 1.4 C 0 km/h
2381 12-12-2010 20:28:02 1.1 C 3.5 g/m*3 1.1 C 0 km/h
2382 12-12-2010 20:40:01 1 C 3.63 g/m*3 1 C 0 km/h
2383 12-12-2010 20:52:02 1 C 3.58 g/m*3 1 C 0 km/h
2384 12-12-2010 21:04:02 0.9 C 3.56 g/m*3 0.9 C 0 km/h
2385 12-12-2010 21:16:02 0.8 C 3.43 g/m*3 0.8 C 0 km/h
2386 12-12-2010 21:28:02 0.8 C 3.38 g/m*3 0.8 C 0 km/h
2387 12-12-2010 21:40:02 0.7 C 3.2 g/m*3 0.7 C 0 km/h
2388 12-12-2010 21:52:02 0.6 C 3.18 g/m*3 0.6 C 0 km/h
2389 12-12-2010 22:04:02 0.5 C 3.21 g/m*3 0.5 C 0 km/h
2390 12-12-2010 22:16:02 0.5 C 3.16 g/m*3 0.5 C 0 km/h
2391 12-12-2010 22:28:02 0.4 C 3.19 g/m*3 0.4 C 0 km/h
2392 12-12-2010 22:40:02 0.3 C 3.22 g/m*3 0.3 C 0 km/h
2393 12-12-2010 22:53:03 0.3 C 3.12 g/m*3 0.3 C 0 km/h
2394 12-12-2010 23:05:03 0.1 C 2.78 g/m*3 0.1 C 0 km/h
2395 12-12-2010 23:17:03 0.1 C 2.78 g/m*3 0.1 C 0 km/h
2396 12-12-2010 23:29:03 0 C 2.71 g/m*3 0 C 0 km/h
2397 12-12-2010 23:41:03 -0.2 C 2.72 g/m*3 -0.2 C 0 km/h
2398 12-12-2010 23:53:04 -0.2 C 2.68 g/m*3 -0.2 C 0 km/h
2399 13-12-2010 00:05:04 -0.4 C 2.59 g/m*3 -0.4 C 0 km/h
2400 13-12-2010 00:17:04 -0.4 C 2.59 g/m*3 -0.4 C 0 km/h
Sensor: Nr:Datum:Temp:Abs-Feuchte:Windchill:Wind:
Aussen-T/F 2401 13-12-2010 00:29:04 -0.5 C 2.53 g/m*3 -0.5 C 0 km/h
2402 13-12-2010 00:41:04 -0.6 C 2.37 g/m*3 -0.6 C 0 km/h
2403 13-12-2010 00:53:04 -0.7 C 2.4 g/m*3 -0.7 C 0 km/h
2404 13-12-2010 01:05:04 -0.7 C 2.35 g/m*3 -0.7 C 0 km/h
2405 13-12-2010 01:17:04 -0.7 C 2.45 g/m*3 -0.7 C 0 km/h
2406 13-12-2010 01:29:04 -0.9 C 2.46 g/m*3 -0.9 C 0 km/h
2407 13-12-2010 01:41:04 -0.9 C 2.46 g/m*3 -0.9 C 0 km/h
2408 13-12-2010 01:53:04 -1 C 2.53 g/m*3 -1 C 0 km/h
2409 13-12-2010 02:05:04 -1.3 C 2.35 g/m*3 -1.3 C 0 km/h
2410 13-12-2010 02:17:04 -2.1 C 2.26 g/m*3 -2.1 C 0 km/h
2411 13-12-2010 02:29:04 -2.4 C 2.29 g/m*3 -2.4 C 0 km/h
2412 13-12-2010 02:41:04 -2.7 C 2.29 g/m*3 -2.7 C 0 km/h
2413 13-12-2010 02:53:04 -2.9 C 2.29 g/m*3 -2.9 C 0 km/h
2414 13-12-2010 03:05:04 -2.9 C 2.29 g/m*3 -2.9 C 0 km/h
2415 13-12-2010 03:17:04 -3.4 C 2.25 g/m*3 -3.4 C 0 km/h
2416 13-12-2010 03:29:04 -3.6 C 2.26 g/m*3 -3.6 C 0 km/h
2417 13-12-2010 03:41:04 -3.8 C 2.26 g/m*3 -3.8 C 0 km/h
2418 13-12-2010 03:53:05 -3.8 C 2.26 g/m*3 -3.8 C 0 km/h
2419 13-12-2010 04:05:05 -4.1 C 2.25 g/m*3 -4.1 C 0 km/h
2420 13-12-2010 04:17:05 -4.2 C 2.31 g/m*3 -4.2 C 0 km/h
2421 13-12-2010 04:29:05 -4.1 C 2.32 g/m*3 -4.1 C 0 km/h
2422 13-12-2010 04:41:05 -4.4 C 2.28 g/m*3 -4.4 C 0 km/h
2423 13-12-2010 04:53:05 -4.2 C 2.31 g/m*3 -4.2 C 0 km/h
2424 13-12-2010 05:05:05 -4.7 C 2.26 g/m*3 -4.7 C 0 km/h
2425 13-12-2010 05:17:05 -5.2 C 2.25 g/m*3 -5.2 C 0 km/h
Sensor: Nr:Datum:Temp:Abs-Feuchte:Windchill:Wind:
Aussen-T/F 2426 13-12-2010 05:29:05 -6 C 2.19 g/m*3 -6 C 0 km/h
2427 13-12-2010 05:41:05 -6.5 C 2.17 g/m*3 -6.5 C 0 km/h
2428 13-12-2010 05:53:05 -6.6 C 2.24 g/m*3 -6.6 C 0 km/h
2429 13-12-2010 06:05:05 -6.2 C 2.31 g/m*3 -6.2 C 0 km/h
2430 13-12-2010 06:17:05 -6.3 C 2.32 g/m*3 -6.3 C 0 km/h
2431 13-12-2010 06:29:05 -7 C 2.18 g/m*3 -7 C 0 km/h
2432 13-12-2010 06:41:05 -7.5 C 2.13 g/m*3 -7.5 C 0 km/h
2433 13-12-2010 06:53:05 -7.7 C 2.13 g/m*3 -7.7 C 0 km/h
2434 13-12-2010 07:05:05 -7.2 C 2.23 g/m*3 -7.2 C 0 km/h
2435 13-12-2010 07:17:05 -6.8 C 2.3 g/m*3 -6.8 C 0 km/h
2436 13-12-2010 07:29:05 -7.2 C 2.2 g/m*3 -7.2 C 0 km/h
2437 13-12-2010 07:41:02 -7.3 C 2.19 g/m*3 -7.3 C 0 km/h
2438 13-12-2010 07:53:02 -7.5 C 2.19 g/m*3 -7.5 C 0 km/h
2439 13-12-2010 08:05:01 -6.9 C 2.31 g/m*3 -6.9 C 0 km/h
2440 13-12-2010 08:17:02 -7.2 C 2.26 g/m*3 -7.2 C 0 km/h
2441 13-12-2010 08:29:02 -7.3 C 2.25 g/m*3 -7.3 C 0 km/h
2442 13-12-2010 08:41:01 -7.3 C 2.25 g/m*3 -7.3 C 0 km/h
2443 13-12-2010 08:53:02 -7.2 C 2.29 g/m*3 -7.2 C 0 km/h
2444 13-12-2010 09:05:02 -7.3 C 2.25 g/m*3 -7.3 C 0 km/h
2445 13-12-2010 09:17:02 -7.4 C 2.23 g/m*3 -7.4 C 0 km/h
2446 13-12-2010 09:29:02 -7.3 C 2.25 g/m*3 -7.3 C 0 km/h
2447 13-12-2010 09:41:02 -6.8 C 2.36 g/m*3 -6.8 C 0 km/h
2448 13-12-2010 09:53:01 -6.8 C 2.36 g/m*3 -6.8 C 0 km/h
2449 13-12-2010 10:05:02 -7.1 C 2.31 g/m*3 -7.1 C 0 km/h
2450 13-12-2010 10:17:01 -7 C 2.33 g/m*3 -7 C 0 km/h
Sensor: Nr:Datum:Temp:Abs-Feuchte:Windchill:Wind:
Aussen-T/F 2451 13-12-2010 10:29:01 -6.6 C 2.39 g/m*3 -6.6 C 0 km/h
2452 13-12-2010 10:41:02 -6.6 C 2.39 g/m*3 -6.6 C 0 km/h
2453 13-12-2010 10:53:02 -5.8 C 2.57 g/m*3 -5.8 C 0 km/h
2454 13-12-2010 11:05:02 -4.9 C 2.71 g/m*3 -4.9 C 0 km/h
2455 13-12-2010 11:17:01 -4.4 C 2.7 g/m*3 -4.4 C 0 km/h
2456 13-12-2010 11:29:01 -4 C 2.6 g/m*3 -4 C 0 km/h
2457 13-12-2010 11:41:02 -3.5 C 2.58 g/m*3 -3.5 C 0 km/h
2458 13-12-2010 11:53:01 -3.2 C 2.56 g/m*3 -3.2 C 0 km/h
2459 13-12-2010 12:05:02 -2.8 C 2.59 g/m*3 -2.8 C 0 km/h
2460 13-12-2010 12:17:02 -2.8 C 2.51 g/m*3 -2.8 C 0 km/h
2461 13-12-2010 12:29:02 -2.9 C 2.49 g/m*3 -2.9 C 0 km/h
2462 13-12-2010 12:41:01 -2.8 C 2.51 g/m*3 -2.8 C 0 km/h
2463 13-12-2010 12:53:02 -2.6 C 2.51 g/m*3 -2.6 C 0 km/h
2464 13-12-2010 13:05:01 -2.5 C 2.56 g/m*3 -2.5 C 0 km/h
2465 13-12-2010 13:17:02 -2.5 C 2.52 g/m*3 -2.5 C 0 km/h
2466 13-12-2010 13:29:03 -2.3 C 2.52 g/m*3 -2.3 C 0 km/h
2467 13-12-2010 13:41:01 -2.3 C 2.44 g/m*3 -2.3 C 0 km/h
2468 13-12-2010 13:53:02 -2 C 2.44 g/m*3 -2 C 0 km/h
2469 13-12-2010 14:05:02 -1.9 C 2.38 g/m*3 -1.9 C 0 km/h
2470 13-12-2010 14:17:02 -2 C 2.36 g/m*3 -2 C 0 km/h
2471 13-12-2010 14:29:02 -2.1 C 2.39 g/m*3 -2.1 C 0 km/h
2472 13-12-2010 14:41:03 -2.3 C 2.39 g/m*3 -2.3 C 0 km/h
2473 13-12-2010 14:53:02 -2.7 C 2.45 g/m*3 -2.7 C 0 km/h
2474 13-12-2010 15:05:02 -2.9 C 2.45 g/m*3 -2.9 C 0 km/h
2475 13-12-2010 15:17:01 -3.1 C 2.46 g/m*3 -3.1 C 0 km/h
Sensor: Nr:Datum:Temp:Abs-Feuchte:Windchill:Wind:
Aussen-T/F 2476 13-12-2010 15:29:01 -3.4 C 2.48 g/m*3 -3.4 C 0 km/h
2477 13-12-2010 15:41:02 -4.2 C 2.45 g/m*3 -4.2 C 0 km/h
2478 13-12-2010 15:53:02 -4.7 C 2.51 g/m*3 -4.7 C 0 km/h
2479 13-12-2010 16:05:03 -4.7 C 2.57 g/m*3 -4.7 C 0 km/h
2480 13-12-2010 16:17:02 -4.8 C 2.59 g/m*3 -4.8 C 0 km/h
2481 13-12-2010 16:29:02 -5 C 2.59 g/m*3 -5 C 0 km/h
2482 13-12-2010 16:41:02 -5.3 C 2.53 g/m*3 -5.3 C 0 km/h
2483 13-12-2010 16:53:02 -5.1 C 2.6 g/m*3 -5.1 C 0 km/h
2484 13-12-2010 17:05:02 -5.6 C 2.54 g/m*3 -5.6 C 0 km/h
2485 13-12-2010 17:17:01 -5.5 C 2.56 g/m*3 -5.5 C 0 km/h
2486 13-12-2010 17:29:01 -6 C 2.47 g/m*3 -6 C 0 km/h
2487 13-12-2010 17:41:02 -6.1 C 2.48 g/m*3 -6.1 C 0 km/h
2488 13-12-2010 17:53:02 -6.2 C 2.43 g/m*3 -6.2 C 0 km/h
2489 13-12-2010 18:05:02 -6 C 2.5 g/m*3 -6 C 0 km/h
2490 13-12-2010 18:17:02 -6.2 C 2.47 g/m*3 -6.2 C 0 km/h
2491 13-12-2010 18:29:02 -6.5 C 2.41 g/m*3 -6.5 C 0 km/h
2492 13-12-2010 18:41:02 -6.1 C 2.52 g/m*3 -6.1 C 0 km/h
2493 13-12-2010 18:53:02 -6.2 C 2.53 g/m*3 -6.2 C 0 km/h
2494 13-12-2010 19:05:02 -6.2 C 2.53 g/m*3 -6.2 C 0 km/h
2495 13-12-2010 19:17:02 -5.6 C 2.67 g/m*3 -5.6 C 0 km/h
2496 13-12-2010 19:29:02 -5.3 C 2.77 g/m*3 -5.3 C 0 km/h
2497 13-12-2010 19:41:02 -5.1 C 2.81 g/m*3 -5.1 C 0 km/h
2498 13-12-2010 19:53:02 -5 C 2.83 g/m*3 -5 C 0 km/h
2499 13-12-2010 20:05:02 -4.9 C 2.85 g/m*3 -4.9 C 0 km/h
2500 13-12-2010 20:17:02 -5.3 C 2.7 g/m*3 -5.3 C 0 km/h
Sensor: Nr:Datum:Temp:Abs-Feuchte:Windchill:Wind:
Aussen-T/F 2501 13-12-2010 20:29:02 -5.1 C 2.74 g/m*3 -5.1 C 0 km/h
2502 13-12-2010 20:41:02 -4.6 C 2.84 g/m*3 -4.6 C 0 km/h
2503 13-12-2010 20:53:02 -4.4 C 2.88 g/m*3 -4.4 C 0 km/h
2504 13-12-2010 21:05:02 -4.4 C 2.84 g/m*3 -4.4 C 0 km/h
2505 13-12-2010 21:17:02 -4.3 C 2.83 g/m*3 -4.3 C 0 km/h
2506 13-12-2010 21:29:03 -4.2 C 2.81 g/m*3 -4.2 C 0 km/h
2507 13-12-2010 21:41:02 -4.1 C 2.8 g/m*3 -4.1 C 0 km/h
2508 13-12-2010 21:53:02 -4.1 C 2.8 g/m*3 -4.1 C 0 km/h
2509 13-12-2010 22:05:01 -3.9 C 2.84 g/m*3 -3.9 C 0 km/h
2510 13-12-2010 22:17:02 -3.9 C 2.84 g/m*3 -3.9 C 0 km/h
2511 13-12-2010 22:29:02 -3.7 C 2.84 g/m*3 -3.7 C 0 km/h
2512 13-12-2010 22:41:02 -4 C 2.85 g/m*3 -4 C 0 km/h
2513 13-12-2010 22:53:02 -4.1 C 2.91 g/m*3 -4.1 C 0 km/h
2514 13-12-2010 23:05:02 -4.1 C 2.94 g/m*3 -4.1 C 0 km/h
2515 13-12-2010 23:17:02 -4.1 C 2.98 g/m*3 -4.1 C 0 km/h
2516 13-12-2010 23:29:02 -4.1 C 3.01 g/m*3 -4.1 C 0 km/h
2517 13-12-2010 23:41:02 -4.1 C 3.01 g/m*3 -4.1 C 0 km/h
2518 13-12-2010 23:53:02 -4.1 C 3.05 g/m*3 -4.1 C 0 km/h
2519 14-12-2010 00:05:02 -4.1 C 3.05 g/m*3 -4.1 C 0 km/h
2520 14-12-2010 00:17:02 -4.1 C 3.01 g/m*3 -4.1 C 0 km/h
2521 14-12-2010 00:29:02 -4.1 C 3.01 g/m*3 -4.1 C 0 km/h
2522 14-12-2010 00:41:02 -4.1 C 3.01 g/m*3 -4.1 C 0 km/h
2523 14-12-2010 00:53:03 -4.1 C 3.01 g/m*3 -4.1 C 0 km/h
2524 14-12-2010 01:05:03 -4.1 C 3.01 g/m*3 -4.1 C 0 km/h
2525 14-12-2010 01:17:03 -4.1 C 3.01 g/m*3 -4.1 C 0 km/h
Sensor: Nr:Datum:Temp:Abs-Feuchte:Windchill:Wind:
Aussen-T/F 2526 14-12-2010 01:29:03 -4.1 C 3.01 g/m*3 -4.1 C 0 km/h
2527 14-12-2010 01:41:03 -4 C 3.07 g/m*3 -4 C 0 km/h
2528 14-12-2010 01:53:03 -4 C 3.04 g/m*3 -4 C 0 km/h
2529 14-12-2010 02:05:03 -3.9 C 3.06 g/m*3 -3.9 C 0 km/h
2530 14-12-2010 02:17:03 -3.9 C 3.06 g/m*3 -3.9 C 0 km/h
2531 14-12-2010 02:29:03 -3.9 C 3.06 g/m*3 -3.9 C 0 km/h
2532 14-12-2010 02:41:03 -3.8 C 3.08 g/m*3 -3.8 C 0 km/h
2533 14-12-2010 02:53:03 -3.7 C 3.1 g/m*3 -3.7 C 0 km/h
2534 14-12-2010 03:05:03 -3.7 C 3.1 g/m*3 -3.7 C 0 km/h
2535 14-12-2010 03:17:03 -3.7 C 3.1 g/m*3 -3.7 C 0 km/h
2536 14-12-2010 03:29:03 -3.7 C 3.1 g/m*3 -3.7 C 0 km/h
2537 14-12-2010 03:41:03 -3.7 C 3.1 g/m*3 -3.7 C 0 km/h
2538 14-12-2010 03:53:03 -3.5 C 3.15 g/m*3 -3.5 C 0 km/h
2539 14-12-2010 04:05:03 -3.7 C 3.1 g/m*3 -3.7 C 0 km/h
2540 14-12-2010 04:17:03 -3.5 C 3.11 g/m*3 -3.5 C 0 km/h
2541 14-12-2010 04:29:03 -3.5 C 3.11 g/m*3 -3.5 C 0 km/h
2542 14-12-2010 04:41:03 -3.7 C 3.06 g/m*3 -3.7 C 0 km/h
2543 14-12-2010 04:53:04 -3.7 C 3.06 g/m*3 -3.7 C 0 km/h
2544 14-12-2010 05:05:04 -3.7 C 3.06 g/m*3 -3.7 C 0 km/h
2545 14-12-2010 05:17:04 -3.7 C 3.06 g/m*3 -3.7 C 0 km/h
2546 14-12-2010 05:29:04 -3.8 C 3.04 g/m*3 -3.8 C 0 km/h
2547 14-12-2010 05:41:04 -3.8 C 3.04 g/m*3 -3.8 C 0 km/h
2548 14-12-2010 05:53:04 -4 C 3 g/m*3 -4 C 0 km/h
2549 14-12-2010 06:05:04 -4.3 C 2.94 g/m*3 -4.3 C 0 km/h
2550 14-12-2010 06:17:04 -4.9 C 2.81 g/m*3 -4.9 C 0 km/h
Sensor: Nr:Datum:Temp:Abs-Feuchte:Windchill:Wind:
Aussen-T/F 2551 14-12-2010 06:29:04 -5 C 2.79 g/m*3 -5 C 0 km/h
2552 14-12-2010 06:41:04 -4.7 C 2.89 g/m*3 -4.7 C 0 km/h
2553 14-12-2010 06:53:04 -4.6 C 2.94 g/m*3 -4.6 C 0 km/h
2554 14-12-2010 07:05:04 -5.3 C 2.77 g/m*3 -5.3 C 0 km/h
2555 14-12-2010 07:17:04 -6 C 2.63 g/m*3 -6 C 0 km/h
2556 14-12-2010 07:29:04 -6.4 C 2.55 g/m*3 -6.4 C 0 km/h
2557 14-12-2010 07:41:04 -6.6 C 2.52 g/m*3 -6.6 C 0 km/h
2558 14-12-2010 07:53:01 -6.8 C 2.51 g/m*3 -6.8 C 0 km/h
2559 14-12-2010 08:05:01 -6.8 C 2.51 g/m*3 -6.8 C 0 km/h
2560 14-12-2010 08:17:01 -6.8 C 2.54 g/m*3 -6.8 C 0 km/h
2561 14-12-2010 08:29:01 -6 C 2.72 g/m*3 -6 C 0 km/h
2562 14-12-2010 08:41:01 -5.9 C 2.74 g/m*3 -5.9 C 0 km/h
2563 14-12-2010 08:53:02 -6.4 C 2.61 g/m*3 -6.4 C 0 km/h
2564 14-12-2010 09:05:01 -6.4 C 2.61 g/m*3 -6.4 C 0 km/h
2565 14-12-2010 09:17:01 -6.1 C 2.67 g/m*3 -6.1 C 0 km/h
2566 14-12-2010 09:29:02 -5.7 C 2.75 g/m*3 -5.7 C 0 km/h
2567 14-12-2010 09:41:01 -6 C 2.69 g/m*3 -6 C 0 km/h
2568 14-12-2010 09:53:02 -5.8 C 2.73 g/m*3 -5.8 C 0 km/h
2569 14-12-2010 10:05:01 -4.9 C 2.92 g/m*3 -4.9 C 0 km/h
2570 14-12-2010 10:17:01 -4.3 C 3.04 g/m*3 -4.3 C 0 km/h
2571 14-12-2010 10:29:01 -4 C 3.04 g/m*3 -4 C 0 km/h
2572 14-12-2010 10:41:02 -3.7 C 3.03 g/m*3 -3.7 C 0 km/h
2573 14-12-2010 10:53:01 -3.4 C 2.98 g/m*3 -3.4 C 0 km/h
2574 14-12-2010 11:05:02 -3.3 C 2.85 g/m*3 -3.3 C 0 km/h
2575 14-12-2010 11:17:01 -3.2 C 2.75 g/m*3 -3.2 C 0 km/h
Sensor: Nr:Datum:Temp:Abs-Feuchte:Windchill:Wind:
Aussen-T/F 2576 14-12-2010 11:29:01 -3.6 C 2.63 g/m*3 -3.6 C 0 km/h
2577 14-12-2010 11:41:02 -3.2 C 2.79 g/m*3 -3.2 C 0 km/h
2578 14-12-2010 11:53:01 -2.9 C 2.73 g/m*3 -2.9 C 0 km/h
2579 14-12-2010 12:05:02 -2.8 C 2.67 g/m*3 -2.8 C 0 km/h
2580 14-12-2010 12:17:01 -2.4 C 2.66 g/m*3 -2.4 C 0 km/h
2581 14-12-2010 12:29:01 -2.5 C 2.6 g/m*3 -2.5 C 0 km/h
2582 14-12-2010 12:41:01 -2.3 C 2.68 g/m*3 -2.3 C 0 km/h
2583 14-12-2010 12:53:01 -2.1 C 2.68 g/m*3 -2.1 C 0 km/h
2584 14-12-2010 13:05:01 -2.3 C 2.68 g/m*3 -2.3 C 0 km/h
2585 14-12-2010 13:17:02 -2.3 C 2.64 g/m*3 -2.3 C 0 km/h
2586 14-12-2010 13:29:02 -2.2 C 2.62 g/m*3 -2.2 C 0 km/h
2587 14-12-2010 13:41:01 -2.1 C 2.6 g/m*3 -2.1 C 0 km/h
2588 14-12-2010 13:53:02 -2.1 C 2.64 g/m*3 -2.1 C 0 km/h
2589 14-12-2010 14:05:01 -2.3 C 2.64 g/m*3 -2.3 C 0 km/h
2590 14-12-2010 14:17:02 -2.5 C 2.65 g/m*3 -2.5 C 0 km/h
2591 14-12-2010 14:29:02 -2.4 C 2.7 g/m*3 -2.4 C 0 km/h
2592 14-12-2010 14:41:01 -2.4 C 2.66 g/m*3 -2.4 C 0 km/h
2593 14-12-2010 14:53:02 -2.6 C 2.63 g/m*3 -2.6 C 0 km/h
2594 14-12-2010 15:05:01 -2.7 C 2.65 g/m*3 -2.7 C 0 km/h
2595 14-12-2010 15:17:01 -2.7 C 2.69 g/m*3 -2.7 C 0 km/h
2596 14-12-2010 15:29:01 -2.8 C 2.71 g/m*3 -2.8 C 0 km/h
2597 14-12-2010 15:41:02 -2.8 C 2.71 g/m*3 -2.8 C 0 km/h
2598 14-12-2010 15:53:01 -2.8 C 2.75 g/m*3 -2.8 C 0 km/h
2599 14-12-2010 16:05:02 -2.8 C 2.75 g/m*3 -2.8 C 0 km/h
2600 14-12-2010 16:17:01 -2.8 C 2.79 g/m*3 -2.8 C 0 km/h
Sensor: Nr:Datum:Temp:Abs-Feuchte:Windchill:Wind:
Aussen-T/F 2601 14-12-2010 16:29:01 -2.9 C 2.81 g/m*3 -2.9 C 0 km/h
2602 14-12-2010 16:41:02 -3 C 2.83 g/m*3 -3 C 0 km/h
2603 14-12-2010 16:53:01 -3 C 2.83 g/m*3 -3 C 0 km/h
2604 14-12-2010 17:05:02 -3 C 2.87 g/m*3 -3 C 0 km/h
2605 14-12-2010 17:17:01 -3 C 2.87 g/m*3 -3 C 0 km/h
2606 14-12-2010 17:29:01 -3 C 2.95 g/m*3 -3 C 0 km/h
2607 14-12-2010 17:41:01 -3 C 2.95 g/m*3 -3 C 0 km/h
2608 14-12-2010 17:53:01 -2.9 C 2.93 g/m*3 -2.9 C 0 km/h
2609 14-12-2010 18:05:01 -3.1 C 2.85 g/m*3 -3.1 C 0 km/h
2610 14-12-2010 18:17:02 -3 C 2.79 g/m*3 -3 C 0 km/h
2611 14-12-2010 18:29:02 -3.2 C 2.71 g/m*3 -3.2 C 0 km/h
2612 14-12-2010 18:41:01 -3 C 2.79 g/m*3 -3 C 0 km/h
2613 14-12-2010 18:53:02 -3 C 2.79 g/m*3 -3 C 0 km/h
2614 14-12-2010 19:05:01 -2.8 C 2.83 g/m*3 -2.8 C 0 km/h
2615 14-12-2010 19:17:02 -2.8 C 2.83 g/m*3 -2.8 C 0 km/h
2616 14-12-2010 19:29:02 -2.8 C 2.87 g/m*3 -2.8 C 0 km/h
2617 14-12-2010 19:41:01 -2.8 C 2.87 g/m*3 -2.8 C 0 km/h
2618 14-12-2010 19:53:02 -2.9 C 2.81 g/m*3 -2.9 C 0 km/h
2619 14-12-2010 20:05:01 -3 C 2.79 g/m*3 -3 C 0 km/h
2620 14-12-2010 20:17:01 -3 C 2.79 g/m*3 -3 C 0 km/h
2621 14-12-2010 20:29:01 -3 C 2.75 g/m*3 -3 C 0 km/h
2622 14-12-2010 20:41:02 -3.1 C 2.69 g/m*3 -3.1 C 0 km/h
2623 14-12-2010 20:53:01 -3.1 C 2.69 g/m*3 -3.1 C 0 km/h
2624 14-12-2010 21:05:02 -3.1 C 2.65 g/m*3 -3.1 C 0 km/h
2625 14-12-2010 21:17:01 -3.1 C 2.65 g/m*3 -3.1 C 0 km/h
Sensor: Nr:Datum:Temp:Abs-Feuchte:Windchill:Wind:
Aussen-T/F 2626 14-12-2010 21:29:01 -3.1 C 2.65 g/m*3 -3.1 C 0 km/h
2627 14-12-2010 21:41:02 -3.1 C 2.65 g/m*3 -3.1 C 0 km/h
2628 14-12-2010 21:53:02 -3.2 C 2.59 g/m*3 -3.2 C 0 km/h
2629 14-12-2010 22:05:02 -3.2 C 2.59 g/m*3 -3.2 C 0 km/h
2630 14-12-2010 22:17:02 -3.2 C 2.56 g/m*3 -3.2 C 0 km/h
2631 14-12-2010 22:29:02 -3.2 C 2.59 g/m*3 -3.2 C 0 km/h
2632 14-12-2010 22:42:04 -3.1 C 2.57 g/m*3 -3.1 C 0 km/h
2633 14-12-2010 22:54:04 -3.1 C 2.57 g/m*3 -3.1 C 0 km/h
2634 14-12-2010 23:06:04 -3.2 C 2.52 g/m*3 -3.2 C 0 km/h
2635 14-12-2010 23:18:04 -3.2 C 2.52 g/m*3 -3.2 C 0 km/h
2636 14-12-2010 23:30:05 -3.2 C 2.48 g/m*3 -3.2 C 0 km/h
2637 14-12-2010 23:42:05 -3.2 C 2.52 g/m*3 -3.2 C 0 km/h
2638 14-12-2010 23:54:05 -3.3 C 2.5 g/m*3 -3.3 C 0 km/h
2639 15-12-2010 00:06:05 -3.3 C 2.5 g/m*3 -3.3 C 0 km/h
2640 15-12-2010 00:18:05 -3.3 C 2.5 g/m*3 -3.3 C 0 km/h
2641 15-12-2010 00:30:05 -3.3 C 2.5 g/m*3 -3.3 C 0 km/h
2642 15-12-2010 00:42:05 -3.3 C 2.5 g/m*3 -3.3 C 0 km/h
2643 15-12-2010 00:54:05 -3.3 C 2.5 g/m*3 -3.3 C 0 km/h
2644 15-12-2010 01:06:05 -3.3 C 2.54 g/m*3 -3.3 C 0 km/h
2645 15-12-2010 01:18:05 -3.2 C 2.56 g/m*3 -3.2 C 0 km/h
2646 15-12-2010 01:30:05 -3.2 C 2.59 g/m*3 -3.2 C 0 km/h
2647 15-12-2010 01:42:05 -3.3 C 2.58 g/m*3 -3.3 C 0 km/h
2648 15-12-2010 01:54:05 -3.3 C 2.58 g/m*3 -3.3 C 0 km/h
2649 15-12-2010 02:06:05 -3.7 C 2.54 g/m*3 -3.7 C 0 km/h
2650 15-12-2010 02:18:05 -4 C 2.56 g/m*3 -4 C 0 km/h
Sensor: Nr:Datum:Temp:Abs-Feuchte:Windchill:Wind:
Aussen-T/F 2651 15-12-2010 02:30:05 -3.9 C 2.58 g/m*3 -3.9 C 0 km/h
2652 15-12-2010 02:42:05 -4.5 C 2.51 g/m*3 -4.5 C 0 km/h
2653 15-12-2010 02:54:05 -4.7 C 2.51 g/m*3 -4.7 C 0 km/h
2654 15-12-2010 03:06:05 -4.7 C 2.54 g/m*3 -4.7 C 0 km/h
2655 15-12-2010 03:18:05 -5 C 2.45 g/m*3 -5 C 0 km/h
2656 15-12-2010 03:30:05 -4.8 C 2.52 g/m*3 -4.8 C 0 km/h
2657 15-12-2010 03:42:05 -5.2 C 2.45 g/m*3 -5.2 C 0 km/h
2658 15-12-2010 03:54:05 -4.8 C 2.56 g/m*3 -4.8 C 0 km/h
2659 15-12-2010 04:06:06 -4.7 C 2.57 g/m*3 -4.7 C 0 km/h
2660 15-12-2010 04:18:06 -4.3 C 2.65 g/m*3 -4.3 C 0 km/h
2661 15-12-2010 04:30:06 -4.5 C 2.58 g/m*3 -4.5 C 0 km/h
2662 15-12-2010 04:42:06 -5.4 C 2.41 g/m*3 -5.4 C 0 km/h
2663 15-12-2010 04:54:06 -5.4 C 2.48 g/m*3 -5.4 C 0 km/h
2664 15-12-2010 05:06:06 -4.9 C 2.61 g/m*3 -4.9 C 0 km/h
2665 15-12-2010 05:18:06 -4.9 C 2.61 g/m*3 -4.9 C 0 km/h
2666 15-12-2010 05:30:06 -4.8 C 2.63 g/m*3 -4.8 C 0 km/h
2667 15-12-2010 05:42:06 -4.6 C 2.66 g/m*3 -4.6 C 0 km/h
2668 15-12-2010 05:54:06 -4.4 C 2.67 g/m*3 -4.4 C 0 km/h
2669 15-12-2010 06:06:06 -4 C 2.71 g/m*3 -4 C 0 km/h
2670 15-12-2010 06:18:06 -3.8 C 2.71 g/m*3 -3.8 C 0 km/h
2671 15-12-2010 06:30:06 -3.8 C 2.67 g/m*3 -3.8 C 0 km/h
2672 15-12-2010 06:42:06 -3.8 C 2.71 g/m*3 -3.8 C 0 km/h
2673 15-12-2010 06:54:06 -3.5 C 2.77 g/m*3 -3.5 C 0 km/h
2674 15-12-2010 07:06:06 -3.5 C 2.81 g/m*3 -3.5 C 0 km/h
2675 15-12-2010 07:18:06 -3.5 C 2.81 g/m*3 -3.5 C 0 km/h
Sensor: Nr:Datum:Temp:Abs-Feuchte:Windchill:Wind:
Aussen-T/F 2676 15-12-2010 07:30:06 -3.4 C 2.83 g/m*3 -3.4 C 0 km/h
2677 15-12-2010 07:42:06 -3.4 C 2.79 g/m*3 -3.4 C 0 km/h
2678 15-12-2010 07:54:02 -3.3 C 2.85 g/m*3 -3.3 C 0 km/h
2679 15-12-2010 08:06:03 -3.3 C 2.85 g/m*3 -3.3 C 0 km/h
2680 15-12-2010 08:18:02 -3.4 C 2.83 g/m*3 -3.4 C 0 km/h
2681 15-12-2010 08:30:02 -3.4 C 2.86 g/m*3 -3.4 C 0 km/h
2682 15-12-2010 08:42:02 -3.3 C 2.92 g/m*3 -3.3 C 0 km/h
2683 15-12-2010 08:54:02 -3.1 C 2.96 g/m*3 -3.1 C 0 km/h
2684 15-12-2010 09:06:01 -2.9 C 3.01 g/m*3 -2.9 C 0 km/h
2685 15-12-2010 09:18:02 -2.6 C 3.03 g/m*3 -2.6 C 0 km/h
2686 15-12-2010 09:30:02 -2.6 C 2.99 g/m*3 -2.6 C 0 km/h
2687 15-12-2010 09:42:02 -2.4 C 3.03 g/m*3 -2.4 C 0 km/h
2688 15-12-2010 09:54:01 -2.3 C 3.05 g/m*3 -2.3 C 0 km/h
2689 15-12-2010 10:06:02 -2.1 C 3.1 g/m*3 -2.1 C 0 km/h
2690 15-12-2010 10:18:01 -2 C 3.12 g/m*3 -2 C 0 km/h
2691 15-12-2010 10:30:01 -1.8 C 3.21 g/m*3 -1.8 C 0 km/h
2692 15-12-2010 10:42:01 -1.5 C 3.32 g/m*3 -1.5 C 0 km/h
2693 15-12-2010 10:54:01 -1.4 C 3.39 g/m*3 -1.4 C 0 km/h
2694 15-12-2010 11:06:02 -1.2 C 3.43 g/m*3 -1.2 C 0 km/h
2695 15-12-2010 11:18:01 -0.8 C 3.53 g/m*3 -0.8 C 0 km/h
2696 15-12-2010 11:30:01 -0.5 C 3.56 g/m*3 -0.5 C 0 km/h
2697 15-12-2010 11:42:01 -0.5 C 3.51 g/m*3 -0.5 C 0 km/h
2698 15-12-2010 11:54:01 -0.4 C 3.53 g/m*3 -0.4 C 0 km/h
2699 15-12-2010 12:06:01 -0.4 C 3.53 g/m*3 -0.4 C 0 km/h
2700 15-12-2010 12:18:02 -0.4 C 3.49 g/m*3 -0.4 C 0 km/h
Sensor: Nr:Datum:Temp:Abs-Feuchte:Windchill:Wind:
Aussen-T/F 2701 15-12-2010 12:30:02 -0.4 C 3.49 g/m*3 -0.4 C 0 km/h
2702 15-12-2010 12:42:01 -0.5 C 3.46 g/m*3 -0.5 C 0 km/h
2703 15-12-2010 12:54:58 -0.7 C 3.37 g/m*3 -0.7 C 0 km/h
2704 15-12-2010 13:06:58 -0.8 C 3.44 g/m*3 -0.8 C 0 km/h
2705 15-12-2010 13:18:58 -0.5 C 3.56 g/m*3 -0.5 C 0 km/h
2706 15-12-2010 13:30:01 -0.4 C 3.53 g/m*3 -0.4 C 0 km/h
2707 15-12-2010 13:42:01 0.1 C 3.71 g/m*3 0.1 C 0 km/h
2708 15-12-2010 13:54:02 -0.3 C 3.56 g/m*3 -0.3 C 0 km/h
2709 15-12-2010 14:06:01 0 C 3.63 g/m*3 0 C 0 km/h
2710 15-12-2010 14:18:01 -0.1 C 3.42 g/m*3 -0.1 C 0 km/h
2711 15-12-2010 14:30:01 -0.2 C 3.35 g/m*3 -0.2 C 0 km/h
2712 15-12-2010 14:42:02 0 C 3.34 g/m*3 0 C 0 km/h
2713 15-12-2010 14:54:02 -0.3 C 3.08 g/m*3 -0.3 C 0 km/h
2714 15-12-2010 15:06:02 -0.8 C 2.84 g/m*3 -0.8 C 0 km/h
2715 15-12-2010 15:18:02 -1.2 C 2.76 g/m*3 -1.2 C 0 km/h
2716 15-12-2010 15:30:02 -1.5 C 2.75 g/m*3 -1.5 C 0 km/h
2717 15-12-2010 15:42:02 -1.8 C 2.78 g/m*3 -1.8 C 0 km/h
2718 15-12-2010 15:54:01 -1.9 C 2.84 g/m*3 -1.9 C 0 km/h
2719 15-12-2010 16:06:01 -2.4 C 2.83 g/m*3 -2.4 C 0 km/h
2720 15-12-2010 16:18:01 -2.2 C 2.91 g/m*3 -2.2 C 0 km/h
2721 15-12-2010 16:30:01 -2.7 C 2.73 g/m*3 -2.7 C 0 km/h
2722 15-12-2010 16:42:01 -4.2 C 2.49 g/m*3 -4.2 C 0 km/h
2723 15-12-2010 16:54:01 -4.5 C 2.58 g/m*3 -4.5 C 0 km/h
2724 15-12-2010 17:06:01 -4.5 C 2.68 g/m*3 -4.5 C 0 km/h
2725 15-12-2010 17:18:02 -4.3 C 2.76 g/m*3 -4.3 C 0 km/h
Sensor: Nr:Datum:Temp:Abs-Feuchte:Windchill:Wind:
Aussen-T/F 2726 15-12-2010 17:30:02 -4.3 C 2.76 g/m*3 -4.3 C 0 km/h
2727 15-12-2010 17:42:01 -4.3 C 2.76 g/m*3 -4.3 C 0 km/h
2728 15-12-2010 17:54:01 -4.3 C 2.76 g/m*3 -4.3 C 0 km/h
2729 15-12-2010 18:06:01 -4.8 C 2.76 g/m*3 -4.8 C 0 km/h
2730 15-12-2010 18:18:02 -4.8 C 2.76 g/m*3 -4.8 C 0 km/h
2731 15-12-2010 18:30:02 -5.3 C 2.67 g/m*3 -5.3 C 0 km/h
2732 15-12-2010 18:42:01 -4.9 C 2.78 g/m*3 -4.9 C 0 km/h
2733 15-12-2010 18:54:03 -4.5 C 2.89 g/m*3 -4.5 C 0 km/h
2734 15-12-2010 19:06:02 -4.5 C 2.89 g/m*3 -4.5 C 0 km/h
2735 15-12-2010 19:18:02 -4.5 C 2.86 g/m*3 -4.5 C 0 km/h
2736 15-12-2010 19:30:03 -4.2 C 2.92 g/m*3 -4.2 C 0 km/h
2737 15-12-2010 19:42:02 -4.2 C 2.89 g/m*3 -4.2 C 0 km/h
2738 15-12-2010 19:54:02 -4.7 C 2.75 g/m*3 -4.7 C 0 km/h
2739 15-12-2010 20:06:01 -4.6 C 2.73 g/m*3 -4.6 C 0 km/h
2740 15-12-2010 20:18:02 -3.4 C 2.98 g/m*3 -3.4 C 0 km/h
2741 15-12-2010 20:30:02 -3.5 C 2.84 g/m*3 -3.5 C 0 km/h
2742 15-12-2010 20:42:02 -3.3 C 2.81 g/m*3 -3.3 C 0 km/h
2743 15-12-2010 20:54:01 -3.3 C 2.77 g/m*3 -3.3 C 0 km/h
2744 15-12-2010 21:06:02 -3.2 C 2.79 g/m*3 -3.2 C 0 km/h
2745 15-12-2010 21:19:03 -3.1 C 2.77 g/m*3 -3.1 C 0 km/h
2746 15-12-2010 21:31:03 -3.1 C 2.77 g/m*3 -3.1 C 0 km/h
2747 15-12-2010 21:43:03 -3.2 C 2.75 g/m*3 -3.2 C 0 km/h
2748 15-12-2010 21:55:03 -3.3 C 2.77 g/m*3 -3.3 C 0 km/h
2749 15-12-2010 22:07:03 -3.3 C 2.81 g/m*3 -3.3 C 0 km/h
2750 15-12-2010 22:19:03 -3.3 C 2.81 g/m*3 -3.3 C 0 km/h
Sensor: Nr:Datum:Temp:Abs-Feuchte:Windchill:Wind:
Aussen-T/F 2751 15-12-2010 22:31:03 -3.8 C 2.75 g/m*3 -3.8 C 0 km/h
2752 15-12-2010 22:43:03 -4.5 C 2.65 g/m*3 -4.5 C 0 km/h
2753 15-12-2010 22:55:03 -4 C 2.82 g/m*3 -4 C 0 km/h
2754 15-12-2010 23:07:03 -4.2 C 2.78 g/m*3 -4.2 C 0 km/h
2755 15-12-2010 23:19:03 -4.5 C 2.75 g/m*3 -4.5 C 0 km/h
2756 15-12-2010 23:31:03 -4.2 C 2.85 g/m*3 -4.2 C 0 km/h
2757 15-12-2010 23:43:03 -5 C 2.66 g/m*3 -5 C 0 km/h
2758 15-12-2010 23:55:03 -4.8 C 2.76 g/m*3 -4.8 C 0 km/h
2759 16-12-2010 00:07:04 -4.8 C 2.8 g/m*3 -4.8 C 0 km/h
2760 16-12-2010 00:19:04 -4.3 C 2.94 g/m*3 -4.3 C 0 km/h
2761 16-12-2010 00:31:04 -4.3 C 2.94 g/m*3 -4.3 C 0 km/h
2762 16-12-2010 00:43:04 -4.8 C 2.83 g/m*3 -4.8 C 0 km/h
2763 16-12-2010 00:55:04 -5.2 C 2.75 g/m*3 -5.2 C 0 km/h
2764 16-12-2010 01:07:04 -5.1 C 2.81 g/m*3 -5.1 C 0 km/h
2765 16-12-2010 01:19:04 -5 C 2.83 g/m*3 -5 C 0 km/h
2766 16-12-2010 01:31:04 -4.6 C 2.94 g/m*3 -4.6 C 0 km/h
2767 16-12-2010 01:43:04 -4.7 C 2.89 g/m*3 -4.7 C 0 km/h
2768 16-12-2010 01:55:04 -4.8 C 2.87 g/m*3 -4.8 C 0 km/h
2769 16-12-2010 02:07:04 -4.8 C 2.87 g/m*3 -4.8 C 0 km/h
2770 16-12-2010 02:19:04 -4.9 C 2.81 g/m*3 -4.9 C 0 km/h
2771 16-12-2010 02:31:04 -5.5 C 2.66 g/m*3 -5.5 C 0 km/h
2772 16-12-2010 02:43:04 -5.8 C 2.64 g/m*3 -5.8 C 0 km/h
2773 16-12-2010 02:55:04 -5.5 C 2.69 g/m*3 -5.5 C 0 km/h
2774 16-12-2010 03:07:04 -5.6 C 2.71 g/m*3 -5.6 C 0 km/h
2775 16-12-2010 03:19:04 -5.3 C 2.77 g/m*3 -5.3 C 0 km/h
Sensor: Nr:Datum:Temp:Abs-Feuchte:Windchill:Wind:
Aussen-T/F 2776 16-12-2010 03:31:04 -5.4 C 2.75 g/m*3 -5.4 C 0 km/h
2777 16-12-2010 03:43:04 -5.3 C 2.77 g/m*3 -5.3 C 0 km/h
2778 16-12-2010 03:55:04 -5.2 C 2.79 g/m*3 -5.2 C 0 km/h
2779 16-12-2010 04:07:05 -5.2 C 2.79 g/m*3 -5.2 C 0 km/h
2780 16-12-2010 04:19:05 -5.3 C 2.73 g/m*3 -5.3 C 0 km/h
2781 16-12-2010 04:31:05 -5.6 C 2.64 g/m*3 -5.6 C 0 km/h
2782 16-12-2010 04:43:05 -5.8 C 2.6 g/m*3 -5.8 C 0 km/h
2783 16-12-2010 04:55:05 -6 C 2.53 g/m*3 -6 C 0 km/h
2784 16-12-2010 05:07:05 -6.1 C 2.48 g/m*3 -6.1 C 0 km/h
2785 16-12-2010 05:19:05 -6.2 C 2.47 g/m*3 -6.2 C 0 km/h
2786 16-12-2010 05:31:05 -6.3 C 2.42 g/m*3 -6.3 C 0 km/h
2787 16-12-2010 05:43:05 -6.5 C 2.38 g/m*3 -6.5 C 0 km/h
2788 16-12-2010 05:55:05 -6.9 C 2.31 g/m*3 -6.9 C 0 km/h
2789 16-12-2010 06:07:05 -7.3 C 2.28 g/m*3 -7.3 C 0 km/h
2790 16-12-2010 06:19:05 -7.4 C 2.29 g/m*3 -7.4 C 0 km/h
2791 16-12-2010 06:31:05 -7.6 C 2.25 g/m*3 -7.6 C 0 km/h
2792 16-12-2010 06:43:05 -7.6 C 2.23 g/m*3 -7.6 C 0 km/h
2793 16-12-2010 06:55:05 -7.8 C 2.19 g/m*3 -7.8 C 0 km/h
2794 16-12-2010 07:07:05 -8.1 C 2.14 g/m*3 -8.1 C 0 km/h
2795 16-12-2010 07:19:05 -7.9 C 2.18 g/m*3 -7.9 C 0 km/h
2796 16-12-2010 07:31:05 -8.1 C 2.14 g/m*3 -8.1 C 0 km/h
2797 16-12-2010 07:43:05 -8.6 C 2.04 g/m*3 -8.6 C 0 km/h
2798 16-12-2010 07:55:02 -8.7 C 2.03 g/m*3 -8.7 C 0 km/h
2799 16-12-2010 08:07:01 -8.8 C 2.04 g/m*3 -8.8 C 0 km/h
2800 16-12-2010 08:19:01 -8.2 C 2.13 g/m*3 -8.2 C 0 km/h
Sensor: Nr:Datum:Temp:Abs-Feuchte:Windchill:Wind:
Aussen-T/F 2801 16-12-2010 08:31:02 -7.8 C 2.22 g/m*3 -7.8 C 0 km/h
2802 16-12-2010 08:43:02 -7.5 C 2.24 g/m*3 -7.5 C 0 km/h
2803 16-12-2010 08:55:02 -7 C 2.3 g/m*3 -7 C 0 km/h
2804 16-12-2010 09:07:01 -6.9 C 2.28 g/m*3 -6.9 C 0 km/h
2805 16-12-2010 09:19:01 -6.8 C 2.27 g/m*3 -6.8 C 0 km/h
2806 16-12-2010 09:31:01 -6.8 C 2.21 g/m*3 -6.8 C 0 km/h
2807 16-12-2010 09:43:01 -6.6 C 2.24 g/m*3 -6.6 C 0 km/h
2808 16-12-2010 09:55:02 -5.9 C 2.3 g/m*3 -5.9 C 0 km/h
2809 16-12-2010 10:07:01 -5.2 C 2.38 g/m*3 -5.2 C 0 km/h
2810 16-12-2010 10:19:01 -5.2 C 2.38 g/m*3 -5.2 C 0 km/h
2811 16-12-2010 10:31:01 -5 C 2.45 g/m*3 -5 C 0 km/h
2812 16-12-2010 10:43:01 -4.7 C 2.51 g/m*3 -4.7 C 0 km/h
2813 16-12-2010 10:55:02 -4.1 C 2.62 g/m*3 -4.1 C 0 km/h
2814 16-12-2010 11:07:02 -3.7 C 2.65 g/m*3 -3.7 C 0 km/h
2815 16-12-2010 11:19:02 -3.5 C 2.65 g/m*3 -3.5 C 0 km/h
2816 16-12-2010 11:31:02 -3.3 C 2.69 g/m*3 -3.3 C 0 km/h
2817 16-12-2010 11:43:02 -3.3 C 2.65 g/m*3 -3.3 C 0 km/h
2818 16-12-2010 11:55:02 -3.3 C 2.61 g/m*3 -3.3 C 0 km/h
2819 16-12-2010 12:07:02 -3.1 C 2.69 g/m*3 -3.1 C 0 km/h
2820 16-12-2010 12:19:02 -3.1 C 2.73 g/m*3 -3.1 C 0 km/h
2821 16-12-2010 12:31:01 -3 C 2.75 g/m*3 -3 C 0 km/h
2822 16-12-2010 12:43:01 -2.6 C 2.87 g/m*3 -2.6 C 0 km/h
2823 16-12-2010 12:55:02 -2.4 C 2.95 g/m*3 -2.4 C 0 km/h
2824 16-12-2010 13:07:02 -2.2 C 2.95 g/m*3 -2.2 C 0 km/h
2825 16-12-2010 13:19:02 -2.2 C 2.95 g/m*3 -2.2 C 0 km/h
Sensor: Nr:Datum:Temp:Abs-Feuchte:Windchill:Wind:
Aussen-T/F 2826 16-12-2010 13:31:02 -2.1 C 3.01 g/m*3 -2.1 C 0 km/h
2827 16-12-2010 13:43:02 -2.1 C 3.01 g/m*3 -2.1 C 0 km/h
2828 16-12-2010 13:55:02 -2 C 3.03 g/m*3 -2 C 0 km/h
2829 16-12-2010 14:07:02 -1.9 C 3.1 g/m*3 -1.9 C 0 km/h
2830 16-12-2010 14:19:01 -1.9 C 3.14 g/m*3 -1.9 C 0 km/h
2831 16-12-2010 14:31:02 -1.8 C 3.21 g/m*3 -1.8 C 0 km/h
2832 16-12-2010 14:43:02 -1.6 C 3.25 g/m*3 -1.6 C 0 km/h
2833 16-12-2010 14:55:02 -1.4 C 3.3 g/m*3 -1.4 C 0 km/h
2834 16-12-2010 15:07:02 -1.5 C 3.32 g/m*3 -1.5 C 0 km/h
2835 16-12-2010 15:19:01 -1.5 C 3.45 g/m*3 -1.5 C 0 km/h
2836 16-12-2010 15:31:02 -1.5 C 3.49 g/m*3 -1.5 C 0 km/h
2837 16-12-2010 15:43:02 -1.2 C 3.52 g/m*3 -1.2 C 0 km/h
2838 16-12-2010 15:55:02 -1.3 C 3.45 g/m*3 -1.3 C 0 km/h
2839 16-12-2010 16:07:02 -1.4 C 3.43 g/m*3 -1.4 C 0 km/h
2840 16-12-2010 16:19:02 -1.5 C 3.41 g/m*3 -1.5 C 0 km/h
2841 16-12-2010 16:31:02 -1.4 C 3.39 g/m*3 -1.4 C 0 km/h
2842 16-12-2010 16:43:02 -1.1 C 3.46 g/m*3 -1.1 C 0 km/h
2843 16-12-2010 16:55:01 -1.1 C 3.46 g/m*3 -1.1 C 0 km/h
2844 16-12-2010 17:07:02 -1.4 C 3.43 g/m*3 -1.4 C 0 km/h
2845 16-12-2010 17:19:02 -1.4 C 3.43 g/m*3 -1.4 C 0 km/h
2846 16-12-2010 17:31:02 -1.2 C 3.48 g/m*3 -1.2 C 0 km/h
2847 16-12-2010 17:43:02 -1.2 C 3.48 g/m*3 -1.2 C 0 km/h
2848 16-12-2010 17:55:02 -1.1 C 3.55 g/m*3 -1.1 C 0 km/h
2849 16-12-2010 18:07:01 -0.9 C 3.6 g/m*3 -0.9 C 0 km/h
2850 16-12-2010 18:19:02 -0.7 C 3.65 g/m*3 -0.7 C 0 km/h
Sensor: Nr:Datum:Temp:Abs-Feuchte:Windchill:Wind:
Aussen-T/F 2851 16-12-2010 18:31:02 -0.6 C 3.63 g/m*3 -0.6 C 0 km/h
2852 16-12-2010 18:43:02 -0.6 C 3.58 g/m*3 -0.6 C 0 km/h
2853 16-12-2010 18:55:01 -0.7 C 3.6 g/m*3 -0.7 C 0 km/h
2854 16-12-2010 19:07:01 -0.4 C 3.68 g/m*3 -0.4 C 0 km/h
2855 16-12-2010 19:19:01 -0.5 C 3.6 g/m*3 -0.5 C 0 km/h
2856 16-12-2010 19:31:02 -0.2 C 3.73 g/m*3 -0.2 C 0 km/h
2857 16-12-2010 19:43:02 -0.3 C 3.65 g/m*3 -0.3 C 0 km/h
2858 16-12-2010 19:55:02 0 C 3.68 g/m*3 0 C 0 km/h
2859 16-12-2010 20:07:02 0 C 3.68 g/m*3 0 C 0 km/h
2860 16-12-2010 20:19:01 0 C 3.68 g/m*3 0 C 0 km/h
2861 16-12-2010 20:31:02 0 C 3.68 g/m*3 0 C 0 km/h
2862 16-12-2010 20:43:02 0 C 3.68 g/m*3 0 C 0 km/h
2863 16-12-2010 20:55:02 0.1 C 3.71 g/m*3 0.1 C 0 km/h
2864 16-12-2010 21:08:03 0 C 3.73 g/m*3 0 C 0 km/h
2865 16-12-2010 21:20:03 -0.2 C 3.78 g/m*3 -0.2 C 0 km/h
2866 16-12-2010 21:32:03 -0.2 C 3.78 g/m*3 -0.2 C 0 km/h
2867 16-12-2010 21:44:03 -0.1 C 3.85 g/m*3 -0.1 C 0 km/h
2868 16-12-2010 21:56:03 -0.1 C 3.8 g/m*3 -0.1 C 0 km/h
2869 16-12-2010 22:08:03 -0.1 C 3.85 g/m*3 -0.1 C 0 km/h
2870 16-12-2010 22:20:03 -0.2 C 3.87 g/m*3 -0.2 C 0 km/h
2871 16-12-2010 22:32:03 -0.3 C 3.89 g/m*3 -0.3 C 0 km/h
2872 16-12-2010 22:44:03 -0.5 C 3.88 g/m*3 -0.5 C 0 km/h
2873 16-12-2010 22:56:03 -0.6 C 3.9 g/m*3 -0.6 C 0 km/h
2874 16-12-2010 23:08:03 -0.5 C 3.93 g/m*3 -0.5 C 0 km/h
2875 16-12-2010 23:20:03 -0.4 C 3.86 g/m*3 -0.4 C 0 km/h
Sensor: Nr:Datum:Temp:Abs-Feuchte:Windchill:Wind:
Aussen-T/F 2876 16-12-2010 23:32:03 -0.5 C 3.79 g/m*3 -0.5 C 0 km/h
2877 16-12-2010 23:44:03 -0.4 C 3.82 g/m*3 -0.4 C 0 km/h
2878 16-12-2010 23:56:03 -0.5 C 3.79 g/m*3 -0.5 C 0 km/h
2879 17-12-2010 00:08:03 -0.5 C 3.79 g/m*3 -0.5 C 0 km/h
2880 17-12-2010 00:20:03 -0.3 C 3.84 g/m*3 -0.3 C 0 km/h
2881 17-12-2010 00:32:03 -0.3 C 3.84 g/m*3 -0.3 C 0 km/h
2882 17-12-2010 00:44:03 -0.1 C 3.9 g/m*3 -0.1 C 0 km/h
2883 17-12-2010 00:56:04 -0.2 C 3.87 g/m*3 -0.2 C 0 km/h
2884 17-12-2010 01:08:04 -0.2 C 3.87 g/m*3 -0.2 C 0 km/h
2885 17-12-2010 01:20:04 -0.3 C 3.89 g/m*3 -0.3 C 0 km/h
2886 17-12-2010 01:32:04 -0.4 C 3.86 g/m*3 -0.4 C 0 km/h
2887 17-12-2010 01:44:04 -0.4 C 3.91 g/m*3 -0.4 C 0 km/h
2888 17-12-2010 01:56:04 -0.4 C 3.86 g/m*3 -0.4 C 0 km/h
2889 17-12-2010 02:08:04 -0.5 C 3.79 g/m*3 -0.5 C 0 km/h
2890 17-12-2010 02:20:04 -0.5 C 3.7 g/m*3 -0.5 C 0 km/h
2891 17-12-2010 02:32:04 -0.6 C 3.58 g/m*3 -0.6 C 0 km/h
2892 17-12-2010 02:44:04 -0.6 C 3.53 g/m*3 -0.6 C 0 km/h
2893 17-12-2010 02:56:04 -0.7 C 3.51 g/m*3 -0.7 C 0 km/h
2894 17-12-2010 03:08:04 -1.1 C 3.37 g/m*3 -1.1 C 0 km/h
2895 17-12-2010 03:20:04 -1.3 C 3.36 g/m*3 -1.3 C 0 km/h
2896 17-12-2010 03:32:04 -1.2 C 3.39 g/m*3 -1.2 C 0 km/h
2897 17-12-2010 03:44:04 -1.2 C 3.34 g/m*3 -1.2 C 0 km/h
2898 17-12-2010 03:56:04 -1.2 C 3.34 g/m*3 -1.2 C 0 km/h
2899 17-12-2010 04:08:04 -1.1 C 3.23 g/m*3 -1.1 C 0 km/h
2900 17-12-2010 04:20:04 -1.2 C 3.12 g/m*3 -1.2 C 0 km/h
Sensor: Nr:Datum:Temp:Abs-Feuchte:Windchill:Wind:
Aussen-T/F 2901 17-12-2010 04:32:04 -1.3 C 3.14 g/m*3 -1.3 C 0 km/h
2902 17-12-2010 04:44:04 -1.3 C 3.14 g/m*3 -1.3 C 0 km/h
2903 17-12-2010 04:56:04 -1.5 C 3.14 g/m*3 -1.5 C 0 km/h
2904 17-12-2010 05:08:05 -1.3 C 3.28 g/m*3 -1.3 C 0 km/h
2905 17-12-2010 05:20:05 -1.5 C 3.27 g/m*3 -1.5 C 0 km/h
2906 17-12-2010 05:32:05 -1.7 C 3.27 g/m*3 -1.7 C 0 km/h
2907 17-12-2010 05:44:05 -1.8 C 3.25 g/m*3 -1.8 C 0 km/h
2908 17-12-2010 05:56:05 -1.8 C 3.21 g/m*3 -1.8 C 0 km/h
2909 17-12-2010 06:08:05 -1.9 C 3.14 g/m*3 -1.9 C 0 km/h
2910 17-12-2010 06:20:05 -2.2 C 3.08 g/m*3 -2.2 C 0 km/h
2911 17-12-2010 06:32:05 -2.3 C 3.01 g/m*3 -2.3 C 0 km/h
2912 17-12-2010 06:44:05 -2.6 C 2.83 g/m*3 -2.6 C 0 km/h
2913 17-12-2010 06:56:05 -2.2 C 2.78 g/m*3 -2.2 C 0 km/h
2914 17-12-2010 07:08:05 -2.2 C 2.62 g/m*3 -2.2 C 0 km/h
2915 17-12-2010 07:20:04 -2.1 C 2.64 g/m*3 -2.1 C 0 km/h
2916 17-12-2010 07:32:03 -2.3 C 2.64 g/m*3 -2.3 C 0 km/h
2917 17-12-2010 07:44:03 -2.6 C 2.63 g/m*3 -2.6 C 0 km/h
2918 17-12-2010 07:56:02 -2.2 C 2.74 g/m*3 -2.2 C 0 km/h
2919 17-12-2010 08:08:02 -2.4 C 2.83 g/m*3 -2.4 C 0 km/h
2920 17-12-2010 08:20:02 -2.4 C 2.99 g/m*3 -2.4 C 0 km/h
2921 17-12-2010 08:32:02 -2.1 C 3.1 g/m*3 -2.1 C 0 km/h
2922 17-12-2010 08:44:02 -2.1 C 3.06 g/m*3 -2.1 C 0 km/h
2923 17-12-2010 08:56:02 -2.1 C 3.01 g/m*3 -2.1 C 0 km/h
2924 17-12-2010 09:08:01 -2 C 2.95 g/m*3 -2 C 0 km/h
2925 17-12-2010 09:20:02 -2 C 2.95 g/m*3 -2 C 0 km/h
Sensor: Nr:Datum:Temp:Abs-Feuchte:Windchill:Wind:
Aussen-T/F 2926 17-12-2010 09:32:02 -1.9 C 3.01 g/m*3 -1.9 C 0 km/h
2927 17-12-2010 09:44:02 -1.8 C 3.08 g/m*3 -1.8 C 0 km/h
2928 17-12-2010 09:56:02 -1.9 C 3.06 g/m*3 -1.9 C 0 km/h
2929 17-12-2010 10:08:02 -1.9 C 3.01 g/m*3 -1.9 C 0 km/h
2930 17-12-2010 10:20:02 -1.8 C 2.95 g/m*3 -1.8 C 0 km/h
2931 17-12-2010 10:32:02 -1.7 C 2.88 g/m*3 -1.7 C 0 km/h
2932 17-12-2010 10:44:02 -1.8 C 2.86 g/m*3 -1.8 C 0 km/h
2933 17-12-2010 10:56:01 -1.1 C 3.05 g/m*3 -1.1 C 0 km/h
2934 17-12-2010 11:08:01 -1.5 C 2.92 g/m*3 -1.5 C 0 km/h
2935 17-12-2010 11:20:01 -1.4 C 2.86 g/m*3 -1.4 C 0 km/h
2936 17-12-2010 11:32:01 -1.1 C 2.78 g/m*3 -1.1 C 0 km/h
2937 17-12-2010 11:44:01 -1.1 C 2.56 g/m*3 -1.1 C 0 km/h
2938 17-12-2010 11:56:01 -0.9 C 2.55 g/m*3 -0.9 C 0 km/h
2939 17-12-2010 12:08:01 -0.6 C 2.6 g/m*3 -0.6 C 0 km/h
2940 17-12-2010 12:20:02 -1.2 C 2.54 g/m*3 -1.2 C 0 km/h
2941 17-12-2010 12:32:01 -1.4 C 2.51 g/m*3 -1.4 C 0 km/h
2942 17-12-2010 12:44:01 -1.2 C 2.54 g/m*3 -1.2 C 0 km/h
2943 17-12-2010 12:56:03 -1.3 C 2.43 g/m*3 -1.3 C 0 km/h
2944 17-12-2010 13:08:02 -1.9 C 2.38 g/m*3 -1.9 C 0 km/h
2945 17-12-2010 13:20:02 -1 C 2.44 g/m*3 -1 C 0 km/h
2946 17-12-2010 13:32:02 -1 C 2.44 g/m*3 -1 C 0 km/h
2947 17-12-2010 13:44:02 -1 C 2.44 g/m*3 -1 C 0 km/h
2948 17-12-2010 13:56:02 -1.2 C 2.45 g/m*3 -1.2 C 0 km/h
2949 17-12-2010 14:08:01 -0.6 C 2.56 g/m*3 -0.6 C 0 km/h
2950 17-12-2010 14:20:02 -1.1 C 2.51 g/m*3 -1.1 C 0 km/h
Sensor: Nr:Datum:Temp:Abs-Feuchte:Windchill:Wind:
Aussen-T/F 2951 17-12-2010 14:32:02 -1.6 C 2.6 g/m*3 -1.6 C 0 km/h
2952 17-12-2010 14:44:02 -1.8 C 2.74 g/m*3 -1.8 C 0 km/h
2953 17-12-2010 14:56:02 -1.9 C 2.84 g/m*3 -1.9 C 0 km/h
2954 17-12-2010 15:08:03 -1.9 C 2.93 g/m*3 -1.9 C 0 km/h
2955 17-12-2010 15:20:02 -1.8 C 2.99 g/m*3 -1.8 C 0 km/h
2956 17-12-2010 15:32:02 -1.7 C 2.97 g/m*3 -1.7 C 0 km/h
2957 17-12-2010 15:44:03 -1.9 C 2.97 g/m*3 -1.9 C 0 km/h
2958 17-12-2010 15:56:01 -1.8 C 3.04 g/m*3 -1.8 C 0 km/h
2959 17-12-2010 16:08:02 -1.8 C 3.04 g/m*3 -1.8 C 0 km/h
2960 17-12-2010 16:20:01 -1.9 C 3.01 g/m*3 -1.9 C 0 km/h
2961 17-12-2010 16:32:01 -2.1 C 3.01 g/m*3 -2.1 C 0 km/h
2962 17-12-2010 16:44:01 -2 C 3.03 g/m*3 -2 C 0 km/h
2963 17-12-2010 16:56:01 -2.6 C 2.91 g/m*3 -2.6 C 0 km/h
2964 17-12-2010 17:08:01 -3.4 C 2.83 g/m*3 -3.4 C 0 km/h
2965 17-12-2010 17:20:01 -4.3 C 2.72 g/m*3 -4.3 C 0 km/h
2966 17-12-2010 17:32:01 -4.2 C 2.81 g/m*3 -4.2 C 0 km/h
2967 17-12-2010 17:44:01 -4.1 C 2.83 g/m*3 -4.1 C 0 km/h
2968 17-12-2010 17:56:01 -4.3 C 2.79 g/m*3 -4.3 C 0 km/h
2969 17-12-2010 18:08:02 -4.6 C 2.77 g/m*3 -4.6 C 0 km/h
2970 17-12-2010 18:20:01 -4.8 C 2.76 g/m*3 -4.8 C 0 km/h
2971 17-12-2010 18:32:01 -5.6 C 2.61 g/m*3 -5.6 C 0 km/h
2972 17-12-2010 18:44:01 -5.8 C 2.6 g/m*3 -5.8 C 0 km/h
2973 17-12-2010 18:56:01 -5.3 C 2.73 g/m*3 -5.3 C 0 km/h
2974 17-12-2010 19:08:02 -6.2 C 2.53 g/m*3 -6.2 C 0 km/h
2975 17-12-2010 19:20:02 -6.5 C 2.5 g/m*3 -6.5 C 0 km/h
Sensor: Nr:Datum:Temp:Abs-Feuchte:Windchill:Wind:
Aussen-T/F 2976 17-12-2010 19:32:01 -6.1 C 2.61 g/m*3 -6.1 C 0 km/h
2977 17-12-2010 19:44:01 -6.7 C 2.47 g/m*3 -6.7 C 0 km/h
2978 17-12-2010 19:56:01 -6.9 C 2.43 g/m*3 -6.9 C 0 km/h
2979 17-12-2010 20:08:02 -6.6 C 2.52 g/m*3 -6.6 C 0 km/h
2980 17-12-2010 20:20:01 -6.6 C 2.52 g/m*3 -6.6 C 0 km/h
2981 17-12-2010 20:32:02 -6.6 C 2.52 g/m*3 -6.6 C 0 km/h
2982 17-12-2010 20:44:02 -6.5 C 2.53 g/m*3 -6.5 C 0 km/h
2983 17-12-2010 20:56:02 -6.6 C 2.52 g/m*3 -6.6 C 0 km/h
2984 17-12-2010 21:08:02 -6.8 C 2.48 g/m*3 -6.8 C 0 km/h
2985 17-12-2010 21:20:02 -6.8 C 2.48 g/m*3 -6.8 C 0 km/h
2986 17-12-2010 21:32:02 -7 C 2.41 g/m*3 -7 C 0 km/h
2987 17-12-2010 21:44:02 -7.1 C 2.4 g/m*3 -7.1 C 0 km/h
2988 17-12-2010 21:57:02 -7 C 2.41 g/m*3 -7 C 0 km/h
2989 17-12-2010 22:09:02 -7.3 C 2.36 g/m*3 -7.3 C 0 km/h
2990 17-12-2010 22:21:02 -7.4 C 2.34 g/m*3 -7.4 C 0 km/h
2991 17-12-2010 22:33:02 -7.2 C 2.38 g/m*3 -7.2 C 0 km/h
2992 17-12-2010 22:45:02 -6.6 C 2.52 g/m*3 -6.6 C 0 km/h
2993 17-12-2010 22:57:02 -6.1 C 2.61 g/m*3 -6.1 C 0 km/h
2994 17-12-2010 23:09:02 -6.2 C 2.59 g/m*3 -6.2 C 0 km/h
2995 17-12-2010 23:21:02 -6 C 2.63 g/m*3 -6 C 0 km/h
2996 17-12-2010 23:33:02 -6 C 2.63 g/m*3 -6 C 0 km/h
2997 17-12-2010 23:45:02 -5.8 C 2.7 g/m*3 -5.8 C 0 km/h
2998 17-12-2010 23:57:03 -5.5 C 2.76 g/m*3 -5.5 C 0 km/h
2999 18-12-2010 00:09:03 -5.2 C 2.82 g/m*3 -5.2 C 0 km/h
3000 18-12-2010 00:21:03 -4.9 C 2.92 g/m*3 -4.9 C 0 km/h
Sensor: Nr:Datum:Temp:Abs-Feuchte:Windchill:Wind:
Aussen-T/F 3001 18-12-2010 00:33:03 -4.7 C 2.96 g/m*3 -4.7 C 0 km/h
3002 18-12-2010 00:45:03 -4.5 C 3 g/m*3 -4.5 C 0 km/h
3003 18-12-2010 00:57:03 -4.4 C 2.99 g/m*3 -4.4 C 0 km/h
3004 18-12-2010 01:09:03 -4.3 C 2.97 g/m*3 -4.3 C 0 km/h
3005 18-12-2010 01:21:03 -4.3 C 2.94 g/m*3 -4.3 C 0 km/h
3006 18-12-2010 01:33:03 -4.2 C 2.96 g/m*3 -4.2 C 0 km/h
3007 18-12-2010 01:45:03 -4.6 C 2.84 g/m*3 -4.6 C 0 km/h
3008 18-12-2010 01:57:03 -4.8 C 2.8 g/m*3 -4.8 C 0 km/h
3009 18-12-2010 02:09:03 -5.2 C 2.68 g/m*3 -5.2 C 0 km/h
3010 18-12-2010 02:21:03 -5.9 C 2.55 g/m*3 -5.9 C 0 km/h
3011 18-12-2010 02:33:03 -5.4 C 2.68 g/m*3 -5.4 C 0 km/h
3012 18-12-2010 02:45:03 -5.3 C 2.73 g/m*3 -5.3 C 0 km/h
3013 18-12-2010 02:57:03 -4.6 C 2.84 g/m*3 -4.6 C 0 km/h
3014 18-12-2010 03:09:03 -4.5 C 2.82 g/m*3 -4.5 C 0 km/h
3015 18-12-2010 03:21:03 -4.4 C 2.84 g/m*3 -4.4 C 0 km/h
3016 18-12-2010 03:33:03 -4.3 C 2.86 g/m*3 -4.3 C 0 km/h
3017 18-12-2010 03:45:03 -4.3 C 2.9 g/m*3 -4.3 C 0 km/h
3018 18-12-2010 03:57:03 -4.3 C 2.94 g/m*3 -4.3 C 0 km/h
3019 18-12-2010 04:09:03 -4.4 C 2.92 g/m*3 -4.4 C 0 km/h
3020 18-12-2010 04:21:04 -4.4 C 2.92 g/m*3 -4.4 C 0 km/h
3021 18-12-2010 04:33:04 -4.3 C 2.97 g/m*3 -4.3 C 0 km/h
3022 18-12-2010 04:45:04 -4.4 C 2.95 g/m*3 -4.4 C 0 km/h
3023 18-12-2010 04:57:04 -4.3 C 2.97 g/m*3 -4.3 C 0 km/h
3024 18-12-2010 05:09:04 -4.4 C 2.99 g/m*3 -4.4 C 0 km/h
3025 18-12-2010 05:21:04 -4.4 C 2.99 g/m*3 -4.4 C 0 km/h
Sensor: Nr:Datum:Temp:Abs-Feuchte:Windchill:Wind:
Aussen-T/F 3026 18-12-2010 05:33:04 -4.5 C 2.96 g/m*3 -4.5 C 0 km/h
3027 18-12-2010 05:45:04 -4.4 C 2.99 g/m*3 -4.4 C 0 km/h
3028 18-12-2010 05:57:04 -4.5 C 2.96 g/m*3 -4.5 C 0 km/h
3029 18-12-2010 06:09:04 -4.4 C 2.99 g/m*3 -4.4 C 0 km/h
3030 18-12-2010 06:21:04 -4.4 C 2.99 g/m*3 -4.4 C 0 km/h
3031 18-12-2010 06:33:04 -4.4 C 2.99 g/m*3 -4.4 C 0 km/h
3032 18-12-2010 06:45:04 -4.3 C 3.01 g/m*3 -4.3 C 0 km/h
3033 18-12-2010 06:57:04 -4.2 C 3.07 g/m*3 -4.2 C 0 km/h
3034 18-12-2010 07:09:04 -4.2 C 3.07 g/m*3 -4.2 C 0 km/h
3035 18-12-2010 07:21:04 -4.8 C 2.9 g/m*3 -4.8 C 0 km/h
3036 18-12-2010 07:33:04 -5.4 C 2.78 g/m*3 -5.4 C 0 km/h
3037 18-12-2010 07:45:04 -6.2 C 2.62 g/m*3 -6.2 C 0 km/h
3038 18-12-2010 07:57:04 -5.7 C 2.72 g/m*3 -5.7 C 0 km/h
3039 18-12-2010 08:09:04 -5.3 C 2.83 g/m*3 -5.3 C 0 km/h
3040 18-12-2010 08:21:04 -5.3 C 2.83 g/m*3 -5.3 C 0 km/h
3041 18-12-2010 08:33:04 -5.5 C 2.76 g/m*3 -5.5 C 0 km/h
3042 18-12-2010 08:45:05 -5.4 C 2.78 g/m*3 -5.4 C 0 km/h
3043 18-12-2010 08:57:05 -5.2 C 2.79 g/m*3 -5.2 C 0 km/h
3044 18-12-2010 09:09:02 -5.2 C 2.75 g/m*3 -5.2 C 0 km/h
3045 18-12-2010 09:21:02 -5.1 C 2.74 g/m*3 -5.1 C 0 km/h
3046 18-12-2010 09:33:02 -4.9 C 2.71 g/m*3 -4.9 C 0 km/h
3047 18-12-2010 09:45:02 -4.6 C 2.73 g/m*3 -4.6 C 0 km/h
3048 18-12-2010 09:57:02 -4.4 C 2.7 g/m*3 -4.4 C 0 km/h
3049 18-12-2010 10:09:02 -4.2 C 2.67 g/m*3 -4.2 C 0 km/h
3050 18-12-2010 10:21:02 -4.1 C 2.65 g/m*3 -4.1 C 0 km/h
Sensor: Nr:Datum:Temp:Abs-Feuchte:Windchill:Wind:
Aussen-T/F 3051 18-12-2010 10:33:02 -3.8 C 2.71 g/m*3 -3.8 C 0 km/h
3052 18-12-2010 10:45:02 -3.5 C 2.73 g/m*3 -3.5 C 0 km/h
3053 18-12-2010 10:57:02 -3.5 C 2.65 g/m*3 -3.5 C 0 km/h
3054 18-12-2010 11:09:03 -3.5 C 2.62 g/m*3 -3.5 C 0 km/h
3055 18-12-2010 11:21:02 -3.9 C 2.62 g/m*3 -3.9 C 0 km/h
3056 18-12-2010 11:33:02 -3.5 C 2.69 g/m*3 -3.5 C 0 km/h
3057 18-12-2010 11:45:01 -3.2 C 2.59 g/m*3 -3.2 C 0 km/h
3058 18-12-2010 11:57:01 -3.3 C 2.42 g/m*3 -3.3 C 0 km/h
3059 18-12-2010 12:09:02 -3.6 C 2.41 g/m*3 -3.6 C 0 km/h
3060 18-12-2010 12:21:01 -3.8 C 2.49 g/m*3 -3.8 C 0 km/h
3061 18-12-2010 12:33:01 -3.3 C 2.5 g/m*3 -3.3 C 0 km/h
3062 18-12-2010 12:45:01 -2.9 C 2.49 g/m*3 -2.9 C 0 km/h
3063 18-12-2010 12:57:01 -2.8 C 2.43 g/m*3 -2.8 C 0 km/h
3064 18-12-2010 13:09:01 -3 C 2.36 g/m*3 -3 C 0 km/h
3065 18-12-2010 13:21:02 -3.2 C 2.32 g/m*3 -3.2 C 0 km/h
3066 18-12-2010 13:33:01 -3 C 2.36 g/m*3 -3 C 0 km/h
3067 18-12-2010 13:45:03 -2.8 C 2.39 g/m*3 -2.8 C 0 km/h
3068 18-12-2010 13:57:03 -2.8 C 2.39 g/m*3 -2.8 C 0 km/h
3069 18-12-2010 14:09:02 -3.3 C 2.35 g/m*3 -3.3 C 0 km/h
3070 18-12-2010 14:21:02 -3.2 C 2.32 g/m*3 -3.2 C 0 km/h
3071 18-12-2010 14:33:02 -3.7 C 2.28 g/m*3 -3.7 C 0 km/h
3072 18-12-2010 14:45:02 -4.2 C 2.27 g/m*3 -4.2 C 0 km/h
3073 18-12-2010 14:57:02 -4.8 C 2.25 g/m*3 -4.8 C 0 km/h
3074 18-12-2010 15:09:01 -4.7 C 2.3 g/m*3 -4.7 C 0 km/h
3075 18-12-2010 15:21:02 -5.1 C 2.3 g/m*3 -5.1 C 0 km/h
Sensor: Nr:Datum:Temp:Abs-Feuchte:Windchill:Wind:
Aussen-T/F 3076 18-12-2010 15:33:02 -5.6 C 2.28 g/m*3 -5.6 C 0 km/h
3077 18-12-2010 15:45:02 -5.9 C 2.33 g/m*3 -5.9 C 0 km/h
3078 18-12-2010 15:57:02 -6.1 C 2.33 g/m*3 -6.1 C 0 km/h
3079 18-12-2010 16:09:03 -6.6 C 2.3 g/m*3 -6.6 C 0 km/h
3080 18-12-2010 16:21:02 -6.9 C 2.25 g/m*3 -6.9 C 0 km/h
3081 18-12-2010 16:33:02 -7 C 2.3 g/m*3 -7 C 0 km/h
3082 18-12-2010 16:45:01 -7.5 C 2.24 g/m*3 -7.5 C 0 km/h
3083 18-12-2010 16:57:01 -7.3 C 2.28 g/m*3 -7.3 C 0 km/h
3084 18-12-2010 17:09:02 -7.6 C 2.25 g/m*3 -7.6 C 0 km/h
3085 18-12-2010 17:21:01 -7.7 C 2.24 g/m*3 -7.7 C 0 km/h
3086 18-12-2010 17:33:01 -7.9 C 2.23 g/m*3 -7.9 C 0 km/h
3087 18-12-2010 17:45:01 -7.3 C 2.36 g/m*3 -7.3 C 0 km/h
3088 18-12-2010 17:57:01 -7.3 C 2.36 g/m*3 -7.3 C 0 km/h
3089 18-12-2010 18:09:01 -6.7 C 2.5 g/m*3 -6.7 C 0 km/h
3090 18-12-2010 18:21:02 -6.8 C 2.48 g/m*3 -6.8 C 0 km/h
3091 18-12-2010 18:33:01 -6.9 C 2.43 g/m*3 -6.9 C 0 km/h
3092 18-12-2010 18:45:02 -6.8 C 2.45 g/m*3 -6.8 C 0 km/h
3093 18-12-2010 18:57:02 -6.5 C 2.53 g/m*3 -6.5 C 0 km/h
3094 18-12-2010 19:09:01 -5.8 C 2.7 g/m*3 -5.8 C 0 km/h
3095 18-12-2010 19:21:02 -5.4 C 2.78 g/m*3 -5.4 C 0 km/h
3096 18-12-2010 19:33:01 -5.4 C 2.78 g/m*3 -5.4 C 0 km/h
3097 18-12-2010 19:45:02 -5.2 C 2.82 g/m*3 -5.2 C 0 km/h
3098 18-12-2010 19:57:02 -4.9 C 2.88 g/m*3 -4.9 C 0 km/h
3099 18-12-2010 20:09:02 -4.6 C 2.94 g/m*3 -4.6 C 0 km/h
3100 18-12-2010 20:21:02 -4.4 C 2.99 g/m*3 -4.4 C 0 km/h
Sensor: Nr:Datum:Temp:Abs-Feuchte:Windchill:Wind:
Aussen-T/F 3101 18-12-2010 20:33:02 -4.2 C 2.99 g/m*3 -4.2 C 0 km/h
3102 18-12-2010 20:45:01 -4.4 C 2.95 g/m*3 -4.4 C 0 km/h
3103 18-12-2010 20:57:01 -4.2 C 2.99 g/m*3 -4.2 C 0 km/h
3104 18-12-2010 21:09:02 -4.1 C 3.01 g/m*3 -4.1 C 0 km/h
3105 18-12-2010 21:21:01 -4.1 C 3.01 g/m*3 -4.1 C 0 km/h
3106 18-12-2010 21:33:02 -3.9 C 3.06 g/m*3 -3.9 C 0 km/h
3107 18-12-2010 21:46:03 -4 C 3.04 g/m*3 -4 C 0 km/h
3108 18-12-2010 21:58:03 -3.8 C 3.12 g/m*3 -3.8 C 0 km/h
3109 18-12-2010 22:10:03 -3.5 C 3.18 g/m*3 -3.5 C 0 km/h
3110 18-12-2010 22:22:03 -3.5 C 3.18 g/m*3 -3.5 C 0 km/h
3111 18-12-2010 22:34:03 -3.4 C 3.21 g/m*3 -3.4 C 0 km/h
3112 18-12-2010 22:46:03 -3.4 C 3.21 g/m*3 -3.4 C 0 km/h
3113 18-12-2010 22:58:03 -3.3 C 3.23 g/m*3 -3.3 C 0 km/h
3114 18-12-2010 23:10:03 -3.2 C 3.25 g/m*3 -3.2 C 0 km/h
3115 18-12-2010 23:22:03 -3.1 C 3.28 g/m*3 -3.1 C 0 km/h
3116 18-12-2010 23:34:03 -3.1 C 3.28 g/m*3 -3.1 C 0 km/h
3117 18-12-2010 23:46:03 -3.1 C 3.28 g/m*3 -3.1 C 0 km/h
3118 18-12-2010 23:58:03 -2.9 C 3.32 g/m*3 -2.9 C 0 km/h
3119 19-12-2010 00:10:03 -2.7 C 3.37 g/m*3 -2.7 C 0 km/h
3120 19-12-2010 00:22:03 -2.7 C 3.37 g/m*3 -2.7 C 0 km/h
3121 19-12-2010 00:34:04 -2.6 C 3.39 g/m*3 -2.6 C 0 km/h
3122 19-12-2010 00:46:04 -2.4 C 3.44 g/m*3 -2.4 C 0 km/h
3123 19-12-2010 00:58:04 -2.4 C 3.48 g/m*3 -2.4 C 0 km/h
3124 19-12-2010 01:10:04 -2.4 C 3.52 g/m*3 -2.4 C 0 km/h
3125 19-12-2010 01:22:04 -2.4 C 3.52 g/m*3 -2.4 C 0 km/h
Sensor: Nr:Datum:Temp:Abs-Feuchte:Windchill:Wind:
Aussen-T/F 3126 19-12-2010 01:34:04 -2.4 C 3.52 g/m*3 -2.4 C 0 km/h
3127 19-12-2010 01:46:04 -2.5 C 3.54 g/m*3 -2.5 C 0 km/h
3128 19-12-2010 01:58:04 -2.5 C 3.54 g/m*3 -2.5 C 0 km/h
3129 19-12-2010 02:10:04 -2.4 C 3.57 g/m*3 -2.4 C 0 km/h
3130 19-12-2010 02:22:04 -2.5 C 3.54 g/m*3 -2.5 C 0 km/h
3131 19-12-2010 02:34:04 -2.5 C 3.54 g/m*3 -2.5 C 0 km/h
3132 19-12-2010 02:46:04 -2.5 C 3.54 g/m*3 -2.5 C 0 km/h
3133 19-12-2010 02:58:04 -2.6 C 3.52 g/m*3 -2.6 C 0 km/h
3134 19-12-2010 03:10:04 -2.7 C 3.49 g/m*3 -2.7 C 0 km/h
3135 19-12-2010 03:22:04 -2.7 C 3.49 g/m*3 -2.7 C 0 km/h
3136 19-12-2010 03:34:04 -2.7 C 3.49 g/m*3 -2.7 C 0 km/h
3137 19-12-2010 03:46:04 -2.7 C 3.49 g/m*3 -2.7 C 0 km/h
3138 19-12-2010 03:58:04 -2.7 C 3.49 g/m*3 -2.7 C 0 km/h
3139 19-12-2010 04:10:04 -2.6 C 3.52 g/m*3 -2.6 C 0 km/h
3140 19-12-2010 04:22:04 -2.5 C 3.54 g/m*3 -2.5 C 0 km/h
3141 19-12-2010 04:34:04 -2.5 C 3.54 g/m*3 -2.5 C 0 km/h
3142 19-12-2010 04:46:04 -2.4 C 3.57 g/m*3 -2.4 C 0 km/h
3143 19-12-2010 04:58:05 -2.3 C 3.59 g/m*3 -2.3 C 0 km/h
3144 19-12-2010 05:10:05 -1.6 C 3.77 g/m*3 -1.6 C 0 km/h
3145 19-12-2010 05:22:05 -1.1 C 3.82 g/m*3 -1.1 C 0 km/h
3146 19-12-2010 05:34:05 -0.9 C 3.69 g/m*3 -0.9 C 0 km/h
3147 19-12-2010 05:46:05 -0.6 C 3.58 g/m*3 -0.6 C 0 km/h
3148 19-12-2010 05:58:05 -0.9 C 3.46 g/m*3 -0.9 C 0 km/h
3149 19-12-2010 06:10:05 -1.1 C 3.41 g/m*3 -1.1 C 0 km/h
3150 19-12-2010 06:22:05 -1.4 C 3.3 g/m*3 -1.4 C 0 km/h
Sensor: Nr:Datum:Temp:Abs-Feuchte:Windchill:Wind:
Aussen-T/F 3151 19-12-2010 06:34:05 -1.4 C 3.25 g/m*3 -1.4 C 0 km/h
3152 19-12-2010 06:46:05 -1.7 C 3.19 g/m*3 -1.7 C 0 km/h
3153 19-12-2010 06:58:05 -2.6 C 3.07 g/m*3 -2.6 C 0 km/h
3154 19-12-2010 07:10:05 -2.8 C 3.03 g/m*3 -2.8 C 0 km/h
3155 19-12-2010 07:22:05 -3.3 C 3.04 g/m*3 -3.3 C 0 km/h
3156 19-12-2010 07:34:05 -2.7 C 3.21 g/m*3 -2.7 C 0 km/h
3157 19-12-2010 07:46:05 -2 C 3.37 g/m*3 -2 C 0 km/h
3158 19-12-2010 07:58:05 -2.1 C 3.31 g/m*3 -2.1 C 0 km/h
3159 19-12-2010 08:10:05 -1.7 C 3.31 g/m*3 -1.7 C 0 km/h
3160 19-12-2010 08:22:05 -2.7 C 3.09 g/m*3 -2.7 C 0 km/h
3161 19-12-2010 08:34:05 -2.9 C 3.13 g/m*3 -2.9 C 0 km/h
3162 19-12-2010 08:46:02 -2.9 C 3.16 g/m*3 -2.9 C 0 km/h
3163 19-12-2010 08:58:02 -2.3 C 3.3 g/m*3 -2.3 C 0 km/h
3164 19-12-2010 09:10:02 -2.1 C 3.31 g/m*3 -2.1 C 0 km/h
3165 19-12-2010 09:22:02 -2.5 C 3.26 g/m*3 -2.5 C 0 km/h
3166 19-12-2010 09:34:02 -2.4 C 3.32 g/m*3 -2.4 C 0 km/h
3167 19-12-2010 09:46:02 -2 C 3.41 g/m*3 -2 C 0 km/h
3168 19-12-2010 09:58:02 -1.2 C 3.57 g/m*3 -1.2 C 0 km/h
3169 19-12-2010 10:10:02 -1.1 C 3.5 g/m*3 -1.1 C 0 km/h
3170 19-12-2010 10:22:02 -1.1 C 3.41 g/m*3 -1.1 C 0 km/h
3171 19-12-2010 10:34:02 -0.8 C 3.44 g/m*3 -0.8 C 0 km/h
3172 19-12-2010 10:46:02 -0.9 C 3.37 g/m*3 -0.9 C 0 km/h
3173 19-12-2010 10:58:02 -0.8 C 3.35 g/m*3 -0.8 C 0 km/h
3174 19-12-2010 11:10:01 -0.7 C 3.37 g/m*3 -0.7 C 0 km/h
3175 19-12-2010 11:22:02 -0.6 C 3.44 g/m*3 -0.6 C 0 km/h
Sensor: Nr:Datum:Temp:Abs-Feuchte:Windchill:Wind:
Aussen-T/F 3176 19-12-2010 11:34:02 -0.4 C 3.58 g/m*3 -0.4 C 0 km/h
3177 19-12-2010 11:46:02 -0.2 C 3.68 g/m*3 -0.2 C 0 km/h
3178 19-12-2010 11:58:02 0 C 3.73 g/m*3 0 C 0 km/h
3179 19-12-2010 12:10:02 0 C 3.59 g/m*3 0 C 0 km/h
3180 19-12-2010 12:22:02 0.2 C 3.64 g/m*3 0.2 C 0 km/h
3181 19-12-2010 12:34:02 0.6 C 3.69 g/m*3 0.6 C 0 km/h
3182 19-12-2010 12:46:01 0.5 C 3.56 g/m*3 0.5 C 0 km/h
3183 19-12-2010 12:58:01 0.2 C 3.54 g/m*3 0.2 C 0 km/h
3184 19-12-2010 13:10:02 0.2 C 3.59 g/m*3 0.2 C 0 km/h
3185 19-12-2010 13:22:01 0.2 C 3.68 g/m*3 0.2 C 0 km/h
3186 19-12-2010 13:34:02 0.2 C 3.73 g/m*3 0.2 C 0 km/h
3187 19-12-2010 13:46:01 0.1 C 3.76 g/m*3 0.1 C 0 km/h
3188 19-12-2010 13:58:01 0 C 3.78 g/m*3 0 C 0 km/h
3189 19-12-2010 14:10:02 -0.2 C 3.82 g/m*3 -0.2 C 0 km/h
3190 19-12-2010 14:22:01 -0.2 C 3.92 g/m*3 -0.2 C 0 km/h
3191 19-12-2010 14:34:02 -0.2 C 3.97 g/m*3 -0.2 C 0 km/h
3192 19-12-2010 14:46:01 -0.1 C 3.99 g/m*3 -0.1 C 0 km/h
3193 19-12-2010 14:58:01 -0.2 C 4.01 g/m*3 -0.2 C 0 km/h
3194 19-12-2010 15:10:02 -0.4 C 4.01 g/m*3 -0.4 C 0 km/h
3195 19-12-2010 15:22:02 -0.4 C 4.05 g/m*3 -0.4 C 0 km/h
3196 19-12-2010 15:34:01 -0.4 C 4.1 g/m*3 -0.4 C 0 km/h
3197 19-12-2010 15:46:02 -0.4 C 4.1 g/m*3 -0.4 C 0 km/h
3198 19-12-2010 15:58:02 -0.4 C 4.15 g/m*3 -0.4 C 0 km/h
3199 19-12-2010 16:10:01 -0.4 C 4.19 g/m*3 -0.4 C 0 km/h
3200 19-12-2010 16:22:02 -0.3 C 4.22 g/m*3 -0.3 C 0 km/h
Sensor: Nr:Datum:Temp:Abs-Feuchte:Windchill:Wind:
Aussen-T/F 3201 19-12-2010 16:34:01 -0.3 C 4.22 g/m*3 -0.3 C 0 km/h
3202 19-12-2010 16:46:02 -0.2 C 4.25 g/m*3 -0.2 C 0 km/h
3203 19-12-2010 16:58:02 -0.3 C 4.27 g/m*3 -0.3 C 0 km/h
3204 19-12-2010 17:10:02 -0.2 C 4.3 g/m*3 -0.2 C 0 km/h
3205 19-12-2010 17:22:02 -0.2 C 4.3 g/m*3 -0.2 C 0 km/h
3206 19-12-2010 17:34:03 -0.2 C 4.35 g/m*3 -0.2 C 0 km/h
3207 19-12-2010 17:46:02 -0.2 C 4.35 g/m*3 -0.2 C 0 km/h
3208 19-12-2010 17:58:03 -0.2 C 4.35 g/m*3 -0.2 C 0 km/h
3209 19-12-2010 18:10:01 -0.2 C 4.35 g/m*3 -0.2 C 0 km/h
3210 19-12-2010 18:22:02 -0.2 C 4.35 g/m*3 -0.2 C 0 km/h
3211 19-12-2010 18:34:02 -0.2 C 4.35 g/m*3 -0.2 C 0 km/h
3212 19-12-2010 18:46:02 -0.2 C 4.35 g/m*3 -0.2 C 0 km/h
3213 19-12-2010 18:58:02 -0.1 C 4.43 g/m*3 -0.1 C 0 km/h
3214 19-12-2010 19:10:02 -0.1 C 4.43 g/m*3 -0.1 C 0 km/h
3215 19-12-2010 19:22:02 -0.1 C 4.43 g/m*3 -0.1 C 0 km/h
3216 19-12-2010 19:34:02 0 C 4.46 g/m*3 0 C 0 km/h
3217 19-12-2010 19:46:02 0 C 4.46 g/m*3 0 C 0 km/h
3218 19-12-2010 19:58:02 0 C 4.46 g/m*3 0 C 0 km/h
3219 19-12-2010 20:10:02 0 C 4.46 g/m*3 0 C 0 km/h
3220 19-12-2010 20:22:02 0 C 4.46 g/m*3 0 C 0 km/h
3221 19-12-2010 20:34:02 0.1 C 4.49 g/m*3 0.1 C 0 km/h
3222 19-12-2010 20:46:02 0.1 C 4.49 g/m*3 0.1 C 0 km/h
3223 19-12-2010 20:58:02 0.2 C 4.57 g/m*3 0.2 C 0 km/h
3224 19-12-2010 21:10:02 0.3 C 4.6 g/m*3 0.3 C 0 km/h
3225 19-12-2010 21:22:03 0.4 C 4.63 g/m*3 0.4 C 0 km/h
Sensor: Nr:Datum:Temp:Abs-Feuchte:Windchill:Wind:
Aussen-T/F 3226 19-12-2010 21:34:02 1 C 4.78 g/m*3 1 C 0 km/h
3227 19-12-2010 21:46:03 1.8 C 5.1 g/m*3 1.8 C 0 km/h
3228 19-12-2010 21:58:03 2 C 5.11 g/m*3 2 C 0 km/h
3229 19-12-2010 22:10:03 1.9 C 5.08 g/m*3 1.9 C 0 km/h
3230 19-12-2010 22:22:02 1.7 C 5.01 g/m*3 1.7 C 0 km/h
3231 19-12-2010 22:34:02 1.5 C 4.94 g/m*3 1.5 C 0 km/h
3232 19-12-2010 22:46:01 1.6 C 4.92 g/m*3 1.6 C 0 km/h
3233 19-12-2010 22:58:01 2.9 C 5.37 g/m*3 2.9 C 0 km/h
3234 19-12-2010 23:10:02 3.6 C 5.45 g/m*3 3.6 C 0 km/h
3235 19-12-2010 23:22:01 4.2 C 5.28 g/m*3 4.2 C 0 km/h
3236 19-12-2010 23:34:02 4.5 C 5 g/m*3 4.5 C 0 km/h
3237 19-12-2010 23:46:01 5.1 C 4.79 g/m*3 5.1 C 0 km/h
3238 19-12-2010 23:58:01 4.7 C 4.66 g/m*3 4.7 C 0 km/h
3239 20-12-2010 00:10:02 4.3 C 4.61 g/m*3 4.3 C 0 km/h